GTRJB / G-TRJB 7700 Squawk Report (18th of January, 2018)

Time Lat Lon Altitude Heading Speed Vertical Rate
2018-01-18 16:11:23 GMT 51.65669 -0.31799 700 262 76 -448
2018-01-18 16:11:14 GMT 51.65730 -0.31273 800 260 78 -384
2018-01-18 16:11:04 GMT 51.65795 -0.30701 900 261 75 -448
2018-01-18 16:10:53 GMT 51.65859 -0.30108 1,000 260 74 -448
2018-01-18 16:10:47 GMT 51.65888 -0.29793 1,000 263 72 -512
2018-01-18 16:10:42 GMT 51.65904 -0.29515 1,100 268 71 -640
2018-01-18 16:10:38 GMT 51.65909 -0.29284 1,100 296 73 -576
2018-01-18 16:10:35 GMT 51.65900 -0.29136 1,100 278 70 -576
2018-01-18 16:10:32 GMT 51.65886 -0.29002 1,200 286 71 -448
2018-01-18 16:10:29 GMT 51.65846 -0.28816 1,200 306 74 -640
2018-01-18 16:10:24 GMT 51.65762 -0.28609 1,300 314 75 -384
2018-01-18 16:10:22 GMT 51.65716 -0.28534 1,300 321 77 -448
2018-01-18 16:10:19 GMT 51.65611 -0.28401 1,300 328 79 -320
2018-01-18 16:10:17 GMT 51.65562 -0.28351 1,300 333 80 -256
2018-01-18 16:10:15 GMT 51.65497 -0.28297 1,300 342 83 -128
2018-01-18 16:10:12 GMT 51.65371 -0.28236 1,300 348 85 -192
2018-01-18 16:10:09 GMT 51.65231 -0.28193 1,300 353 87 -256
2018-01-18 16:10:05 GMT 51.65069 -0.28160 1,300 354 86 -384
2018-01-18 16:10:03 GMT 51.65027 -0.28152 1,300 355 86 -384
2018-01-18 16:10:01 GMT 51.64961 -0.28137 1,400 355 86 -384
2018-01-18 16:09:56 GMT 51.64733 -0.28107 1,400 356 85 -256
2018-01-18 16:09:53 GMT 51.64636 -0.28099 1,400 356 85 -192
2018-01-18 16:09:51 GMT 51.64547 -0.28091 1,400 358 85 -64
2018-01-18 16:09:48 GMT 51.64445 -0.28084 1,400 359 86 -64
2018-01-18 16:09:43 GMT 51.64233 -0.28082 1,400 1 88 -256
2018-01-18 16:09:42 GMT 51.64178 -0.28082 1,400 1 88 -256
2018-01-18 16:09:40 GMT 51.64119 -0.28084 1,400 7 89 -320
2018-01-18 16:09:37 GMT 51.63988 -0.28122 1,500 19 93 -320
2018-01-18 16:09:34 GMT 51.63872 -0.28193 1,500 34 99 -128
2018-01-18 16:09:32 GMT 51.63793 -0.28267 1,500 33 99 -128
2018-01-18 16:09:30 GMT 51.63707 -0.28372 1,500 44 103 -192
2018-01-18 16:09:28 GMT 51.63630 -0.28496 1,500 52 107 -192
2018-01-18 16:09:23 GMT 51.63506 -0.28839 1,500 70 112 -256
2018-01-18 16:09:20 GMT 51.63455 -0.29099 1,500 77 113 -128
2018-01-18 16:09:17 GMT 51.63435 -0.29266 1,500 79 113 -192
2018-01-18 16:09:15 GMT 51.63419 -0.29440 1,500 79 113 -128
2018-01-18 16:09:12 GMT 51.63383 -0.29724 1,500 80 114 -192
2018-01-18 16:09:10 GMT 51.63359 -0.29967 1,500 80 114 -128
2018-01-18 16:09:07 GMT 51.63341 -0.30146 1,500 80 114 -64
2018-01-18 16:09:05 GMT 51.63323 -0.30334 1,600 80 114 0
2018-01-18 16:09:02 GMT 51.63290 -0.30624 1,500 79 115 128
2018-01-18 16:08:59 GMT 51.63272 -0.30800 1,500 79 117 -128
2018-01-18 16:08:59 GMT 51.63272 -0.30800 1,500 79 117 -192
2018-01-18 16:08:56 GMT 51.63240 -0.31074 1,600 79 116 -256
2018-01-18 16:08:53 GMT 51.63206 -0.31364 1,600 79 118 -192
2018-01-18 16:08:51 GMT 51.63188 -0.31502 1,600 79 118 -128
2018-01-18 16:08:49 GMT 51.63169 -0.31700 1,600 80 119 -128
2018-01-18 16:08:47 GMT 51.63141 -0.31967 1,600 83 121 -128
2018-01-18 16:08:45 GMT 51.63139 -0.32046 1,600 86 123 -256
2018-01-18 16:08:42 GMT 51.63135 -0.32291 1,600 92 125 -512
2018-01-18 16:08:39 GMT 51.63148 -0.32573 1,600 105 124 -512
2018-01-18 16:08:37 GMT 51.63176 -0.32766 1,600 120 125 -384
2018-01-18 16:08:35 GMT 51.63220 -0.32928 1,700 117 124 -448
2018-01-18 16:08:32 GMT 51.63304 -0.33145 1,700 139 124 -512
2018-01-18 16:08:30 GMT 51.63402 -0.33310 1,700 139 124 -512
2018-01-18 16:08:28 GMT 51.63490 -0.33417 1,700 149 122 -512
2018-01-18 16:08:26 GMT 51.63616 -0.33531 1,700 155 120 -640
2018-01-18 16:08:24 GMT 51.63753 -0.33620 1,800 158 120 -768
2018-01-18 16:08:22 GMT 51.63831 -0.33672 1,800 164 117 -1088
2018-01-18 16:08:19 GMT 51.63979 -0.33752 1,800 164 117 -1088
2018-01-18 16:08:17 GMT 51.64086 -0.33798 1,900 176 110 -832
2018-01-18 16:08:15 GMT 51.64165 -0.33828 1,900 171 113 -1088
2018-01-18 16:08:12 GMT 51.64319 -0.33852 2,000 179 109 -768
2018-01-18 16:08:12 GMT 51.64319 -0.33852 2,000 178 109 -768
2018-01-18 16:08:12 GMT 51.64319 -0.33852 2,000 179 109 -768
2018-01-18 16:08:10 GMT 51.64408 -0.33859 2,000 180 109 -704
2018-01-18 16:08:08 GMT 51.64515 -0.33852 2,000 182 108 -576
2018-01-18 16:08:06 GMT 51.64617 -0.33852 2,000 183 109 -448
2018-01-18 16:08:04 GMT 51.64723 -0.33842 2,000 183 109 -384
2018-01-18 16:08:02 GMT 51.64824 -0.33835 2,000 184 111 -384
2018-01-18 16:08:02 GMT 51.64824 -0.33835 2,000 184 111 -384
2018-01-18 16:08:02 GMT 51.64824 -0.33835 2,000 184 110 -384
2018-01-18 16:08:00 GMT 51.64929 -0.33829 2,100 184 111 -448
2018-01-18 16:07:58 GMT 51.65012 -0.33813 2,100 185 112 -640
2018-01-18 16:07:56 GMT 51.65163 -0.33798 2,100 185 114 -448
2018-01-18 16:07:52 GMT 51.65353 -0.33775 2,100 187 120 128
2018-01-18 16:07:50 GMT 51.65427 -0.33768 2,100 186 119 128
2018-01-18 16:07:48 GMT 51.65566 -0.33746 2,100 188 122 128
2018-01-18 16:07:45 GMT 51.65707 -0.33709 2,100 192 123 64
2018-01-18 16:07:43 GMT 51.65854 -0.33657 2,100 199 122 -128
2018-01-18 16:07:41 GMT 51.66000 -0.33585 2,100 203 121 -320
2018-01-18 16:07:38 GMT 51.66106 -0.33501 2,100 213 118 -576
2018-01-18 16:07:35 GMT 51.66238 -0.33352 2,200 226 114 -704
2018-01-18 16:07:33 GMT 51.66335 -0.33188 2,200 233 112 -640
2018-01-18 16:07:31 GMT 51.66367 -0.33119 2,200 240 111 -512
2018-01-18 16:07:29 GMT 51.66419 -0.32974 2,200 250 109 -512
2018-01-18 16:07:27 GMT 51.66451 -0.32829 2,300 256 109 -448
2018-01-18 16:07:25 GMT 51.66484 -0.32646 2,300 264 109 -320
2018-01-18 16:07:21 GMT 51.66488 -0.32310 2,300 284 111 -576
2018-01-18 16:07:19 GMT 51.66474 -0.32196 2,300 284 111 -576
2018-01-18 16:07:17 GMT 51.66437 -0.32005 2,300 297 109 -1088
2018-01-18 16:07:14 GMT 51.66348 -0.31764 2,400 320 109 -704
2018-01-18 16:07:10 GMT 51.66202 -0.31578 2,400 338 113 192
2018-01-18 16:07:07 GMT 51.66065 -0.31509 2,400 0 122 -128
2018-01-18 16:07:05 GMT 51.65922 -0.31512 2,400 40 134 -704
2018-01-18 16:07:03 GMT 51.65836 -0.31549 2,400 34 133 -640
2018-01-18 16:07:01 GMT 51.65683 -0.31685 2,500 44 135 -704
2018-01-18 16:07:01 GMT 51.65683 -0.31685 2,500 44 135 -704
2018-01-18 16:06:59 GMT 51.65639 -0.31742 2,500 46 135 -704
2018-01-18 16:06:57 GMT 51.65552 -0.31912 2,500 64 137 -576
2018-01-18 16:06:54 GMT 51.65478 -0.32194 2,500 83 136 -384
2018-01-18 16:06:52 GMT 51.65464 -0.32356 2,500 89 136 -320
2018-01-18 16:06:50 GMT 51.65469 -0.32608 2,500 102 133 64
2018-01-18 16:06:50 GMT 51.65469 -0.32608 2,500 112 132 384
2018-01-18 16:06:48 GMT 51.65497 -0.32788 2,500 114 132 448
2018-01-18 16:06:47 GMT 51.65538 -0.32944 2,500 118 132 704
2018-01-18 16:06:46 GMT 51.65548 -0.32974 2,500 131 132 1088
2018-01-18 16:06:44 GMT 51.65634 -0.33167 2,500 133 132 1088
2018-01-18 16:06:42 GMT 51.65749 -0.33352 2,400 146 132 768
2018-01-18 16:06:39 GMT 51.65851 -0.33470 2,400 148 132 512
2018-01-18 16:06:37 GMT 51.65981 -0.33592 2,400 151 131 128
2018-01-18 16:06:33 GMT 51.66153 -0.33745 2,400 150 131 -128
2018-01-18 16:06:31 GMT 51.66311 -0.33890 2,400 149 130 -128
2018-01-18 16:06:29 GMT 51.66389 -0.33968 2,400 148 129 -64
2018-01-18 16:06:27 GMT 51.66493 -0.34073 2,400 148 128 0
2018-01-18 16:06:23 GMT 51.66692 -0.34266 2,400 147 128 384
2018-01-18 16:06:20 GMT 51.66843 -0.34421 2,400 147 129 512
2018-01-18 16:06:18 GMT 51.66917 -0.34500 2,400 147 130 576
2018-01-18 16:06:16 GMT 51.67056 -0.34645 2,300 147 131 576
2018-01-18 16:06:14 GMT 51.67154 -0.34748 2,300 147 133 448
2018-01-18 16:06:12 GMT 51.67209 -0.34800 2,300 147 133 384
2018-01-18 16:06:10 GMT 51.67365 -0.34971 2,300 143 135 256
2018-01-18 16:06:08 GMT 51.67433 -0.35052 2,300 142 134 192
2018-01-18 16:06:06 GMT 51.67531 -0.35164 2,300 141 135 192
2018-01-18 16:06:04 GMT 51.67657 -0.35324 2,300 137 135 64
2018-01-18 16:06:02 GMT 51.67754 -0.35468 2,300 135 137 128
2018-01-18 16:06:00 GMT 51.67863 -0.35639 2,300 134 137 192
2018-01-18 16:05:58 GMT 51.67928 -0.35750 2,300 133 136 192
2018-01-18 16:05:56 GMT 51.67992 -0.35851 2,200 132 137 256
2018-01-18 16:05:54 GMT 51.68113 -0.36072 2,200 133 137 320
2018-01-18 16:05:52 GMT 51.68184 -0.36188 2,200 133 137 320
2018-01-18 16:05:52 GMT 51.68184 -0.36188 2,200 133 137 384
2018-01-18 16:05:49 GMT 51.68290 -0.36377 2,200 134 137 384
2018-01-18 16:05:47 GMT 51.68388 -0.36537 2,200 135 137 320
2018-01-18 16:05:45 GMT 51.68504 -0.36715 2,200 135 137 320
2018-01-18 16:05:43 GMT 51.68569 -0.36827 2,200 134 137 256
2018-01-18 16:05:41 GMT 51.68639 -0.36934 2,200 134 138 192
2018-01-18 16:05:40 GMT 51.68683 -0.37012 2,200 133 138 192
2018-01-18 16:05:38 GMT 51.68834 -0.37272 2,200 132 137 192
2018-01-18 16:05:35 GMT 51.68930 -0.37435 2,100 132 138 128
2018-01-18 16:05:31 GMT 51.69086 -0.37712 2,100 132 138 128
2018-01-18 16:05:29 GMT 51.69193 -0.37895 2,100 132 137 384
2018-01-18 16:05:29 GMT 51.69221 -0.37941 2,100 132 137 448
2018-01-18 16:05:26 GMT 51.69319 -0.38116 2,100 132 138 512
2018-01-18 16:05:24 GMT 51.69407 -0.38269 2,100 133 139 128
2018-01-18 16:05:21 GMT 51.69521 -0.38460 2,100 133 139 192
2018-01-18 16:05:19 GMT 51.69654 -0.38689 2,000 133 139 64
2018-01-18 16:05:19 GMT 51.69626 -0.38643 2,100 133 139 0
2018-01-18 16:05:17 GMT 51.69722 -0.38801 2,100 133 138 192
2018-01-18 16:05:17 GMT 51.69722 -0.38801 2,100 133 138 192
2018-01-18 16:05:15 GMT 51.69809 -0.38949 2,100 134 138 192
2018-01-18 16:05:13 GMT 51.69910 -0.39113 2,000 135 138 384
2018-01-18 16:05:10 GMT 51.70033 -0.39306 2,000 135 139 512
2018-01-18 16:05:08 GMT 51.70115 -0.39436 2,000 135 140 576
2018-01-18 16:05:05 GMT 51.70317 -0.39751 2,000 136 142 384
2018-01-18 16:05:04 GMT 51.70317 -0.39751 2,000 136 142 448
2018-01-18 16:05:02 GMT 51.70417 -0.39909 2,000 135 143 320
2018-01-18 16:05:00 GMT 51.70464 -0.39986 2,000 133 144 320
2018-01-18 16:04:58 GMT 51.70585 -0.40184 1,900 133 145 448
2018-01-18 16:04:56 GMT 51.70651 -0.40301 1,900 133 145 640
2018-01-18 16:04:54 GMT 51.70771 -0.40497 1,900 135 147 832
2018-01-18 16:04:52 GMT 51.70862 -0.40642 1,900 137 150 896
2018-01-18 16:04:50 GMT 51.70990 -0.40833 1,800 138 152 832
2018-01-18 16:04:46 GMT 51.71173 -0.41095 1,800 139 154 128
2018-01-18 16:04:43 GMT 51.71333 -0.41318 1,800 139 155 0
2018-01-18 16:04:40 GMT 51.71507 -0.41562 1,800 139 155 -64
2018-01-18 16:04:38 GMT 51.71623 -0.41718 1,800 139 155 -64
2018-01-18 16:04:35 GMT 51.71759 -0.41904 1,800 139 155 0
2018-01-18 16:04:31 GMT 51.71972 -0.42198 1,800 139 155 -64
2018-01-18 16:04:29 GMT 51.72079 -0.42351 1,800 139 155 0
2018-01-18 16:04:27 GMT 51.72210 -0.42534 1,800 139 154 -64
2018-01-18 16:04:25 GMT 51.72295 -0.42646 1,800 139 154 -128
2018-01-18 16:04:23 GMT 51.72484 -0.42908 1,800 140 154 -64
2018-01-18 16:04:21 GMT 51.72578 -0.43032 1,800 140 154 0
2018-01-18 16:04:19 GMT 51.72661 -0.43137 1,800 140 154 64
2018-01-18 16:04:17 GMT 51.72748 -0.43255 1,800 140 154 128
2018-01-18 16:04:15 GMT 51.72885 -0.43440 1,800 140 154 128
2018-01-18 16:04:12 GMT 51.73068 -0.43693 1,800 139 154 -64
2018-01-18 16:04:10 GMT 51.73099 -0.43732 1,800 139 154 -64
2018-01-18 16:04:06 GMT 51.73327 -0.44044 1,800 139 154 -64
2018-01-18 16:04:01 GMT 51.73620 -0.44449 1,800 140 154 64
2018-01-18 16:03:59 GMT 51.73787 -0.44680 1,800 140 154 -64
2018-01-18 16:03:57 GMT 51.73858 -0.44769 1,800 140 154 0
2018-01-18 16:03:55 GMT 51.73979 -0.44937 1,800 140 154 -64
2018-01-18 16:03:52 GMT 51.74179 -0.45196 1,800 140 154 0
2018-01-18 16:03:50 GMT 51.74204 -0.45237 1,800 140 154 -64
2018-01-18 16:03:48 GMT 51.74345 -0.45430 1,800 140 154 -64
2018-01-18 16:03:45 GMT 51.74547 -0.45690 1,800 140 154 0
2018-01-18 16:03:43 GMT 51.74602 -0.45764 1,800 140 154 -128
2018-01-18 16:03:40 GMT 51.74753 -0.45964 1,800 140 153 -128
2018-01-18 16:03:36 GMT 51.74972 -0.46254 1,800 140 152 0
2018-01-18 16:03:34 GMT 51.75137 -0.46477 1,800 140 152 0
2018-01-18 16:03:30 GMT 51.75347 -0.46761 1,800 140 152 64
2018-01-18 16:03:26 GMT 51.75536 -0.47011 1,800 139 151 0
2018-01-18 16:03:23 GMT 51.75687 -0.47219 1,800 139 152 64
2018-01-18 16:03:21 GMT 51.75873 -0.47478 1,800 138 153 64
2018-01-18 16:03:20 GMT 51.75873 -0.47478 1,800 138 153 64
2018-01-18 16:03:17 GMT 51.76025 -0.47701 1,800 137 152 0
2018-01-18 16:03:15 GMT 51.76106 -0.47813 1,800 136 153 64
2018-01-18 16:03:10 GMT 51.76376 -0.48218 1,800 136 153 64
2018-01-18 16:03:10 GMT 51.76376 -0.48218 1,800 136 153 128
2018-01-18 16:03:07 GMT 51.76566 -0.48511 1,800 136 153 0
2018-01-18 16:03:05 GMT 51.76616 -0.48585 1,800 137 152 0
2018-01-18 16:02:59 GMT 51.76986 -0.49141 1,800 136 153 0
2018-01-18 16:02:57 GMT 51.77083 -0.49290 1,800 137 152 -64
2018-01-18 16:02:55 GMT 51.77161 -0.49401 1,800 136 153 0
2018-01-18 16:02:48 GMT 51.77508 -0.49928 1,800 137 152 0
2018-01-18 16:02:46 GMT 51.77619 -0.50087 1,800 137 152 -64
2018-01-18 16:02:44 GMT 51.77698 -0.50217 1,800 137 152 -64
2018-01-18 16:02:39 GMT 51.78035 -0.50715 1,800 136 152 -128
2018-01-18 16:02:37 GMT 51.78140 -0.50880 1,800 137 151 64
2018-01-18 16:02:35 GMT 51.78191 -0.50953 1,800 137 151 64
2018-01-18 16:02:27 GMT 51.78580 -0.51532 1,800 137 151 128
2018-01-18 16:02:24 GMT 51.78744 -0.51777 1,800 137 151 -64
2018-01-18 16:02:24 GMT 51.78744 -0.51777 1,800 137 151 -64
2018-01-18 16:02:18 GMT 51.79067 -0.52261 1,800 137 151 128
2018-01-18 16:02:16 GMT 51.79202 -0.52460 1,800 136 151 64
2018-01-18 16:02:15 GMT 51.79248 -0.52528 1,800 136 150 0
2018-01-18 16:02:13 GMT 51.79300 -0.52605 1,800 136 150 -64
2018-01-18 16:02:08 GMT 51.79605 -0.53068 1,800 136 150 64
2018-01-18 16:02:06 GMT 51.79733 -0.53253 1,800 137 150 0
2018-01-18 16:02:03 GMT 51.79839 -0.53417 1,800 137 150 -64
2018-01-18 16:01:57 GMT 51.80154 -0.53885 1,800 137 150 64
2018-01-18 16:01:55 GMT 51.80314 -0.54123 1,800 137 150 64
2018-01-18 16:01:53 GMT 51.80333 -0.54153 1,800 137 150 64
2018-01-18 16:01:43 GMT 51.80827 -0.54887 1,800 137 150 0
2018-01-18 16:01:41 GMT 51.80933 -0.55036 1,800 136 150 192
2018-01-18 16:01:39 GMT 51.81116 -0.55318 1,800 136 151 -64
2018-01-18 16:01:35 GMT 51.81283 -0.55572 1,800 136 152 -320
2018-01-18 16:01:32 GMT 51.81404 -0.55763 1,800 136 152 -384
2018-01-18 16:01:29 GMT 51.81562 -0.56007 1,800 136 152 -64
2018-01-18 16:01:23 GMT 51.81867 -0.56468 1,800 136 152 0
2018-01-18 16:01:19 GMT 51.82086 -0.56795 1,800 137 152 64
2018-01-18 16:01:15 GMT 51.82324 -0.57151 1,800 137 153 -64
2018-01-18 16:01:13 GMT 51.82375 -0.57233 1,800 137 153 -128
2018-01-18 16:01:11 GMT 51.82498 -0.57411 1,800 137 154 192
2018-01-18 16:01:07 GMT 51.82740 -0.57770 1,800 137 155 0
2018-01-18 16:01:05 GMT 51.82847 -0.57922 1,800 137 155 -128
2018-01-18 16:01:02 GMT 51.82963 -0.58098 1,800 137 155 -128
2018-01-18 16:00:59 GMT 51.83180 -0.58420 1,800 137 154 128
2018-01-18 16:00:53 GMT 51.83466 -0.58838 1,800 137 155 -384
2018-01-18 16:00:50 GMT 51.83624 -0.59074 1,800 137 155 -384
2018-01-18 16:00:47 GMT 51.83762 -0.59274 1,800 136 154 192
2018-01-18 16:00:45 GMT 51.83876 -0.59448 1,800 136 154 192
2018-01-18 16:00:43 GMT 51.83958 -0.59579 1,800 137 154 192
2018-01-18 16:00:37 GMT 51.84304 -0.60089 1,800 137 156 -192
2018-01-18 16:00:37 GMT 51.84304 -0.60089 1,800 137 156 -192
2018-01-18 16:00:35 GMT 51.84411 -0.60249 1,800 137 156 -192
2018-01-18 16:00:32 GMT 51.84532 -0.60425 1,800 137 155 -128
2018-01-18 16:00:30 GMT 51.84659 -0.60618 1,800 137 157 128
2018-01-18 16:00:25 GMT 51.84956 -0.61050 1,800 137 157 128
2018-01-18 16:00:17 GMT 51.85361 -0.61661 1,800 137 155 0
2018-01-18 16:00:14 GMT 51.85487 -0.61850 1,800 137 155 128
2018-01-18 16:00:11 GMT 51.85652 -0.62095 1,800 137 155 -192
2018-01-18 16:00:07 GMT 51.85938 -0.62523 1,800 137 155 256
2018-01-18 16:00:04 GMT 51.86014 -0.62630 1,800 136 155 0
2018-01-18 15:59:55 GMT 51.86538 -0.63438 1,800 136 156 0
2018-01-18 15:59:51 GMT 51.86760 -0.63773 1,800 136 157 256
2018-01-18 15:59:49 GMT 51.86808 -0.63850 1,800 135 159 64
2018-01-18 15:59:46 GMT 51.87060 -0.64240 1,800 135 159 128
2018-01-18 15:59:44 GMT 51.87085 -0.64285 1,800 135 159 128
2018-01-18 15:59:39 GMT 51.87351 -0.64701 1,800 135 161 -64
2018-01-18 15:59:34 GMT 51.87623 -0.65140 1,800 134 164 -128
2018-01-18 15:59:31 GMT 51.87790 -0.65406 1,800 134 164 64
2018-01-18 15:59:25 GMT 51.88117 -0.65941 1,800 134 164 -64
2018-01-18 15:59:22 GMT 51.88234 -0.66133 1,800 134 164 64
2018-01-18 15:59:14 GMT 51.88751 -0.66987 1,800 134 167 0
2018-01-18 15:59:11 GMT 51.88917 -0.67261 1,800 134 167 64
2018-01-18 15:59:03 GMT 51.89278 -0.67855 1,800 134 169 -64
2018-01-18 15:58:58 GMT 51.89557 -0.68314 1,800 134 170 -128
2018-01-18 15:58:53 GMT 51.89868 -0.68802 1,800 136 171 -64
2018-01-18 15:58:50 GMT 51.90039 -0.69057 1,800 138 172 128
2018-01-18 15:58:43 GMT 51.90509 -0.69677 1,800 151 172 -64
2018-01-18 15:58:32 GMT 51.91287 -0.70061 1,800 171 168 -64
2018-01-18 15:58:30 GMT 51.91475 -0.70114 1,800 171 168 -128
2018-01-18 15:58:22 GMT 51.92052 -0.70213 1,800 177 170 -320
2018-01-18 15:58:12 GMT 51.92935 -0.70242 1,900 179 176 -448
2018-01-18 15:58:09 GMT 51.93098 -0.70242 1,900 180 177 -832
2018-01-18 15:58:07 GMT 51.93219 -0.70236 1,900 180 176 -704
2018-01-18 15:58:02 GMT 51.93677 -0.70236 2,000 180 177 -832
2018-01-18 15:58:00 GMT 51.93791 -0.70236 2,000 181 177 -896
2018-01-18 15:57:58 GMT 51.93945 -0.70234 2,000 181 177 -960
2018-01-18 15:57:52 GMT 51.94550 -0.70234 2,200 179 176 -768
2018-01-18 15:57:50 GMT 51.94588 -0.70236 2,200 179 175 -832
2018-01-18 15:57:47 GMT 51.94858 -0.70244 2,200 179 176 -832
2018-01-18 15:57:40 GMT 51.95425 -0.70258 2,300 179 173 -832
2018-01-18 15:57:38 GMT 51.95631 -0.70259 2,300 179 172 -832
2018-01-18 15:57:30 GMT 51.96249 -0.70273 2,400 179 169 -768
2018-01-18 15:57:27 GMT 51.96442 -0.70282 2,500 179 167 -768
2018-01-18 15:57:20 GMT 51.97064 -0.70259 2,600 186 158 -768
2018-01-18 15:57:17 GMT 51.97259 -0.70234 2,600 186 156 -896
2018-01-18 15:57:10 GMT 51.97723 -0.70160 2,700 185 150 -768
2018-01-18 15:57:08 GMT 51.97842 -0.70145 2,700 185 150 -704
2018-01-18 15:57:06 GMT 51.97967 -0.70124 2,700 185 148 -128
2018-01-18 15:57:00 GMT 51.98470 -0.70061 2,700 186 147 64
2018-01-18 15:56:57 GMT 51.98614 -0.70038 2,700 186 147 64
2018-01-18 15:56:49 GMT 51.99239 -0.69939 2,700 186 147 0
2018-01-18 15:56:47 GMT 51.99275 -0.69936 2,700 186 147 0
2018-01-18 15:56:45 GMT 51.99429 -0.69912 2,700 186 147 0
2018-01-18 15:56:42 GMT 51.99666 -0.69865 2,700 186 146 64
2018-01-18 15:56:40 GMT 51.99834 -0.69840 2,700 186 146 64
2018-01-18 15:56:38 GMT 51.99964 -0.69818 2,700 186 146 0
2018-01-18 15:56:37 GMT 51.99930 -0.69824 2,700 186 146 0
2018-01-18 15:56:33 GMT 52.00214 -0.69778 2,700 186 146 -64
2018-01-18 15:56:28 GMT 52.00583 -0.69708 2,700 187 146 0
2018-01-18 15:56:26 GMT 52.00713 -0.69687 2,700 187 146 -64
2018-01-18 15:56:19 GMT 52.01198 -0.69606 2,700 187 146 0
2018-01-18 15:56:16 GMT 52.01365 -0.69575 2,700 187 146 0
2018-01-18 15:56:13 GMT 52.01578 -0.69542 2,700 187 146 64
2018-01-18 15:56:08 GMT 52.01953 -0.69473 2,700 187 146 0
2018-01-18 15:56:05 GMT 52.02095 -0.69443 2,700 187 146 0
2018-01-18 15:55:59 GMT 52.02535 -0.69366 2,700 187 146 0
2018-01-18 15:55:57 GMT 52.02650 -0.69347 2,700 187 146 64
2018-01-18 15:55:55 GMT 52.02790 -0.69324 2,700 186 146 64
2018-01-18 15:55:49 GMT 52.03232 -0.69245 2,700 186 146 0
2018-01-18 15:55:47 GMT 52.03326 -0.69229 2,700 186 146 64
2018-01-18 15:55:45 GMT 52.03509 -0.69206 2,700 186 146 64
2018-01-18 15:55:36 GMT 52.04086 -0.69099 2,700 187 145 -64
2018-01-18 15:55:34 GMT 52.04205 -0.69076 2,700 187 145 0
2018-01-18 15:55:28 GMT 52.04617 -0.68993 2,700 188 144 -64
2018-01-18 15:55:26 GMT 52.04819 -0.68954 2,700 188 144 -192
2018-01-18 15:55:24 GMT 52.04883 -0.68939 2,700 189 143 64
2018-01-18 15:55:18 GMT 52.05258 -0.68848 2,700 190 142 64
2018-01-18 15:55:16 GMT 52.05460 -0.68794 2,700 190 142 256
2018-01-18 15:55:16 GMT 52.05429 -0.68798 2,700 190 142 192
2018-01-18 15:55:14 GMT 52.05513 -0.68782 2,700 189 142 384
2018-01-18 15:55:08 GMT 52.05945 -0.68672 2,700 189 142 -64
2018-01-18 15:55:06 GMT 52.06039 -0.68649 2,700 189 141 -384
2018-01-18 15:55:04 GMT 52.06215 -0.68603 2,700 190 139 -64
2018-01-18 15:54:56 GMT 52.06714 -0.68474 2,700 190 138 192
2018-01-18 15:54:54 GMT 52.06844 -0.68445 2,700 190 138 64
2018-01-18 15:54:48 GMT 52.07272 -0.68344 2,700 187 138 -128
2018-01-18 15:54:46 GMT 52.07355 -0.68329 2,700 187 139 -128
2018-01-18 15:54:44 GMT 52.07482 -0.68304 2,700 187 139 0
2018-01-18 15:54:39 GMT 52.07803 -0.68249 2,700 187 139 64
2018-01-18 15:54:37 GMT 52.07906 -0.68233 2,700 186 140 64
2018-01-18 15:54:35 GMT 52.08069 -0.68207 2,700 186 140 64
2018-01-18 15:54:33 GMT 52.08162 -0.68194 2,700 186 141 -192
2018-01-18 15:54:27 GMT 52.08568 -0.68131 2,700 185 142 128
2018-01-18 15:54:24 GMT 52.08806 -0.68100 2,700 185 142 -128
2018-01-18 15:54:16 GMT 52.09302 -0.68053 2,700 182 144 0
2018-01-18 15:54:13 GMT 52.09507 -0.68045 2,700 182 144 0
2018-01-18 15:54:07 GMT 52.09912 -0.68029 2,700 182 144 128
2018-01-18 15:54:02 GMT 52.10175 -0.68024 2,700 182 145 0
2018-01-18 15:53:59 GMT 52.10417 -0.68016 2,700 182 145 0
2018-01-18 15:53:56 GMT 52.10623 -0.68008 2,700 182 145 64
2018-01-18 15:53:54 GMT 52.10756 -0.68001 2,700 182 146 64
2018-01-18 15:53:52 GMT 52.10885 -0.67998 2,700 182 146 0
2018-01-18 15:53:46 GMT 52.11305 -0.67978 2,700 182 147 -64
2018-01-18 15:53:44 GMT 52.11449 -0.67974 2,700 182 147 0
2018-01-18 15:53:42 GMT 52.11588 -0.67966 2,700 182 147 0
2018-01-18 15:53:36 GMT 52.12017 -0.67950 2,700 180 147 -64
2018-01-18 15:53:34 GMT 52.12165 -0.67950 2,700 179 148 -64
2018-01-18 15:53:31 GMT 52.12305 -0.67950 2,700 179 148 -64
2018-01-18 15:53:25 GMT 52.12706 -0.67963 2,700 179 148 -192
2018-01-18 15:53:22 GMT 52.12990 -0.67963 2,700 179 148 64
2018-01-18 15:53:21 GMT 52.12990 -0.67963 2,700 179 148 64
2018-01-18 15:53:18 GMT 52.13264 -0.67974 2,700 178 148 -192
2018-01-18 15:53:15 GMT 52.13420 -0.67978 2,700 178 148 -192
2018-01-18 15:53:13 GMT 52.13548 -0.67978 2,700 178 147 -64
2018-01-18 15:53:11 GMT 52.13678 -0.67982 2,700 179 147 128
2018-01-18 15:53:11 GMT 52.13706 -0.67982 2,700 179 147 192
2018-01-18 15:53:05 GMT 52.14116 -0.67998 2,700 178 148 64
2018-01-18 15:53:01 GMT 52.14409 -0.68005 2,700 178 148 -64
2018-01-18 15:52:55 GMT 52.14824 -0.68037 2,700 176 149 0
2018-01-18 15:52:52 GMT 52.14981 -0.68054 2,700 176 149 -64
2018-01-18 15:52:50 GMT 52.15146 -0.68070 2,700 176 149 0
2018-01-18 15:52:44 GMT 52.15544 -0.68115 2,700 176 148 -64
2018-01-18 15:52:42 GMT 52.15654 -0.68123 2,700 176 148 0
2018-01-18 15:52:40 GMT 52.15857 -0.68147 2,700 176 148 64
2018-01-18 15:52:34 GMT 52.16220 -0.68186 2,700 176 148 64
2018-01-18 15:52:32 GMT 52.16355 -0.68194 2,700 176 148 0
2018-01-18 15:52:30 GMT 52.16537 -0.68209 2,700 176 148 0
2018-01-18 15:52:28 GMT 52.16644 -0.68225 2,700 176 148 0
2018-01-18 15:52:23 GMT 52.16959 -0.68253 2,700 176 148 -64
2018-01-18 15:52:21 GMT 52.17123 -0.68272 2,700 176 148 64
2018-01-18 15:52:18 GMT 52.17286 -0.68288 2,700 176 149 128
2018-01-18 15:52:14 GMT 52.17645 -0.68327 2,700 176 150 0
2018-01-18 15:52:12 GMT 52.17798 -0.68343 2,700 176 150 0
2018-01-18 15:52:12 GMT 52.17798 -0.68343 2,700 176 150 0
2018-01-18 15:52:09 GMT 52.17985 -0.68358 2,700 176 150 -64
2018-01-18 15:52:06 GMT 52.18199 -0.68382 2,700 176 150 0
2018-01-18 15:52:03 GMT 52.18359 -0.68398 2,700 176 150 0
2018-01-18 15:52:00 GMT 52.18565 -0.68420 2,700 176 150 -128
2018-01-18 15:51:56 GMT 52.18878 -0.68453 2,700 176 150 0
2018-01-18 15:51:53 GMT 52.19046 -0.68468 2,700 176 149 0
2018-01-18 15:51:51 GMT 52.19192 -0.68481 2,700 176 149 -64
2018-01-18 15:51:51 GMT 52.19192 -0.68481 2,700 176 149 -64
2018-01-18 15:51:49 GMT 52.19293 -0.68497 2,700 176 149 0
2018-01-18 15:51:46 GMT 52.19530 -0.68515 2,700 176 149 -64
2018-01-18 15:51:42 GMT 52.19777 -0.68539 2,700 176 149 0
2018-01-18 15:51:40 GMT 52.19957 -0.68558 2,700 176 149 -64
2018-01-18 15:51:37 GMT 52.20163 -0.68578 2,700 176 148 0
2018-01-18 15:51:35 GMT 52.20264 -0.68588 2,700 176 148 0
2018-01-18 15:51:33 GMT 52.20465 -0.68611 2,700 176 148 192
2018-01-18 15:51:29 GMT 52.20717 -0.68626 2,700 177 149 128
2018-01-18 15:51:26 GMT 52.20950 -0.68649 2,700 177 149 64
2018-01-18 15:51:24 GMT 52.21052 -0.68657 2,700 175 150 64
2018-01-18 15:51:22 GMT 52.21156 -0.68665 2,700 176 150 64
2018-01-18 15:51:19 GMT 52.21477 -0.68687 2,700 175 151 64
2018-01-18 15:51:17 GMT 52.21559 -0.68703 2,700 176 151 0
2018-01-18 15:51:15 GMT 52.21660 -0.68710 2,700 175 150 128
2018-01-18 15:51:12 GMT 52.21895 -0.68735 2,700 175 152 -64
2018-01-18 15:51:09 GMT 52.22114 -0.68767 2,700 175 152 0
2018-01-18 15:51:07 GMT 52.22211 -0.68782 2,700 175 153 -128
2018-01-18 15:51:05 GMT 52.22384 -0.68798 2,700 175 153 -192
2018-01-18 15:51:01 GMT 52.22630 -0.68837 2,700 175 153 0
2018-01-18 15:50:58 GMT 52.22896 -0.68870 2,700 175 152 0
2018-01-18 15:50:55 GMT 52.23101 -0.68900 2,800 175 152 -128
2018-01-18 15:50:51 GMT 52.23349 -0.68932 2,800 175 152 0
2018-01-18 15:50:48 GMT 52.23555 -0.68962 2,700 175 151 64
2018-01-18 15:50:46 GMT 52.23724 -0.68985 2,700 175 151 64
2018-01-18 15:50:44 GMT 52.23827 -0.69002 2,800 175 150 64
2018-01-18 15:50:44 GMT 52.23855 -0.69002 2,700 175 150 64
2018-01-18 15:50:41 GMT 52.24059 -0.69031 2,700 175 150 128
2018-01-18 15:50:38 GMT 52.24251 -0.69061 2,700 175 150 128
2018-01-18 15:50:35 GMT 52.24475 -0.69092 2,700 175 150 64
2018-01-18 15:50:34 GMT 52.24571 -0.69107 2,700 175 151 128
2018-01-18 15:50:33 GMT 52.24571 -0.69107 2,700 175 151 128
2018-01-18 15:50:31 GMT 52.24762 -0.69127 2,700 175 151 64
2018-01-18 15:50:28 GMT 52.24965 -0.69161 2,700 174 151 64
2018-01-18 15:50:24 GMT 52.25313 -0.69214 2,700 172 153 0
2018-01-18 15:50:21 GMT 52.25503 -0.69253 2,700 171 153 -64
2018-01-18 15:50:19 GMT 52.25606 -0.69283 2,700 170 154 64
2018-01-18 15:50:17 GMT 52.25748 -0.69321 2,700 170 154 0
2018-01-18 15:50:15 GMT 52.25917 -0.69366 2,700 170 154 -64
2018-01-18 15:50:12 GMT 52.26054 -0.69405 2,700 170 154 0
2018-01-18 15:50:06 GMT 52.26585 -0.69550 2,700 170 154 -64
2018-01-18 15:50:04 GMT 52.26663 -0.69572 2,700 170 154 -64
2018-01-18 15:50:02 GMT 52.26783 -0.69606 2,700 170 154 -64
2018-01-18 15:49:56 GMT 52.27181 -0.69710 2,700 170 154 0
2018-01-18 15:49:54 GMT 52.27402 -0.69771 2,700 171 153 0
2018-01-18 15:49:50 GMT 52.27709 -0.69849 2,700 171 153 0
2018-01-18 15:49:47 GMT 52.27849 -0.69889 2,700 170 153 -64
2018-01-18 15:49:47 GMT 52.27849 -0.69889 2,700 170 153 -64
2018-01-18 15:49:44 GMT 52.28030 -0.69936 2,700 170 153 64
2018-01-18 15:49:42 GMT 52.28233 -0.69992 2,700 170 153 0
2018-01-18 15:49:39 GMT 52.28408 -0.70038 2,700 170 153 0
2018-01-18 15:49:37 GMT 52.28622 -0.70099 2,700 170 152 0
2018-01-18 15:49:37 GMT 52.28581 -0.70091 2,700 170 153 64
2018-01-18 15:49:34 GMT 52.28729 -0.70132 2,700 170 152 0
2018-01-18 15:49:31 GMT 52.29003 -0.70210 2,700 170 152 0
2018-01-18 15:49:29 GMT 52.29108 -0.70244 2,700 170 152 0
2018-01-18 15:49:26 GMT 52.29283 -0.70289 2,700 170 152 64
2018-01-18 15:49:23 GMT 52.29534 -0.70360 2,700 170 152 0
2018-01-18 15:49:21 GMT 52.29627 -0.70391 2,700 170 152 0
2018-01-18 15:49:19 GMT 52.29762 -0.70427 2,700 170 152 64
2018-01-18 15:49:14 GMT 52.30119 -0.70526 2,700 169 152 64
2018-01-18 15:49:13 GMT 52.30153 -0.70540 2,700 168 153 -64
2018-01-18 15:49:11 GMT 52.30399 -0.70618 2,700 166 154 0
2018-01-18 15:49:09 GMT 52.30536 -0.70679 2,700 166 154 0
2018-01-18 15:49:05 GMT 52.30788 -0.70778 2,700 165 154 64
2018-01-18 15:49:03 GMT 52.30953 -0.70847 2,700 165 154 0
2018-01-18 15:49:01 GMT 52.31049 -0.70885 2,700 165 154 -64
2018-01-18 15:48:58 GMT 52.31232 -0.70961 2,700 165 154 -64
2018-01-18 15:48:54 GMT 52.31493 -0.71075 2,700 165 153 0
2018-01-18 15:48:51 GMT 52.31726 -0.71167 2,700 165 153 0
2018-01-18 15:48:50 GMT 52.31764 -0.71184 2,700 165 153 0
2018-01-18 15:48:48 GMT 52.31937 -0.71259 2,700 165 153 0
2018-01-18 15:48:45 GMT 52.32122 -0.71333 2,700 165 153 0
2018-01-18 15:48:43 GMT 52.32369 -0.71435 2,700 165 153 -64
2018-01-18 15:48:41 GMT 52.32500 -0.71487 2,700 165 153 0
2018-01-18 15:48:38 GMT 52.32639 -0.71544 2,700 166 154 0
2018-01-18 15:48:34 GMT 52.32881 -0.71647 2,700 166 154 0
2018-01-18 15:48:32 GMT 52.33021 -0.71701 2,700 166 154 0
2018-01-18 15:48:30 GMT 52.33163 -0.71754 2,700 166 154 -64
2018-01-18 15:48:27 GMT 52.33375 -0.71843 2,700 166 154 -64
2018-01-18 15:48:25 GMT 52.33580 -0.71922 2,700 166 154 0
2018-01-18 15:48:20 GMT 52.33891 -0.72047 2,700 166 154 0
2018-01-18 15:48:17 GMT 52.34093 -0.72121 2,700 166 154 64
2018-01-18 15:48:14 GMT 52.34303 -0.72205 2,800 166 154 0
2018-01-18 15:48:11 GMT 52.34537 -0.72304 2,700 166 154 0
2018-01-18 15:48:09 GMT 52.34608 -0.72329 2,700 166 154 0
2018-01-18 15:48:07 GMT 52.34795 -0.72400 2,700 166 154 0
2018-01-18 15:48:04 GMT 52.34990 -0.72478 2,700 166 154 64
2018-01-18 15:48:01 GMT 52.35200 -0.72565 2,700 166 155 0
2018-01-18 15:47:59 GMT 52.35329 -0.72617 2,700 166 155 64
2018-01-18 15:47:57 GMT 52.35507 -0.72682 2,700 166 155 64
2018-01-18 15:47:53 GMT 52.35709 -0.72762 2,700 166 156 64
2018-01-18 15:47:51 GMT 52.35892 -0.72838 2,700 166 156 -64
2018-01-18 15:47:49 GMT 52.36065 -0.72902 2,700 166 156 0
2018-01-18 15:47:46 GMT 52.36233 -0.72973 2,700 166 157 -64
2018-01-18 15:47:43 GMT 52.36409 -0.73036 2,700 166 157 0
2018-01-18 15:47:39 GMT 52.36810 -0.73193 2,700 167 156 64
2018-01-18 15:47:37 GMT 52.36955 -0.73247 2,700 167 156 128
2018-01-18 15:47:35 GMT 52.36996 -0.73263 2,700 167 156 128
2018-01-18 15:47:33 GMT 52.37146 -0.73318 2,700 167 157 64
2018-01-18 15:47:31 GMT 52.37294 -0.73373 2,700 167 157 -64
2018-01-18 15:47:29 GMT 52.37526 -0.73456 2,700 167 157 -64
2018-01-18 15:47:27 GMT 52.37564 -0.73467 2,700 167 157 -64
2018-01-18 15:47:25 GMT 52.37700 -0.73517 2,700 167 157 0
2018-01-18 15:47:23 GMT 52.37932 -0.73601 2,700 167 157 64
2018-01-18 15:47:18 GMT 52.38221 -0.73695 2,700 168 158 64
2018-01-18 15:47:16 GMT 52.38441 -0.73769 2,700 168 158 64
2018-01-18 15:47:12 GMT 52.38611 -0.73830 2,700 168 158 64
2018-01-18 15:47:09 GMT 52.38821 -0.73891 2,700 169 157 -192
2018-01-18 15:47:07 GMT 52.39035 -0.73962 2,700 169 157 -320
2018-01-18 15:47:05 GMT 52.39180 -0.74009 2,700 169 157 -256
2018-01-18 15:47:03 GMT 52.39316 -0.74051 2,700 169 156 -192
2018-01-18 15:47:01 GMT 52.39430 -0.74081 2,700 169 155 -384
2018-01-18 15:46:58 GMT 52.39636 -0.74150 2,800 169 154 -512
2018-01-18 15:46:59 GMT 52.39636 -0.74150 2,800 169 154 -576
2018-01-18 15:46:58 GMT 52.39636 -0.74150 2,800 169 154 -512
2018-01-18 15:46:56 GMT 52.39762 -0.74181 2,800 169 153 -640
2018-01-18 15:46:54 GMT 52.39934 -0.74234 2,800 170 148 128
2018-01-18 15:46:51 GMT 52.40125 -0.74291 2,800 170 148 128
2018-01-18 15:46:48 GMT 52.40323 -0.74341 2,800 170 146 512
2018-01-18 15:46:46 GMT 52.40460 -0.74387 2,800 170 145 512
2018-01-18 15:46:44 GMT 52.40607 -0.74425 2,800 170 145 320
2018-01-18 15:46:42 GMT 52.40712 -0.74455 2,700 170 145 256
2018-01-18 15:46:38 GMT 52.41055 -0.74547 2,700 170 144 128
2018-01-18 15:46:36 GMT 52.41147 -0.74577 2,700 170 144 0
2018-01-18 15:46:34 GMT 52.41279 -0.74613 2,700 170 144 -128
2018-01-18 15:46:31 GMT 52.41461 -0.74668 2,700 169 143 -64
2018-01-18 15:46:26 GMT 52.41815 -0.74770 2,700 169 143 64
2018-01-18 15:46:22 GMT 52.42113 -0.74867 2,700 169 144 128
2018-01-18 15:46:19 GMT 52.42233 -0.74903 2,700 167 152 128
2018-01-18 15:46:17 GMT 52.42373 -0.74950 2,700 169 144 0
2018-01-18 15:46:15 GMT 52.42504 -0.74989 2,700 168 145 0
2018-01-18 15:46:13 GMT 52.42652 -0.75037 2,700 168 145 128
2018-01-18 15:46:10 GMT 52.42799 -0.75081 2,700 168 145 128
2018-01-18 15:46:07 GMT 52.43030 -0.75162 2,700 168 146 0
2018-01-18 15:46:05 GMT 52.43207 -0.75218 2,700 168 146 -64
2018-01-18 15:46:05 GMT 52.43244 -0.75233 2,700 168 146 -64
2018-01-18 15:46:03 GMT 52.43376 -0.75279 2,700 168 147 64
2018-01-18 15:45:57 GMT 52.43719 -0.75390 2,700 168 148 -64
2018-01-18 15:45:55 GMT 52.43793 -0.75409 2,700 168 148 0
2018-01-18 15:45:53 GMT 52.43976 -0.75470 2,700 168 149 128
2018-01-18 15:45:51 GMT 52.44114 -0.75515 2,700 168 150 192
2018-01-18 15:45:48 GMT 52.44347 -0.75594 2,700 166 153 -128
2018-01-18 15:45:46 GMT 52.44484 -0.75645 2,700 166 153 -128
2018-01-18 15:45:43 GMT 52.44658 -0.75722 2,700 163 154 -192
2018-01-18 15:45:41 GMT 52.44794 -0.75782 2,700 164 154 -128
2018-01-18 15:45:39 GMT 52.44937 -0.75851 2,700 164 153 0
2018-01-18 15:45:37 GMT 52.45079 -0.75913 2,700 165 152 64
2018-01-18 15:45:36 GMT 52.45152 -0.75947 2,700 165 153 0
2018-01-18 15:45:35 GMT 52.45203 -0.75974 2,700 165 153 0
2018-01-18 15:45:33 GMT 52.45354 -0.76035 2,700 166 153 64
2018-01-18 15:45:33 GMT 52.45354 -0.76035 2,700 166 153 64
2018-01-18 15:45:31 GMT 52.45502 -0.76096 2,700 167 152 0
2018-01-18 15:45:27 GMT 52.45798 -0.76195 2,700 170 151 -192
2018-01-18 15:45:25 GMT 52.45940 -0.76240 2,700 170 150 0
2018-01-18 15:45:23 GMT 52.46104 -0.76279 2,700 172 150 128
2018-01-18 15:45:19 GMT 52.46306 -0.76317 2,700 176 149 -384
2018-01-18 15:45:15 GMT 52.46594 -0.76340 2,700 178 149 128
2018-01-18 15:45:15 GMT 52.46594 -0.76340 2,700 178 149 -64
2018-01-18 15:45:13 GMT 52.46755 -0.76347 2,700 177 149 -128
2018-01-18 15:45:13 GMT 52.46796 -0.76347 2,700 177 149 -128
2018-01-18 15:45:11 GMT 52.46933 -0.76363 2,700 177 148 64
2018-01-18 15:45:06 GMT 52.47194 -0.76378 2,700 177 148 320
2018-01-18 15:45:02 GMT 52.47482 -0.76401 2,700 177 148 64
2018-01-18 15:45:00 GMT 52.47620 -0.76408 2,700 177 148 64
2018-01-18 15:44:58 GMT 52.47759 -0.76418 2,700 177 148 64
2018-01-18 15:44:55 GMT 52.47972 -0.76431 2,700 178 149 64
2018-01-18 15:44:54 GMT 52.48018 -0.76431 2,700 178 149 64
2018-01-18 15:44:52 GMT 52.48224 -0.76446 2,700 178 149 128
2018-01-18 15:44:52 GMT 52.48224 -0.76446 2,700 178 149 128
2018-01-18 15:44:49 GMT 52.48366 -0.76454 2,700 178 149 0
2018-01-18 15:44:45 GMT 52.48644 -0.76465 2,700 178 150 -128
2018-01-18 15:44:42 GMT 52.48920 -0.76477 2,700 178 150 -64
2018-01-18 15:44:40 GMT 52.49052 -0.76485 2,700 178 151 -64
2018-01-18 15:44:34 GMT 52.49393 -0.76496 2,700 178 150 -128
2018-01-18 15:44:31 GMT 52.49691 -0.76512 2,700 178 151 0
2018-01-18 15:44:29 GMT 52.49776 -0.76515 2,700 178 151 -64
2018-01-18 15:44:25 GMT 52.50096 -0.76530 2,700 177 150 0
2018-01-18 15:44:20 GMT 52.50399 -0.76551 2,700 177 149 -64
2018-01-18 15:44:20 GMT 52.50399 -0.76551 2,700 177 149 -64
2018-01-18 15:44:18 GMT 52.50566 -0.76559 2,700 177 149 128
2018-01-18 15:44:15 GMT 52.50746 -0.76569 2,700 178 149 128
2018-01-18 15:44:13 GMT 52.50847 -0.76576 2,700 178 148 128
2018-01-18 15:44:13 GMT 52.50847 -0.76576 2,700 178 148 128
2018-01-18 15:44:10 GMT 52.51130 -0.76598 2,700 177 148 128
2018-01-18 15:44:05 GMT 52.51451 -0.76614 2,700 178 148 -64
2018-01-18 15:44:01 GMT 52.51694 -0.76630 2,700 178 148 -64
2018-01-18 15:43:59 GMT 52.51823 -0.76638 2,700 178 147 0
2018-01-18 15:43:57 GMT 52.51921 -0.76645 2,700 178 147 -64
2018-01-18 15:43:53 GMT 52.52220 -0.76660 2,700 178 147 -64
2018-01-18 15:43:50 GMT 52.52452 -0.76669 2,700 178 147 0
2018-01-18 15:43:47 GMT 52.52657 -0.76685 2,700 178 147 0
2018-01-18 15:43:42 GMT 52.52996 -0.76700 2,700 178 146 0
2018-01-18 15:43:40 GMT 52.53136 -0.76706 2,700 178 146 0
2018-01-18 15:43:38 GMT 52.53232 -0.76714 2,700 178 146 128
2018-01-18 15:43:36 GMT 52.53342 -0.76721 2,700 178 146 64
2018-01-18 15:43:32 GMT 52.53667 -0.76740 2,700 178 146 0
2018-01-18 15:43:30 GMT 52.53793 -0.76747 2,700 178 146 -64
2018-01-18 15:43:27 GMT 52.54039 -0.76755 2,800 178 146 -64
2018-01-18 15:43:23 GMT 52.54253 -0.76771 2,700 178 146 64
2018-01-18 15:43:20 GMT 52.54556 -0.76787 2,700 178 146 64
2018-01-18 15:43:18 GMT 52.54665 -0.76790 2,700 178 146 64
2018-01-18 15:43:16 GMT 52.54761 -0.76790 2,700 178 146 64
2018-01-18 15:43:13 GMT 52.54916 -0.76797 2,700 178 146 64
2018-01-18 15:43:11 GMT 52.55045 -0.76805 2,700 178 147 64
2018-01-18 15:43:09 GMT 52.55212 -0.76810 2,700 178 147 128
2018-01-18 15:43:07 GMT 52.55351 -0.76820 2,700 178 147 128
2018-01-18 15:43:05 GMT 52.55456 -0.76828 2,700 178 148 0
2018-01-18 15:43:01 GMT 52.55738 -0.76841 2,700 176 149 64
2018-01-18 15:42:59 GMT 52.55905 -0.76858 2,700 177 148 -64
2018-01-18 15:42:57 GMT 52.56047 -0.76866 2,700 177 148 0
2018-01-18 15:42:55 GMT 52.56184 -0.76874 2,700 177 149 0
2018-01-18 15:42:53 GMT 52.56316 -0.76889 2,700 177 149 0
2018-01-18 15:42:50 GMT 52.56474 -0.76896 2,700 177 149 64
2018-01-18 15:42:48 GMT 52.56651 -0.76912 2,700 177 149 0
2018-01-18 15:42:48 GMT 52.56601 -0.76912 2,700 177 149 0
2018-01-18 15:42:45 GMT 52.56860 -0.76928 2,700 176 149 0
2018-01-18 15:42:43 GMT 52.57004 -0.76942 2,700 176 149 128
2018-01-18 15:42:38 GMT 52.57343 -0.76973 2,700 177 150 -64
2018-01-18 15:42:36 GMT 52.57535 -0.76983 2,700 177 151 64
2018-01-18 15:42:33 GMT 52.57649 -0.76996 2,700 176 151 -64
2018-01-18 15:42:31 GMT 52.57823 -0.77011 2,700 176 151 -64
2018-01-18 15:42:27 GMT 52.58075 -0.77034 2,700 176 152 0
2018-01-18 15:42:24 GMT 52.58350 -0.77061 2,700 176 152 0
2018-01-18 15:42:22 GMT 52.58441 -0.77072 2,700 176 152 0
2018-01-18 15:42:17 GMT 52.58807 -0.77110 2,700 176 152 -64
2018-01-18 15:42:13 GMT 52.59081 -0.77132 2,700 176 152 -128
2018-01-18 15:42:10 GMT 52.59258 -0.77148 2,700 176 152 -192
2018-01-18 15:42:08 GMT 52.59453 -0.77171 2,700 176 152 -128
2018-01-18 15:42:05 GMT 52.59691 -0.77194 2,700 176 152 -64
2018-01-18 15:42:02 GMT 52.59868 -0.77202 2,700 176 151 64
2018-01-18 15:41:59 GMT 52.60077 -0.77226 2,700 176 151 64
2018-01-18 15:41:57 GMT 52.60181 -0.77232 2,700 177 151 0
2018-01-18 15:41:55 GMT 52.60336 -0.77248 2,700 177 151 -128
2018-01-18 15:41:53 GMT 52.60483 -0.77255 2,800 176 150 -64
2018-01-18 15:41:51 GMT 52.60588 -0.77263 2,800 176 150 0
2018-01-18 15:41:49 GMT 52.60767 -0.77286 2,700 176 150 128
2018-01-18 15:41:47 GMT 52.60876 -0.77293 2,700 176 150 64
2018-01-18 15:41:45 GMT 52.61009 -0.77309 2,700 176 150 64
2018-01-18 15:41:43 GMT 52.61190 -0.77320 2,700 176 150 192
2018-01-18 15:41:41 GMT 52.61293 -0.77331 2,700 176 150 128
2018-01-18 15:41:37 GMT 52.61590 -0.77359 2,700 176 150 0
2018-01-18 15:41:35 GMT 52.61765 -0.77370 2,700 176 150 -64
2018-01-18 15:41:33 GMT 52.61939 -0.77391 2,700 176 150 -64
2018-01-18 15:41:31 GMT 52.62009 -0.77391 2,700 176 150 0
2018-01-18 15:41:28 GMT 52.62237 -0.77414 2,700 176 151 0
2018-01-18 15:41:26 GMT 52.62405 -0.77430 2,700 176 151 -64
2018-01-18 15:41:24 GMT 52.62515 -0.77446 2,700 176 151 -128
2018-01-18 15:41:21 GMT 52.62730 -0.77462 2,700 175 151 128
2018-01-18 15:41:17 GMT 52.63061 -0.77509 2,700 174 152 0
2018-01-18 15:41:13 GMT 52.63354 -0.77556 2,700 171 153 0
2018-01-18 15:41:11 GMT 52.63396 -0.77563 2,700 171 153 0
2018-01-18 15:41:08 GMT 52.63634 -0.77626 2,700 170 152 -64
2018-01-18 15:41:06 GMT 52.63774 -0.77660 2,700 170 153 64
2018-01-18 15:41:04 GMT 52.63971 -0.77713 2,700 169 153 64
2018-01-18 15:41:00 GMT 52.64188 -0.77775 2,700 169 153 0
2018-01-18 15:40:58 GMT 52.64397 -0.77838 2,700 169 154 128
2018-01-18 15:40:56 GMT 52.64465 -0.77858 2,700 169 154 128
2018-01-18 15:40:53 GMT 52.64681 -0.77924 2,700 170 154 0
2018-01-18 15:40:50 GMT 52.64831 -0.77965 2,700 170 154 64
2018-01-18 15:40:48 GMT 52.65015 -0.78018 2,700 170 154 0
2018-01-18 15:40:46 GMT 52.65179 -0.78066 2,700 170 154 0
2018-01-18 15:40:40 GMT 52.65628 -0.78186 2,700 169 153 -192
2018-01-18 15:40:38 GMT 52.65729 -0.78217 2,700 169 153 64
2018-01-18 15:40:35 GMT 52.65903 -0.78270 2,700 169 153 -64
2018-01-18 15:40:32 GMT 52.66159 -0.78346 2,700 169 153 128
2018-01-18 15:40:30 GMT 52.66343 -0.78395 2,700 169 153 128
2018-01-18 15:40:28 GMT 52.66457 -0.78430 2,700 169 153 0
2018-01-18 15:40:25 GMT 52.66636 -0.78490 2,700 169 153 -64
2018-01-18 15:40:22 GMT 52.66906 -0.78568 2,700 169 153 0
2018-01-18 15:40:20 GMT 52.66985 -0.78592 2,700 169 153 -64
2018-01-18 15:40:17 GMT 52.67230 -0.78667 2,700 169 153 -64
2018-01-18 15:40:14 GMT 52.67418 -0.78725 2,700 169 153 0
2018-01-18 15:40:11 GMT 52.67628 -0.78789 2,700 169 153 64
2018-01-18 15:40:09 GMT 52.67828 -0.78850 2,700 169 153 64
2018-01-18 15:40:07 GMT 52.67912 -0.78880 2,700 169 153 0
2018-01-18 15:40:05 GMT 52.68089 -0.78937 2,700 169 153 0
2018-01-18 15:40:02 GMT 52.68219 -0.78972 2,700 169 153 -64
2018-01-18 15:40:00 GMT 52.68438 -0.79047 2,700 168 153 64
2018-01-18 15:39:58 GMT 52.68567 -0.79086 2,700 168 153 0
2018-01-18 15:39:55 GMT 52.68680 -0.79125 2,700 168 153 0
2018-01-18 15:39:53 GMT 52.68832 -0.79178 2,700 169 154 -64
2018-01-18 15:39:48 GMT 52.69178 -0.79282 2,700 169 154 64
2018-01-18 15:39:46 GMT 52.69327 -0.79330 2,700 169 155 -64
2018-01-18 15:39:43 GMT 52.69602 -0.79408 2,700 169 155 -64
2018-01-18 15:39:39 GMT 52.69940 -0.79506 2,700 170 155 -64
2018-01-18 15:39:36 GMT 52.70072 -0.79549 2,700 170 155 -64
2018-01-18 15:39:34 GMT 52.70235 -0.79588 2,700 170 154 -64
2018-01-18 15:39:29 GMT 52.70567 -0.79681 2,700 171 153 64
2018-01-18 15:39:27 GMT 52.70742 -0.79729 2,700 171 153 64
2018-01-18 15:39:25 GMT 52.70842 -0.79750 2,700 171 153 0
2018-01-18 15:39:23 GMT 52.70979 -0.79788 2,700 171 153 -64
2018-01-18 15:39:18 GMT 52.71295 -0.79872 2,700 171 152 64
2018-01-18 15:39:15 GMT 52.71533 -0.79933 2,700 171 152 64
2018-01-18 15:39:13 GMT 52.71675 -0.79964 2,700 171 152 128
2018-01-18 15:39:10 GMT 52.71854 -0.80010 2,700 171 152 128
2018-01-18 15:39:08 GMT 52.72032 -0.80055 2,700 170 152 0
2018-01-18 15:39:04 GMT 52.72274 -0.80122 2,700 170 152 64
2018-01-18 15:39:02 GMT 52.72413 -0.80153 2,700 170 152 0
2018-01-18 15:38:57 GMT 52.72765 -0.80246 2,700 170 152 -64
2018-01-18 15:38:54 GMT 52.73037 -0.80318 2,700 170 151 -192
2018-01-18 15:38:52 GMT 52.73126 -0.80341 2,700 170 151 -192
2018-01-18 15:38:47 GMT 52.73503 -0.80444 2,700 170 150 -64
2018-01-18 15:38:44 GMT 52.73708 -0.80498 2,700 170 149 -64
2018-01-18 15:38:42 GMT 52.73819 -0.80522 2,700 170 149 -64
2018-01-18 15:38:36 GMT 52.74238 -0.80648 2,700 169 148 0
2018-01-18 15:38:34 GMT 52.74445 -0.80711 2,700 169 148 128
2018-01-18 15:38:32 GMT 52.74522 -0.80734 2,700 169 147 64
2018-01-18 15:38:26 GMT 52.74989 -0.80872 2,700 169 147 0
2018-01-18 15:38:23 GMT 52.75123 -0.80914 2,700 169 146 0
2018-01-18 15:38:21 GMT 52.75216 -0.80946 2,700 169 146 64
2018-01-18 15:38:15 GMT 52.75662 -0.81085 2,700 168 146 0
2018-01-18 15:38:13 GMT 52.75816 -0.81142 2,700 168 147 64
2018-01-18 15:38:11 GMT 52.75909 -0.81173 2,700 168 147 64
2018-01-18 15:38:06 GMT 52.76249 -0.81291 2,700 169 147 64
2018-01-18 15:38:03 GMT 52.76459 -0.81354 2,700 168 146 0
2018-01-18 15:38:01 GMT 52.76598 -0.81401 2,700 169 147 64
2018-01-18 15:37:54 GMT 52.77040 -0.81543 2,700 169 148 64
2018-01-18 15:37:51 GMT 52.77278 -0.81619 2,700 169 149 128
2018-01-18 15:37:44 GMT 52.77762 -0.81770 2,700 169 151 192
2018-01-18 15:37:41 GMT 52.77965 -0.81833 2,700 169 153 192
2018-01-18 15:37:39 GMT 52.78111 -0.81872 2,700 169 154 -128
2018-01-18 15:37:33 GMT 52.78514 -0.81993 2,700 169 155 0
2018-01-18 15:37:31 GMT 52.78656 -0.82039 2,700 169 155 64
2018-01-18 15:37:29 GMT 52.78766 -0.82069 2,700 170 156 0
2018-01-18 15:37:25 GMT 52.79054 -0.82146 2,700 170 157 -64
2018-01-18 15:37:21 GMT 52.79373 -0.82241 2,700 170 158 -64
2018-01-18 15:37:19 GMT 52.79592 -0.82295 2,700 170 157 0
2018-01-18 15:37:10 GMT 52.80162 -0.82451 2,700 170 158 -448
2018-01-18 15:37:07 GMT 52.80350 -0.82497 2,700 171 157 -320
2018-01-18 15:37:01 GMT 52.80812 -0.82619 2,800 170 157 128
2018-01-18 15:36:59 GMT 52.80927 -0.82649 2,700 170 157 192
2018-01-18 15:36:57 GMT 52.81081 -0.82696 2,700 170 156 0
2018-01-18 15:36:54 GMT 52.81263 -0.82743 2,800 170 156 128
2018-01-18 15:36:51 GMT 52.81531 -0.82817 2,800 169 157 128
2018-01-18 15:36:49 GMT 52.81691 -0.82868 2,700 169 156 0
2018-01-18 15:36:47 GMT 52.81789 -0.82892 2,700 169 157 128
2018-01-18 15:36:44 GMT 52.81998 -0.82954 2,700 169 157 64
2018-01-18 15:36:41 GMT 52.82263 -0.83038 2,700 169 157 -64
2018-01-18 15:36:37 GMT 52.82483 -0.83107 2,700 169 157 -128
2018-01-18 15:36:34 GMT 52.82744 -0.83191 2,700 168 158 64
2018-01-18 15:36:30 GMT 52.82976 -0.83276 2,700 168 158 0
2018-01-18 15:36:28 GMT 52.83209 -0.83347 2,700 168 157 64
2018-01-18 15:36:22 GMT 52.83549 -0.83465 2,700 168 158 0
2018-01-18 15:36:19 GMT 52.83769 -0.83542 2,700 168 158 0
2018-01-18 15:36:17 GMT 52.83963 -0.83606 2,700 168 158 0
2018-01-18 15:36:10 GMT 52.84460 -0.83771 2,700 168 159 64
2018-01-18 15:36:07 GMT 52.84749 -0.83870 2,700 168 159 0
2018-01-18 15:36:03 GMT 52.84936 -0.83931 2,700 169 158 64
2018-01-18 15:35:59 GMT 52.85248 -0.84030 2,700 169 159 128
2018-01-18 15:35:56 GMT 52.85462 -0.84100 2,700 168 160 128
2018-01-18 15:35:50 GMT 52.85900 -0.84265 2,700 160 164 0
2018-01-18 15:35:48 GMT 52.85994 -0.84312 2,700 161 163 0
2018-01-18 15:35:45 GMT 52.86223 -0.84442 2,700 158 164 192
2018-01-18 15:35:41 GMT 52.86509 -0.84642 2,700 148 164 -64
2018-01-18 15:35:37 GMT 52.86798 -0.84893 2,700 148 167 -64
2018-01-18 15:35:35 GMT 52.86928 -0.85026 2,700 147 168 -64
2018-01-18 15:35:29 GMT 52.87340 -0.85457 2,700 147 167 -64
2018-01-18 15:35:26 GMT 52.87514 -0.85640 2,700 147 166 -128
2018-01-18 15:35:24 GMT 52.87619 -0.85747 2,700 147 166 -192
2018-01-18 15:35:19 GMT 52.88041 -0.86188 2,700 148 166 0
2018-01-18 15:35:15 GMT 52.88302 -0.86455 2,700 147 165 0
2018-01-18 15:35:07 GMT 52.88814 -0.86983 2,700 148 164 64
2018-01-18 15:35:03 GMT 52.88983 -0.87158 2,700 148 164 64
2018-01-18 15:34:56 GMT 52.89450 -0.87631 2,700 148 165 128
2018-01-18 15:34:54 GMT 52.89661 -0.87843 2,700 148 164 0
2018-01-18 15:34:50 GMT 52.89847 -0.88024 2,700 148 164 -64
2018-01-18 15:34:45 GMT 52.90182 -0.88369 2,700 148 164 -64
2018-01-18 15:34:42 GMT 52.90343 -0.88531 2,700 148 163 -64
2018-01-18 15:34:40 GMT 52.90485 -0.88677 2,700 148 163 0
2018-01-18 15:34:37 GMT 52.90699 -0.88887 2,700 148 162 -64
2018-01-18 15:34:35 GMT 52.90876 -0.89076 2,700 148 162 0
2018-01-18 15:34:35 GMT 52.90876 -0.89076 2,700 148 162 0
2018-01-18 15:34:32 GMT 52.91067 -0.89272 2,700 148 162 64
2018-01-18 15:34:26 GMT 52.91446 -0.89653 2,700 148 161 64
2018-01-18 15:34:24 GMT 52.91533 -0.89745 2,700 148 161 -64
2018-01-18 15:34:23 GMT 52.91588 -0.89805 2,700 148 161 64
2018-01-18 15:34:21 GMT 52.91742 -0.89955 2,700 148 161 0
2018-01-18 15:34:16 GMT 52.92041 -0.90263 2,700 148 161 0
2018-01-18 15:34:14 GMT 52.92192 -0.90424 2,700 147 160 -128
2018-01-18 15:34:11 GMT 52.92430 -0.90668 2,700 147 160 0
2018-01-18 15:34:06 GMT 52.92645 -0.90897 2,700 147 161 0
2018-01-18 15:34:02 GMT 52.92901 -0.91163 2,700 147 161 0
2018-01-18 15:33:59 GMT 52.93092 -0.91367 2,700 147 161 0
2018-01-18 15:33:57 GMT 52.93292 -0.91579 2,700 147 161 64
2018-01-18 15:33:54 GMT 52.93382 -0.91682 2,700 147 161 64
2018-01-18 15:33:51 GMT 52.93648 -0.91957 2,700 147 161 0
2018-01-18 15:33:49 GMT 52.93767 -0.92089 2,700 147 161 0
2018-01-18 15:33:45 GMT 52.94014 -0.92348 2,700 147 162 0
2018-01-18 15:33:42 GMT 52.94195 -0.92536 2,700 147 162 0
2018-01-18 15:33:39 GMT 52.94330 -0.92678 2,700 147 162 0
2018-01-18 15:33:35 GMT 52.94614 -0.92976 2,700 147 162 64
2018-01-18 15:33:30 GMT 52.94959 -0.93337 2,700 147 163 0
2018-01-18 15:33:25 GMT 52.95273 -0.93666 2,700 147 163 -128
2018-01-18 15:33:23 GMT 52.95368 -0.93768 2,700 147 163 0
2018-01-18 15:33:21 GMT 52.95566 -0.93979 2,700 147 163 0
2018-01-18 15:33:19 GMT 52.95652 -0.94074 2,700 147 164 0
2018-01-18 15:33:14 GMT 52.96015 -0.94459 2,700 147 164 0
2018-01-18 15:33:09 GMT 52.96330 -0.94788 2,700 147 164 0
2018-01-18 15:33:04 GMT 52.96588 -0.95071 2,700 147 163 0
2018-01-18 15:33:02 GMT 52.96719 -0.95200 2,700 147 163 0
2018-01-18 15:33:00 GMT 52.96875 -0.95375 2,700 147 163 0
2018-01-18 15:32:58 GMT 52.96965 -0.95463 2,700 147 163 0
2018-01-18 15:32:53 GMT 52.97360 -0.95886 2,700 147 163 0
2018-01-18 15:32:48 GMT 52.97667 -0.96214 2,700 147 164 0
2018-01-18 15:32:42 GMT 52.97994 -0.96554 2,700 147 164 -64
2018-01-18 15:32:39 GMT 52.98268 -0.96852 2,700 147 164 0
2018-01-18 15:32:37 GMT 52.98331 -0.96916 2,700 147 164 0
2018-01-18 15:32:34 GMT 52.98491 -0.97084 2,700 146 163 0
2018-01-18 15:32:31 GMT 52.98711 -0.97328 2,700 146 163 0
2018-01-18 15:32:27 GMT 52.98990 -0.97629 2,700 146 163 0
2018-01-18 15:32:21 GMT 52.99320 -0.97984 2,700 146 163 -64
2018-01-18 15:32:18 GMT 52.99600 -0.98304 2,700 145 163 0
2018-01-18 15:32:15 GMT 52.99665 -0.98375 2,700 145 163 0
2018-01-18 15:32:11 GMT 52.99983 -0.98732 2,700 145 163 -64
2018-01-18 15:32:08 GMT 53.00186 -0.98963 2,700 145 163 -64
2018-01-18 15:32:06 GMT 53.00312 -0.99104 2,700 146 162 0
2018-01-18 15:32:03 GMT 53.00432 -0.99235 2,700 146 162 0
2018-01-18 15:32:01 GMT 53.00661 -0.99497 2,700 146 162 0
2018-01-18 15:31:57 GMT 53.00789 -0.99632 2,700 146 162 64
2018-01-18 15:31:55 GMT 53.00954 -0.99823 2,700 146 162 64
2018-01-18 15:31:53 GMT 53.01048 -0.99928 2,700 146 161 0
2018-01-18 15:31:49 GMT 53.01292 -1.00189 2,700 147 161 64
2018-01-18 15:31:46 GMT 53.01512 -1.00426 2,700 147 161 0
2018-01-18 15:31:43 GMT 53.01709 -1.00632 2,700 148 161 128
2018-01-18 15:31:39 GMT 53.01942 -1.00876 2,700 148 161 64
2018-01-18 15:31:36 GMT 53.02208 -1.01135 2,700 148 161 -64
2018-01-18 15:31:33 GMT 53.02360 -1.01286 2,700 148 161 -64
2018-01-18 15:31:29 GMT 53.02607 -1.01537 2,700 148 161 0
2018-01-18 15:31:23 GMT 53.02995 -1.01921 2,700 149 160 128
2018-01-18 15:31:21 GMT 53.03110 -1.02032 2,700 149 160 0
2018-01-18 15:31:18 GMT 53.03268 -1.02188 2,700 149 160 128
2018-01-18 15:31:13 GMT 53.03673 -1.02581 2,700 150 160 128
2018-01-18 15:31:09 GMT 53.03957 -1.02856 2,700 150 161 0
2018-01-18 15:31:03 GMT 53.04255 -1.03130 2,700 150 161 0
2018-01-18 15:31:01 GMT 53.04382 -1.03256 2,700 150 161 -64
2018-01-18 15:30:58 GMT 53.04611 -1.03462 2,700 151 161 -64
2018-01-18 15:30:51 GMT 53.05056 -1.03876 2,700 150 160 -256
2018-01-18 15:30:48 GMT 53.05289 -1.04088 2,800 150 160 -256
2018-01-18 15:30:42 GMT 53.05623 -1.04401 2,800 150 158 -128
2018-01-18 15:30:40 GMT 53.05712 -1.04488 2,700 150 158 -192
2018-01-18 15:30:37 GMT 53.05968 -1.04723 2,700 150 157 128
2018-01-18 15:30:31 GMT 53.06327 -1.05061 2,700 150 156 64
2018-01-18 15:30:27 GMT 53.06607 -1.05331 2,700 149 155 -64
2018-01-18 15:30:21 GMT 53.06969 -1.05681 2,700 150 155 64
2018-01-18 15:30:19 GMT 53.07030 -1.05736 2,700 150 155 64
2018-01-18 15:30:16 GMT 53.07257 -1.05949 2,700 149 155 128
2018-01-18 15:30:14 GMT 53.07349 -1.06041 2,700 149 155 128
2018-01-18 15:30:10 GMT 53.07621 -1.06308 2,700 148 155 0
2018-01-18 15:30:10 GMT 53.07621 -1.06308 2,700 149 155 -64
2018-01-18 15:30:04 GMT 53.08022 -1.06697 2,700 148 155 0
2018-01-18 15:29:59 GMT 53.08305 -1.06979 2,700 149 154 64
2018-01-18 15:30:00 GMT 53.08305 -1.06979 2,700 149 154 64
2018-01-18 15:29:59 GMT 53.08305 -1.06979 2,700 149 154 64
2018-01-18 15:29:53 GMT 53.08640 -1.07313 2,700 148 154 0
2018-01-18 15:29:50 GMT 53.08901 -1.07572 2,700 148 155 192
2018-01-18 15:29:49 GMT 53.08933 -1.07605 2,700 148 155 192
2018-01-18 15:29:48 GMT 53.08969 -1.07643 2,700 148 155 192
2018-01-18 15:29:42 GMT 53.09343 -1.08019 2,700 148 155 -128
2018-01-18 15:29:40 GMT 53.09491 -1.08170 2,700 148 155 0
2018-01-18 15:29:38 GMT 53.09582 -1.08262 2,700 148 155 -64
2018-01-18 15:29:30 GMT 53.10159 -1.08843 2,700 148 156 128
2018-01-18 15:29:28 GMT 53.10223 -1.08906 2,700 149 156 64
2018-01-18 15:29:23 GMT 53.10563 -1.09241 2,700 148 156 0
2018-01-18 15:29:18 GMT 53.10837 -1.09518 2,700 149 156 -64
2018-01-18 15:29:16 GMT 53.10933 -1.09612 2,700 149 156 0
2018-01-18 15:29:09 GMT 53.11450 -1.10122 2,700 149 158 0
2018-01-18 15:29:07 GMT 53.11554 -1.10219 2,700 149 158 0
2018-01-18 15:29:06 GMT 53.11624 -1.10283 2,700 149 158 0
2018-01-18 15:28:57 GMT 53.12174 -1.10825 2,700 149 159 0
2018-01-18 15:28:56 GMT 53.12233 -1.10883 2,700 149 159 -64
2018-01-18 15:28:55 GMT 53.12260 -1.10915 2,700 149 159 -64
2018-01-18 15:28:48 GMT 53.12727 -1.11370 2,700 149 159 64
2018-01-18 15:28:46 GMT 53.12915 -1.11558 2,700 149 159 -64
2018-01-18 15:28:44 GMT 53.12956 -1.11600 2,700 149 159 -64
2018-01-18 15:28:42 GMT 53.13080 -1.11723 2,700 149 159 0
2018-01-18 15:28:37 GMT 53.13387 -1.12029 2,700 149 160 64
2018-01-18 15:28:35 GMT 53.13620 -1.12265 2,700 148 160 -64
2018-01-18 15:28:32 GMT 53.13753 -1.12398 2,700 148 160 -64
2018-01-18 15:28:26 GMT 53.14160 -1.12806 2,700 148 160 0
2018-01-18 15:28:25 GMT 53.14160 -1.12806 2,700 148 160 64
2018-01-18 15:28:23 GMT 53.14292 -1.12941 2,700 148 160 -64
2018-01-18 15:28:21 GMT 53.14449 -1.13104 2,700 148 160 0
2018-01-18 15:28:18 GMT 53.14683 -1.13337 2,700 148 160 0
2018-01-18 15:28:14 GMT 53.14870 -1.13528 2,700 149 160 64
2018-01-18 15:28:12 GMT 53.15062 -1.13716 2,700 149 161 0
2018-01-18 15:28:07 GMT 53.15330 -1.13983 2,700 149 161 64
2018-01-18 15:28:05 GMT 53.15483 -1.14137 2,700 149 161 64
2018-01-18 15:28:03 GMT 53.15646 -1.14290 2,700 149 162 0
2018-01-18 15:28:00 GMT 53.15749 -1.14391 2,700 149 162 0
2018-01-18 15:27:56 GMT 53.16000 -1.14637 2,700 149 162 64
2018-01-18 15:27:54 GMT 53.16220 -1.14854 2,700 150 162 0
2018-01-18 15:27:51 GMT 53.16424 -1.15050 2,700 150 163 0
2018-01-18 15:27:48 GMT 53.16563 -1.15176 2,700 150 163 -64
2018-01-18 15:27:46 GMT 53.16669 -1.15278 2,700 150 163 -64
2018-01-18 15:27:43 GMT 53.16899 -1.15494 2,700 150 163 -64
2018-01-18 15:27:40 GMT 53.17094 -1.15680 2,700 150 163 -128
2018-01-18 15:27:37 GMT 53.17351 -1.15922 2,700 150 162 -128
2018-01-18 15:27:33 GMT 53.17583 -1.16140 2,700 150 162 -128
2018-01-18 15:27:30 GMT 53.17779 -1.16326 2,700 151 161 -192
2018-01-18 15:27:28 GMT 53.17969 -1.16496 2,800 151 160 -128
2018-01-18 15:27:26 GMT 53.17997 -1.16528 2,700 151 160 -128
2018-01-18 15:27:22 GMT 53.18281 -1.16778 2,800 151 160 0
2018-01-18 15:27:19 GMT 53.18467 -1.16948 2,800 151 158 0
2018-01-18 15:27:17 GMT 53.18598 -1.17069 2,700 151 158 0
2018-01-18 15:27:13 GMT 53.18930 -1.17358 2,700 151 158 128
2018-01-18 15:27:11 GMT 53.18956 -1.17384 2,700 151 158 128
2018-01-18 15:27:08 GMT 53.19163 -1.17569 2,700 151 158 64
2018-01-18 15:27:05 GMT 53.19365 -1.17750 2,700 151 160 128
2018-01-18 15:27:02 GMT 53.19617 -1.17974 2,700 151 161 64
2018-01-18 15:26:58 GMT 53.19827 -1.18166 2,700 150 162 0
2018-01-18 15:26:57 GMT 53.19883 -1.18224 2,700 150 162 64
2018-01-18 15:26:55 GMT 53.20015 -1.18346 2,700 150 162 0
2018-01-18 15:26:51 GMT 53.20302 -1.18620 2,700 149 162 0
2018-01-18 15:26:47 GMT 53.20530 -1.18854 2,700 149 161 0
2018-01-18 15:26:45 GMT 53.20660 -1.18982 2,700 149 162 64
2018-01-18 15:26:40 GMT 53.20958 -1.19274 2,700 149 162 0
2018-01-18 15:26:38 GMT 53.21164 -1.19476 2,700 149 162 -64
2018-01-18 15:26:35 GMT 53.21335 -1.19638 2,700 149 162 -128
2018-01-18 15:26:30 GMT 53.21622 -1.19931 2,700 149 161 64
2018-01-18 15:26:26 GMT 53.21912 -1.20211 2,700 149 162 64
2018-01-18 15:26:23 GMT 53.22108 -1.20405 2,700 149 161 64
2018-01-18 15:26:20 GMT 53.22281 -1.20567 2,700 149 161 0
2018-01-18 15:26:19 GMT 53.22313 -1.20599 2,700 149 161 0
2018-01-18 15:26:17 GMT 53.22494 -1.20777 2,700 149 162 -64
2018-01-18 15:26:15 GMT 53.22639 -1.20914 2,700 149 161 -64
2018-01-18 15:26:10 GMT 53.22988 -1.21270 2,700 149 160 -64
2018-01-18 15:26:06 GMT 53.23216 -1.21488 2,700 149 160 0
2018-01-18 15:26:03 GMT 53.23334 -1.21603 2,700 149 160 0
2018-01-18 15:25:58 GMT 53.23653 -1.21916 2,700 149 160 64
2018-01-18 15:25:54 GMT 53.23956 -1.22207 2,700 149 160 128
2018-01-18 15:25:49 GMT 53.24310 -1.22562 2,700 149 160 -128
2018-01-18 15:25:45 GMT 53.24542 -1.22788 2,700 149 159 0
2018-01-18 15:25:43 GMT 53.24634 -1.22882 2,700 149 159 0
2018-01-18 15:25:38 GMT 53.24991 -1.23235 2,700 149 159 0
2018-01-18 15:25:34 GMT 53.25188 -1.23424 2,700 149 159 192
2018-01-18 15:25:33 GMT 53.25357 -1.23596 2,700 149 159 128
2018-01-18 15:25:32 GMT 53.25357 -1.23596 2,700 149 159 128
2018-01-18 15:25:28 GMT 53.25641 -1.23879 2,700 149 159 64
2018-01-18 15:25:25 GMT 53.25815 -1.24044 2,700 149 159 0
2018-01-18 15:25:23 GMT 53.25995 -1.24226 2,700 149 159 0
2018-01-18 15:25:17 GMT 53.26300 -1.24530 2,700 149 160 64
2018-01-18 15:25:15 GMT 53.26469 -1.24695 2,700 149 160 64
2018-01-18 15:25:12 GMT 53.26620 -1.24844 2,700 149 160 64
2018-01-18 15:25:09 GMT 53.26840 -1.25064 2,700 149 161 64
2018-01-18 15:25:07 GMT 53.26978 -1.25205 2,700 149 161 64
2018-01-18 15:25:04 GMT 53.27154 -1.25373 2,700 149 161 0
2018-01-18 15:25:00 GMT 53.27364 -1.25583 2,700 149 161 0
2018-01-18 15:24:56 GMT 53.27687 -1.25903 2,700 149 163 -128
2018-01-18 15:24:54 GMT 53.27820 -1.26036 2,700 149 163 -128
2018-01-18 15:24:51 GMT 53.27997 -1.26214 2,700 149 163 -128
2018-01-18 15:24:47 GMT 53.28211 -1.26432 2,700 149 163 0
2018-01-18 15:24:43 GMT 53.28476 -1.26690 2,700 148 162 64
2018-01-18 15:24:40 GMT 53.28694 -1.26916 2,700 148 162 -64
2018-01-18 15:24:36 GMT 53.28914 -1.27134 2,700 148 162 -64
2018-01-18 15:24:34 GMT 53.29133 -1.27352 2,700 148 162 64
2018-01-18 15:24:32 GMT 53.29161 -1.27379 2,700 148 162 64
2018-01-18 15:24:29 GMT 53.29407 -1.27627 2,700 149 161 64
2018-01-18 15:24:28 GMT 53.29431 -1.27653 2,700 149 161 64
2018-01-18 15:24:26 GMT 53.29564 -1.27787 2,700 149 161 0
2018-01-18 15:24:23 GMT 53.29822 -1.28039 2,700 149 161 0
2018-01-18 15:24:18 GMT 53.30095 -1.28312 2,700 149 161 0
2018-01-18 15:24:15 GMT 53.30255 -1.28469 2,700 149 161 0
2018-01-18 15:24:13 GMT 53.30417 -1.28629 2,700 149 161 -64
2018-01-18 15:24:10 GMT 53.30571 -1.28774 2,700 149 161 -64
2018-01-18 15:24:08 GMT 53.30739 -1.28944 2,700 149 161 0
2018-01-18 15:24:06 GMT 53.30896 -1.29097 2,700 149 161 0
2018-01-18 15:24:02 GMT 53.31195 -1.29388 2,700 149 160 0
2018-01-18 15:23:59 GMT 53.31349 -1.29537 2,700 149 161 0
2018-01-18 15:23:57 GMT 53.31432 -1.29622 2,700 149 161 0
2018-01-18 15:23:57 GMT 53.31432 -1.29622 2,700 149 161 0
2018-01-18 15:23:55 GMT 53.31563 -1.29744 2,700 149 161 0
2018-01-18 15:23:53 GMT 53.31766 -1.29945 2,700 150 161 64
2018-01-18 15:23:51 GMT 53.31861 -1.30035 2,700 150 161 64
2018-01-18 15:23:49 GMT 53.31986 -1.30156 2,700 150 162 0
2018-01-18 15:23:47 GMT 53.32177 -1.30333 2,700 150 161 0
2018-01-18 15:23:47 GMT 53.32086 -1.30243 2,700 150 161 0
2018-01-18 15:23:45 GMT 53.32242 -1.30392 2,700 150 161 0
2018-01-18 15:23:41 GMT 53.32521 -1.30659 2,700 150 162 -64
2018-01-18 15:23:35 GMT 53.32906 -1.31020 2,700 150 162 0
2018-01-18 15:23:32 GMT 53.33116 -1.31216 2,700 150 161 0
2018-01-18 15:23:30 GMT 53.33215 -1.31311 2,700 150 161 0
2018-01-18 15:23:26 GMT 53.33441 -1.31522 2,700 150 161 -64
2018-01-18 15:23:24 GMT 53.33601 -1.31663 2,700 150 161 -64
2018-01-18 15:23:20 GMT 53.33881 -1.31925 2,700 151 161 0
2018-01-18 15:23:16 GMT 53.34179 -1.32207 2,700 150 161 0
2018-01-18 15:23:13 GMT 53.34274 -1.32299 2,700 151 161 64
2018-01-18 15:23:10 GMT 53.34567 -1.32566 2,700 151 161 128
2018-01-18 15:23:05 GMT 53.34851 -1.32825 2,700 151 161 64
2018-01-18 15:23:03 GMT 53.34961 -1.32935 2,700 151 161 0
2018-01-18 15:22:59 GMT 53.35236 -1.33186 2,700 151 162 64
2018-01-18 15:22:57 GMT 53.35332 -1.33272 2,700 151 162 0
2018-01-18 15:22:54 GMT 53.35570 -1.33492 2,700 151 162 0
2018-01-18 15:22:52 GMT 53.35668 -1.33581 2,700 151 162 0
2018-01-18 15:22:49 GMT 53.35922 -1.33821 2,700 151 162 0
2018-01-18 15:22:47 GMT 53.36022 -1.33912 2,700 150 162 0
2018-01-18 15:22:45 GMT 53.36160 -1.34041 2,700 150 162 -64
2018-01-18 15:22:43 GMT 53.36357 -1.34222 2,700 150 162 0
2018-01-18 15:22:39 GMT 53.36545 -1.34394 2,700 150 162 0
2018-01-18 15:22:34 GMT 53.36861 -1.34692 2,700 150 163 0
2018-01-18 15:22:31 GMT 53.37023 -1.34849 2,700 150 163 0
2018-01-18 15:22:29 GMT 53.37231 -1.35038 2,700 150 164 0
2018-01-18 15:22:29 GMT 53.37163 -1.34975 2,700 150 164 0
2018-01-18 15:22:27 GMT 53.37295 -1.35100 2,700 150 164 0
2018-01-18 15:22:25 GMT 53.37424 -1.35221 2,700 150 164 64
2018-01-18 15:22:22 GMT 53.37643 -1.35422 2,700 150 164 64
2018-01-18 15:22:20 GMT 53.37840 -1.35610 2,700 151 165 0
2018-01-18 15:22:17 GMT 53.37964 -1.35720 2,700 151 165 0
2018-01-18 15:22:14 GMT 53.38206 -1.35940 2,700 151 166 -128
2018-01-18 15:22:12 GMT 53.38380 -1.36105 2,700 151 166 -64
2018-01-18 15:22:12 GMT 53.38380 -1.36105 2,700 151 166 -128
2018-01-18 15:22:09 GMT 53.38578 -1.36279 2,700 151 166 -64
2018-01-18 15:22:06 GMT 53.38750 -1.36441 2,700 151 166 -128
2018-01-18 15:22:04 GMT 53.38921 -1.36591 2,700 151 166 -128
2018-01-18 15:22:01 GMT 53.39076 -1.36731 2,800 151 166 0
2018-01-18 15:21:59 GMT 53.39246 -1.36882 2,700 151 166 0
2018-01-18 15:21:56 GMT 53.39402 -1.37022 2,700 151 166 0
2018-01-18 15:21:54 GMT 53.39537 -1.37143 2,700 151 165 0
2018-01-18 15:21:52 GMT 53.39731 -1.37321 2,700 151 165 0
2018-01-18 15:21:50 GMT 53.39827 -1.37408 2,700 151 165 64
2018-01-18 15:21:48 GMT 53.39960 -1.37525 2,700 151 165 64
2018-01-18 15:21:45 GMT 53.40170 -1.37717 2,700 151 165 64
2018-01-18 15:21:42 GMT 53.40312 -1.37839 2,700 152 166 128
2018-01-18 15:21:40 GMT 53.40514 -1.38020 2,700 152 166 128
2018-01-18 15:21:36 GMT 53.40822 -1.38298 2,700 152 167 64
2018-01-18 15:21:34 GMT 53.40892 -1.38355 2,700 152 167 0
2018-01-18 15:21:32 GMT 53.41132 -1.38569 2,700 152 167 64
2018-01-18 15:21:30 GMT 53.41231 -1.38662 2,700 151 167 -64
2018-01-18 15:21:28 GMT 53.41371 -1.38783 2,700 151 167 0
2018-01-18 15:21:26 GMT 53.41443 -1.38851 2,700 151 168 -64
2018-01-18 15:21:24 GMT 53.41566 -1.38961 2,700 151 168 -64
2018-01-18 15:21:22 GMT 53.41704 -1.39079 2,700 151 168 -64
2018-01-18 15:21:20 GMT 53.41855 -1.39220 2,700 151 168 0
2018-01-18 15:21:18 GMT 53.42033 -1.39377 2,700 151 167 -64
2018-01-18 15:21:14 GMT 53.42274 -1.39599 2,700 151 167 64
2018-01-18 15:21:10 GMT 53.42537 -1.39848 2,700 150 167 0
2018-01-18 15:21:09 GMT 53.42670 -1.39974 2,700 150 167 -64
2018-01-18 15:21:08 GMT 53.42647 -1.39950 2,700 150 167 -64
2018-01-18 15:21:06 GMT 53.42912 -1.40201 2,700 150 167 0
2018-01-18 15:21:04 GMT 53.42986 -1.40278 2,700 150 166 -64
2018-01-18 15:21:02 GMT 53.43122 -1.40399 2,700 150 166 -64
2018-01-18 15:20:58 GMT 53.43373 -1.40641 2,700 150 164 0
2018-01-18 15:20:55 GMT 53.43539 -1.40806 2,700 150 164 0
2018-01-18 15:20:53 GMT 53.43675 -1.40940 2,700 150 164 64
2018-01-18 15:20:51 GMT 53.43806 -1.41061 2,700 149 163 64
2018-01-18 15:20:48 GMT 53.44011 -1.41261 2,700 150 163 64
2018-01-18 15:20:42 GMT 53.44340 -1.41574 2,700 150 163 64
2018-01-18 15:20:39 GMT 53.44615 -1.41833 2,700 150 163 64
2018-01-18 15:20:37 GMT 53.44707 -1.41920 2,700 150 163 64
2018-01-18 15:20:34 GMT 53.44904 -1.42108 2,700 150 163 0
2018-01-18 15:20:32 GMT 53.45050 -1.42249 2,700 150 163 0
2018-01-18 15:20:32 GMT 53.45016 -1.42216 2,700 150 163 0
2018-01-18 15:20:30 GMT 53.45178 -1.42375 2,700 149 163 0
2018-01-18 15:20:27 GMT 53.45449 -1.42637 2,700 149 163 -64
2018-01-18 15:20:24 GMT 53.45580 -1.42766 2,700 149 163 -64
2018-01-18 15:20:22 GMT 53.45724 -1.42903 2,700 149 163 0
2018-01-18 15:20:20 GMT 53.45860 -1.43034 2,700 149 163 -64
2018-01-18 15:20:16 GMT 53.46133 -1.43299 2,700 149 163 0
2018-01-18 15:20:14 GMT 53.46199 -1.43355 2,700 149 163 64
2018-01-18 15:20:12 GMT 53.46428 -1.43584 2,700 149 164 64
2018-01-18 15:20:10 GMT 53.46525 -1.43679 2,700 149 164 0
2018-01-18 15:20:07 GMT 53.46666 -1.43811 2,700 149 164 0
2018-01-18 15:20:05 GMT 53.46827 -1.43977 2,700 149 164 0
2018-01-18 15:20:03 GMT 53.46927 -1.44070 2,700 149 164 0
2018-01-18 15:20:01 GMT 53.47051 -1.44196 2,700 149 164 -64
2018-01-18 15:19:59 GMT 53.47209 -1.44349 2,700 149 163 -64
2018-01-18 15:19:57 GMT 53.47412 -1.44549 2,700 149 164 64
2018-01-18 15:19:54 GMT 53.47600 -1.44737 2,700 149 164 0
2018-01-18 15:19:51 GMT 53.47829 -1.44957 2,700 149 164 0
2018-01-18 15:19:49 GMT 53.47897 -1.45027 2,700 149 164 -64
2018-01-18 15:19:45 GMT 53.48209 -1.45333 2,700 149 163 0
2018-01-18 15:19:41 GMT 53.48401 -1.45520 2,700 149 164 0
2018-01-18 15:19:39 GMT 53.48561 -1.45679 2,700 149 163 0
2018-01-18 15:19:35 GMT 53.48836 -1.45953 2,700 149 163 64
2018-01-18 15:19:30 GMT 53.49165 -1.46267 2,700 149 163 64
2018-01-18 15:19:27 GMT 53.49321 -1.46424 2,700 149 163 64
2018-01-18 15:19:23 GMT 53.49623 -1.46715 2,700 150 164 0
2018-01-18 15:19:20 GMT 53.49723 -1.46805 2,700 150 164 -64
2018-01-18 15:19:18 GMT 53.49930 -1.47005 2,700 150 164 0
2018-01-18 15:19:16 GMT 53.50035 -1.47107 2,700 150 164 -64
2018-01-18 15:19:12 GMT 53.50319 -1.47378 2,700 150 164 -64
2018-01-18 15:19:08 GMT 53.50621 -1.47672 2,700 150 164 -64
2018-01-18 15:19:06 GMT 53.50694 -1.47743 2,700 149 163 -64
2018-01-18 15:19:03 GMT 53.50952 -1.47992 2,700 149 163 0
2018-01-18 15:19:01 GMT 53.51060 -1.48096 2,700 149 163 0
2018-01-18 15:18:57 GMT 53.51291 -1.48324 2,700 149 163 0
2018-01-18 15:18:54 GMT 53.51450 -1.48477 2,700 149 163 0
2018-01-18 15:18:52 GMT 53.51608 -1.48630 2,700 149 163 0
2018-01-18 15:18:49 GMT 53.51780 -1.48792 2,700 149 164 64
2018-01-18 15:18:47 GMT 53.51948 -1.48962 2,700 149 164 128
2018-01-18 15:18:45 GMT 53.52092 -1.49099 2,700 149 164 192
2018-01-18 15:18:41 GMT 53.52324 -1.49328 2,700 149 165 128
2018-01-18 15:18:39 GMT 53.52534 -1.49535 2,700 150 166 0
2018-01-18 15:18:35 GMT 53.52800 -1.49791 2,700 149 166 0
2018-01-18 15:18:31 GMT 53.52967 -1.49955 2,700 149 166 -64
2018-01-18 15:18:29 GMT 53.53182 -1.50165 2,700 149 167 0
2018-01-18 15:18:27 GMT 53.53294 -1.50269 2,700 149 167 0
2018-01-18 15:18:25 GMT 53.53424 -1.50400 2,700 149 168 0
2018-01-18 15:18:23 GMT 53.53514 -1.50489 2,700 149 168 0
2018-01-18 15:18:21 GMT 53.53725 -1.50693 2,700 149 168 0
2018-01-18 15:18:18 GMT 53.53945 -1.50908 2,700 149 168 0
2018-01-18 15:18:16 GMT 53.54100 -1.51062 2,700 149 169 0
2018-01-18 15:18:13 GMT 53.54224 -1.51183 2,700 149 169 0
2018-01-18 15:18:11 GMT 53.54361 -1.51313 2,700 149 169 0
2018-01-18 15:18:09 GMT 53.54518 -1.51458 2,700 150 169 64
2018-01-18 15:18:07 GMT 53.54654 -1.51596 2,700 149 169 64
2018-01-18 15:18:05 GMT 53.54816 -1.51749 2,700 150 170 0
2018-01-18 15:18:03 GMT 53.54919 -1.51847 2,700 150 170 0
2018-01-18 15:18:01 GMT 53.55057 -1.51980 2,700 150 170 0
2018-01-18 15:17:59 GMT 53.55153 -1.52074 2,700 150 171 0
2018-01-18 15:17:57 GMT 53.55379 -1.52290 2,700 150 171 -64
2018-01-18 15:17:55 GMT 53.55453 -1.52363 2,700 150 171 -64
2018-01-18 15:17:53 GMT 53.55661 -1.52561 2,700 150 171 0
2018-01-18 15:17:51 GMT 53.55757 -1.52655 2,700 150 171 0
2018-01-18 15:17:49 GMT 53.55858 -1.52749 2,700 150 171 0
2018-01-18 15:17:48 GMT 53.55895 -1.52788 2,700 150 171 0
2018-01-18 15:17:46 GMT 53.56068 -1.52952 2,700 150 170 -64
2018-01-18 15:17:44 GMT 53.56210 -1.53087 2,700 150 171 -64
2018-01-18 15:17:41 GMT 53.56519 -1.53381 2,700 150 170 0
2018-01-18 15:17:38 GMT 53.56650 -1.53510 2,700 150 170 0
2018-01-18 15:17:36 GMT 53.56801 -1.53652 2,700 150 170 0
2018-01-18 15:17:34 GMT 53.56929 -1.53776 2,700 150 170 0
2018-01-18 15:17:32 GMT 53.57071 -1.53911 2,700 150 170 64
2018-01-18 15:17:29 GMT 53.57269 -1.54099 2,700 150 168 64
2018-01-18 15:17:26 GMT 53.57400 -1.54225 2,700 150 168 64
2018-01-18 15:17:24 GMT 53.57539 -1.54358 2,700 150 169 128
2018-01-18 15:17:21 GMT 53.57795 -1.54600 2,700 150 169 64
2018-01-18 15:17:19 GMT 53.57935 -1.54730 2,700 150 169 64
2018-01-18 15:17:17 GMT 53.58069 -1.54852 2,700 151 169 0
2018-01-18 15:17:14 GMT 53.58243 -1.55017 2,700 151 169 0
2018-01-18 15:17:12 GMT 53.58426 -1.55190 2,700 151 169 0
2018-01-18 15:17:10 GMT 53.58513 -1.55268 2,700 151 169 0
2018-01-18 15:17:08 GMT 53.58691 -1.55441 2,700 151 169 0
2018-01-18 15:17:04 GMT 53.58959 -1.55683 2,700 151 169 -64
2018-01-18 15:16:59 GMT 53.59284 -1.55982 2,700 151 169 -64
2018-01-18 15:16:57 GMT 53.59433 -1.56127 2,700 151 169 -64
2018-01-18 15:16:53 GMT 53.59653 -1.56328 2,700 151 167 -128
2018-01-18 15:16:50 GMT 53.59908 -1.56563 2,700 150 166 -128
2018-01-18 15:16:48 GMT 53.60071 -1.56717 2,700 151 165 -64
2018-01-18 15:16:45 GMT 53.60234 -1.56869 2,800 151 165 -64
2018-01-18 15:16:43 GMT 53.60358 -1.56987 2,700 151 165 0
2018-01-18 15:16:42 GMT 53.60426 -1.57050 2,700 150 163 192
2018-01-18 15:16:39 GMT 53.60696 -1.57301 2,700 150 163 64
2018-01-18 15:16:37 GMT 53.60737 -1.57339 2,700 150 163 128
2018-01-18 15:16:32 GMT 53.61067 -1.57646 2,700 150 163 192
2018-01-18 15:16:30 GMT 53.61282 -1.57850 2,700 150 163 192
2018-01-18 15:16:28 GMT 53.61370 -1.57936 2,700 149 163 192
2018-01-18 15:16:26 GMT 53.61465 -1.58023 2,700 149 163 192
2018-01-18 15:16:24 GMT 53.61603 -1.58156 2,700 148 164 64
2018-01-18 15:16:22 GMT 53.61745 -1.58305 2,700 147 164 0
2018-01-18 15:16:19 GMT 53.61960 -1.58548 2,700 139 164 -320
2018-01-18 15:16:17 GMT 53.62074 -1.58698 2,700 138 164 -192
2018-01-18 15:16:12 GMT 53.62324 -1.59068 2,700 138 163 -64
2018-01-18 15:16:09 GMT 53.62562 -1.59415 2,700 140 160 -64
2018-01-18 15:16:07 GMT 53.62605 -1.59482 2,700 140 160 -64
2018-01-18 15:16:05 GMT 53.62738 -1.59663 2,700 140 159 -64
2018-01-18 15:16:02 GMT 53.62912 -1.59890 2,700 141 157 -64
2018-01-18 15:15:57 GMT 53.63200 -1.60263 2,800 143 154 -64
2018-01-18 15:15:53 GMT 53.63372 -1.60473 2,800 143 153 -64
2018-01-18 15:15:51 GMT 53.63512 -1.60651 2,700 145 152 64
2018-01-18 15:15:49 GMT 53.63684 -1.60853 2,700 146 150 192
2018-01-18 15:15:46 GMT 53.63823 -1.61006 2,700 146 150 256
2018-01-18 15:15:44 GMT 53.63905 -1.61099 2,700 146 149 256
2018-01-18 15:15:42 GMT 53.64102 -1.61311 2,700 147 148 192
2018-01-18 15:15:39 GMT 53.64275 -1.61499 2,700 146 148 320
2018-01-18 15:15:35 GMT 53.64473 -1.61719 2,700 147 147 320
2018-01-18 15:15:31 GMT 53.64703 -1.61968 2,700 147 146 320
2018-01-18 15:15:28 GMT 53.64871 -1.62142 2,700 147 146 320
2018-01-18 15:15:25 GMT 53.65071 -1.62355 2,600 148 145 320
2018-01-18 15:15:23 GMT 53.65128 -1.62417 2,600 148 145 320
2018-01-18 15:15:20 GMT 53.65308 -1.62598 2,600 148 145 320
2018-01-18 15:15:18 GMT 53.65443 -1.62747 2,600 147 146 256
2018-01-18 15:15:15 GMT 53.65622 -1.62935 2,600 147 145 256
2018-01-18 15:15:08 GMT 53.66016 -1.63365 2,600 147 144 384
2018-01-18 15:15:04 GMT 53.66258 -1.63626 2,500 146 145 512
2018-01-18 15:14:59 GMT 53.66505 -1.63908 2,500 145 147 512
2018-01-18 15:14:57 GMT 53.66602 -1.64026 2,400 143 148 448
2018-01-18 15:14:55 GMT 53.66780 -1.64254 2,400 142 149 256
2018-01-18 15:14:48 GMT 53.67157 -1.64738 2,400 143 149 704
2018-01-18 15:14:43 GMT 53.67347 -1.64973 2,300 144 152 896
2018-01-18 15:14:43 GMT 53.67412 -1.65045 2,300 144 152 832
2018-01-18 15:14:39 GMT 53.67641 -1.65312 2,200 145 156 768
2018-01-18 15:14:37 GMT 53.67766 -1.65457 2,200 145 156 704
2018-01-18 15:14:33 GMT 53.67999 -1.65724 2,200 145 158 64
2018-01-18 15:14:30 GMT 53.68232 -1.65982 2,200 146 158 64
2018-01-18 15:14:27 GMT 53.68362 -1.66128 2,200 146 158 64
2018-01-18 15:14:24 GMT 53.68572 -1.66370 2,200 146 157 128
2018-01-18 15:14:16 GMT 53.68996 -1.66827 2,200 146 159 192
2018-01-18 15:14:14 GMT 53.69197 -1.67055 2,200 146 160 -64
2018-01-18 15:14:06 GMT 53.69632 -1.67557 2,200 144 159 -128
2018-01-18 15:14:03 GMT 53.69801 -1.67769 2,200 143 158 64
2018-01-18 15:13:56 GMT 53.70213 -1.68318 2,100 138 162 256
2018-01-18 15:13:52 GMT 53.70462 -1.68705 2,100 135 163 -64
2018-01-18 15:13:46 GMT 53.70750 -1.69230 2,200 133 162 -128
2018-01-18 15:13:43 GMT 53.70955 -1.69585 2,200 136 162 0
2018-01-18 15:13:36 GMT 53.71318 -1.70118 2,200 141 159 64
2018-01-18 15:13:31 GMT 53.71551 -1.70425 2,200 145 158 64
2018-01-18 15:13:26 GMT 53.71956 -1.70829 2,200 155 155 -384
2018-01-18 15:13:21 GMT 53.72223 -1.71002 2,200 162 150 -192
2018-01-18 15:13:15 GMT 53.72622 -1.71177 2,200 168 150 256
2018-01-18 15:13:12 GMT 53.72859 -1.71249 2,200 171 150 320
2018-01-18 15:13:04 GMT 53.73422 -1.71340 2,200 175 150 192
2018-01-18 15:13:01 GMT 53.73587 -1.71363 2,200 176 150 64
2018-01-18 15:12:54 GMT 53.74056 -1.71411 2,200 177 151 256
2018-01-18 15:12:50 GMT 53.74307 -1.71427 2,100 177 152 320
2018-01-18 15:12:42 GMT 53.74915 -1.71465 2,100 178 152 64
2018-01-18 15:12:40 GMT 53.75057 -1.71465 2,100 181 153 320
2018-01-18 15:12:33 GMT 53.75545 -1.71451 2,000 182 155 192
2018-01-18 15:12:31 GMT 53.75769 -1.71435 2,100 182 156 64
2018-01-18 15:12:27 GMT 53.76045 -1.71426 2,100 183 156 -384
2018-01-18 15:12:25 GMT 53.76155 -1.71419 2,100 183 155 -384
2018-01-18 15:12:19 GMT 53.76503 -1.71387 2,100 183 154 -192
2018-01-18 15:12:09 GMT 53.77240 -1.71332 2,100 184 152 -320
2018-01-18 15:12:04 GMT 53.77588 -1.71300 2,100 184 149 -64
2018-01-18 15:12:02 GMT 53.77747 -1.71282 2,100 184 149 0
2018-01-18 15:12:00 GMT 53.77938 -1.71257 2,100 185 148 -128
2018-01-18 15:11:54 GMT 53.78320 -1.71209 2,200 185 145 -192
2018-01-18 15:11:52 GMT 53.78427 -1.71193 2,200 185 144 -384
2018-01-18 15:11:50 GMT 53.78613 -1.71169 2,200 186 143 -256
2018-01-18 15:11:45 GMT 53.78985 -1.71112 2,200 186 143 128
2018-01-18 15:11:43 GMT 53.79044 -1.71104 2,200 185 143 0
2018-01-18 15:11:39 GMT 53.79311 -1.71064 2,200 186 143 192
2018-01-18 15:11:34 GMT 53.79652 -1.71002 2,200 185 145 64
2018-01-18 15:11:30 GMT 53.79954 -1.70951 2,200 185 145 64
2018-01-18 15:11:23 GMT 53.80330 -1.70900 2,200 185 145 -192
2018-01-18 15:11:19 GMT 53.80675 -1.70854 2,200 184 145 -64
2018-01-18 15:11:16 GMT 53.80856 -1.70837 2,200 184 145 -64
2018-01-18 15:11:09 GMT 53.81319 -1.70782 2,200 186 144 0
2018-01-18 15:11:04 GMT 53.81681 -1.70732 2,200 185 144 0
2018-01-18 15:10:58 GMT 53.82037 -1.70688 2,200 185 145 192
2018-01-18 15:10:51 GMT 53.82550 -1.70618 2,200 185 145 192
2018-01-18 15:10:47 GMT 53.82714 -1.70603 2,200 183 146 64
2018-01-18 15:10:37 GMT 53.83394 -1.70571 2,200 182 147 128
2018-01-18 15:10:33 GMT 53.83762 -1.70555 2,200 182 146 -256
2018-01-18 15:10:31 GMT 53.83948 -1.70538 2,200 183 144 0
2018-01-18 15:10:27 GMT 53.84162 -1.70530 2,200 183 143 64
2018-01-18 15:10:24 GMT 53.84345 -1.70516 2,200 183 143 -64
2018-01-18 15:10:20 GMT 53.84560 -1.70492 2,200 183 141 -192
2018-01-18 15:10:17 GMT 53.84788 -1.70484 2,200 183 139 64
2018-01-18 15:10:15 GMT 53.84916 -1.70474 2,200 183 138 -192
2018-01-18 15:10:11 GMT 53.85191 -1.70453 2,200 183 136 -128
2018-01-18 15:10:08 GMT 53.85406 -1.70437 2,200 183 134 -64
2018-01-18 15:10:04 GMT 53.85635 -1.70422 2,200 184 132 -128
2018-01-18 15:10:00 GMT 53.85842 -1.70401 2,300 183 131 -64
2018-01-18 15:09:55 GMT 53.86189 -1.70367 2,200 185 128 0
2018-01-18 15:09:49 GMT 53.86490 -1.70320 2,200 186 125 128
2018-01-18 15:09:47 GMT 53.86597 -1.70304 2,200 187 124 320
2018-01-18 15:09:44 GMT 53.86839 -1.70256 2,200 189 121 192
2018-01-18 15:09:39 GMT 53.87091 -1.70178 2,200 193 117 320
2018-01-18 15:09:36 GMT 53.87221 -1.70127 2,200 197 115 512
2018-01-18 15:09:33 GMT 53.87327 -1.70070 2,200 203 112 192
2018-01-18 15:09:30 GMT 53.87512 -1.69919 2,200 213 105 320
2018-01-18 15:09:27 GMT 53.87649 -1.69755 2,100 225 101 640
2018-01-18 15:09:24 GMT 53.87737 -1.69609 2,100 235 97 768
2018-01-18 15:09:19 GMT 53.87860 -1.69323 2,000 241 96 832
2018-01-18 15:09:14 GMT 53.87951 -1.68939 1,900 263 94 832
2018-01-18 15:09:10 GMT 53.87974 -1.68648 1,900 271 94 1024
2018-01-18 15:09:06 GMT 53.87961 -1.68389 1,800 286 96 960
2018-01-18 15:09:04 GMT 53.87928 -1.68188 1,700 305 100 896
2018-01-18 15:09:00 GMT 53.87837 -1.67918 1,700 310 100 640
2018-01-18 15:08:55 GMT 53.87576 -1.67502 1,600 322 100 448
2018-01-18 15:08:49 GMT 53.87494 -1.67392 1,600 322 97 512
2018-01-18 15:08:42 GMT 53.87247 -1.67047 1,500 320 94 768
We lost coverage of the aircraft here for a total of 101 minutes
2018-01-18 13:27:53 GMT 53.85933 -1.65054 1,300 317 87 -448
2018-01-18 13:27:45 GMT 53.85680 -1.64658 1,300 318 88 -640
2018-01-18 13:27:34 GMT 53.85368 -1.64173 1,400 318 89 -704
2018-01-18 13:27:30 GMT 53.85214 -1.63939 1,500 317 89 -512
2018-01-18 13:27:25 GMT 53.85065 -1.63696 1,600 318 90 -704
2018-01-18 13:27:16 GMT 53.84777 -1.63341 1,700 342 93 -704
2018-01-18 13:27:13 GMT 53.84688 -1.63276 1,700 342 93 -704
2018-01-18 13:27:06 GMT 53.84345 -1.63170 1,800 4 99 -704
2018-01-18 13:27:04 GMT 53.84253 -1.63178 1,800 16 103 -896
2018-01-18 13:26:56 GMT 53.83887 -1.63398 1,900 23 104 -576
2018-01-18 13:26:54 GMT 53.83818 -1.63477 2,000 36 108 -896
2018-01-18 13:26:49 GMT 53.83631 -1.63737 2,000 46 108 -768
2018-01-18 13:26:42 GMT 53.83403 -1.64141 2,100 48 108 -768
2018-01-18 13:26:39 GMT 53.83287 -1.64367 2,200 52 109 -704
2018-01-18 13:26:34 GMT 53.83118 -1.64740 2,200 53 106 -640
2018-01-18 13:26:28 GMT 53.82957 -1.65117 2,300 54 106 -448
2018-01-18 13:26:23 GMT 53.82816 -1.65462 2,300 56 105 -448
2018-01-18 13:26:19 GMT 53.82697 -1.65776 2,400 57 106 -512
2018-01-18 13:26:12 GMT 53.82541 -1.66207 2,400 60 106 -320
2018-01-18 13:26:07 GMT 53.82399 -1.66623 2,400 60 107 -320
2018-01-18 13:25:57 GMT 53.82198 -1.67291 2,500 69 111 -384
2018-01-18 13:25:47 GMT 53.82024 -1.68091 2,600 70 112 -320
2018-01-18 13:25:37 GMT 53.81836 -1.68946 2,600 66 112 -512
2018-01-18 13:25:30 GMT 53.81657 -1.69519 2,700 58 109 -448
2018-01-18 13:25:28 GMT 53.81575 -1.69731 2,700 55 110 -384
2018-01-18 13:25:17 GMT 53.81282 -1.70469 2,800 56 110 -320
2018-01-18 13:25:07 GMT 53.80992 -1.71136 2,900 48 107 -512
2018-01-18 13:25:00 GMT 53.80717 -1.71637 2,900 45 106 -448
2018-01-18 13:24:55 GMT 53.80577 -1.71865 2,900 39 104 -256
2018-01-18 13:24:49 GMT 53.80389 -1.72156 2,900 39 106 -320
2018-01-18 13:24:47 GMT 53.80275 -1.72316 3,000 37 105 -384
2018-01-18 13:24:39 GMT 53.79958 -1.72704 3,000 40 104 -256
2018-01-18 13:24:35 GMT 53.79833 -1.72897 3,000 50 108 -256
2018-01-18 13:24:32 GMT 53.79730 -1.73082 3,000 52 109 -256
2018-01-18 13:24:26 GMT 53.79521 -1.73519 3,100 54 109 -192
2018-01-18 13:24:21 GMT 53.79400 -1.73802 3,100 59 111 -256
2018-01-18 13:24:19 GMT 53.79314 -1.74039 3,100 59 111 -256
2018-01-18 13:24:17 GMT 53.79297 -1.74077 3,100 59 111 -256
2018-01-18 13:24:15 GMT 53.79231 -1.74259 3,100 59 111 -192
2018-01-18 13:24:13 GMT 53.79153 -1.74481 3,100 59 111 -256
2018-01-18 13:24:11 GMT 53.79103 -1.74628 3,100 57 110 -320
2018-01-18 13:24:07 GMT 53.79021 -1.74832 3,100 56 110 0
2018-01-18 13:24:05 GMT 53.78962 -1.74981 3,100 56 112 0
2018-01-18 13:24:03 GMT 53.78892 -1.75161 3,100 58 115 0
2018-01-18 13:24:00 GMT 53.78833 -1.75318 3,100 58 117 -448
2018-01-18 13:23:57 GMT 53.78732 -1.75593 3,100 58 117 -448
2018-01-18 13:23:55 GMT 53.78659 -1.75789 3,200 58 118 -448
2018-01-18 13:23:51 GMT 53.78562 -1.76064 3,200 58 118 -448
2018-01-18 13:23:45 GMT 53.78380 -1.76574 3,200 59 118 -448
2018-01-18 13:23:40 GMT 53.78259 -1.76912 3,300 59 119 -448
2018-01-18 13:23:35 GMT 53.78092 -1.77389 3,300 59 119 -512
2018-01-18 13:23:26 GMT 53.77831 -1.78156 3,400 60 119 -448
2018-01-18 13:23:24 GMT 53.77808 -1.78230 3,400 60 119 -384
2018-01-18 13:23:20 GMT 53.77696 -1.78560 3,400 60 123 -448
2018-01-18 13:23:18 GMT 53.77654 -1.78689 3,400 60 121 -192
2018-01-18 13:23:16 GMT 53.77588 -1.78897 3,500 61 123 -320
2018-01-18 13:23:14 GMT 53.77533 -1.79053 3,500 60 123 -448
2018-01-18 13:23:10 GMT 53.77398 -1.79457 3,500 62 124 -512
2018-01-18 13:23:06 GMT 53.77313 -1.79768 3,500 69 128 -576
2018-01-18 13:23:04 GMT 53.77272 -1.79966 3,600 72 128 -512
2018-01-18 13:22:59 GMT 53.77171 -1.80505 3,600 73 129 -640
2018-01-18 13:22:57 GMT 53.77158 -1.80592 3,600 72 128 -512
2018-01-18 13:22:55 GMT 53.77105 -1.80870 3,600 73 128 -640
2018-01-18 13:22:53 GMT 53.77080 -1.81015 3,700 73 128 -576
2018-01-18 13:22:47 GMT 53.76979 -1.81580 3,700 73 128 -512
2018-01-18 13:22:43 GMT 53.76914 -1.81977 3,800 74 128 -512
2018-01-18 13:22:39 GMT 53.76837 -1.82459 3,800 74 129 -512
2018-01-18 13:22:37 GMT 53.76821 -1.82543 3,800 75 129 -512
2018-01-18 13:22:33 GMT 53.76760 -1.82939 3,800 74 129 -512
2018-01-18 13:22:28 GMT 53.76682 -1.83401 3,900 75 131 -576
2018-01-18 13:22:26 GMT 53.76649 -1.83597 3,900 75 132 -704
2018-01-18 13:22:23 GMT 53.76595 -1.83974 4,000 76 130 -896
2018-01-18 13:22:21 GMT 53.76579 -1.84094 4,000 76 130 -832
2018-01-18 13:22:17 GMT 53.76509 -1.84562 4,000 75 131 -256
2018-01-18 13:22:16 GMT 53.76485 -1.84716 4,000 75 131 -256
2018-01-18 13:22:13 GMT 53.76443 -1.85010 4,000 73 134 -576
2018-01-18 13:22:11 GMT 53.76430 -1.85112 4,000 75 133 -384
2018-01-18 13:22:06 GMT 53.76341 -1.85604 4,100 69 132 -768
2018-01-18 13:22:04 GMT 53.76295 -1.85814 4,100 65 130 -768
2018-01-18 13:22:02 GMT 53.76248 -1.85976 4,200 63 129 -640
2018-01-18 13:22:00 GMT 53.76192 -1.86163 4,200 63 128 -640
2018-01-18 13:21:57 GMT 53.76118 -1.86452 4,200 69 129 -576
2018-01-18 13:21:55 GMT 53.76073 -1.86634 4,200 70 129 -512
2018-01-18 13:21:53 GMT 53.76022 -1.86877 4,300 73 130 -128
2018-01-18 13:21:51 GMT 53.75997 -1.87018 4,300 73 130 -128
2018-01-18 13:21:48 GMT 53.75954 -1.87262 4,300 75 132 -384
2018-01-18 13:21:46 GMT 53.75912 -1.87537 4,300 76 133 -320
2018-01-18 13:21:44 GMT 53.75876 -1.87811 4,300 77 136 -384
2018-01-18 13:21:42 GMT 53.75862 -1.87913 4,300 78 135 -512
2018-01-18 13:21:38 GMT 53.75798 -1.88416 4,400 78 136 -448
2018-01-18 13:21:36 GMT 53.75778 -1.88609 4,400 78 136 -448
2018-01-18 13:21:34 GMT 53.75748 -1.88863 4,400 78 136 -448
2018-01-18 13:21:32 GMT 53.75736 -1.88941 4,400 78 136 -448
2018-01-18 13:21:30 GMT 53.75711 -1.89145 4,400 78 136 -448
2018-01-18 13:21:26 GMT 53.75652 -1.89627 4,500 79 138 -384
2018-01-18 13:21:24 GMT 53.75634 -1.89781 4,500 80 140 -512
2018-01-18 13:21:22 GMT 53.75610 -1.90023 4,500 81 140 -704
2018-01-18 13:21:20 GMT 53.75592 -1.90236 4,500 82 141 -704
2018-01-18 13:21:18 GMT 53.75573 -1.90475 4,600 83 140 -1088
2018-01-18 13:21:15 GMT 53.75550 -1.90807 4,600 83 138 -1152
2018-01-18 13:21:13 GMT 53.75537 -1.91044 4,700 82 138 -1152
2018-01-18 13:21:10 GMT 53.75508 -1.91404 4,700 81 136 -1024
2018-01-18 13:21:05 GMT 53.75466 -1.91921 4,800 81 136 -704
2018-01-18 13:21:03 GMT 53.75447 -1.92132 4,800 81 136 -576
2018-01-18 13:21:01 GMT 53.75436 -1.92237 4,800 80 136 -512
2018-01-18 13:20:59 GMT 53.75410 -1.92503 4,800 77 139 -832
2018-01-18 13:20:57 GMT 53.75387 -1.92713 4,900 78 138 -640
2018-01-18 13:20:54 GMT 53.75340 -1.93100 4,900 78 138 -832
2018-01-18 13:20:52 GMT 53.75317 -1.93273 4,900 77 139 -832
2018-01-18 13:20:48 GMT 53.75252 -1.93739 5,000 74 138 -768
2018-01-18 13:20:45 GMT 53.75217 -1.93940 5,000 75 138 -704
2018-01-18 13:20:43 GMT 53.75173 -1.94199 5,100 75 138 -704
2018-01-18 13:20:41 GMT 53.75149 -1.94345 5,100 76 138 -704
2018-01-18 13:20:41 GMT 53.75149 -1.94345 5,100 76 138 -704
2018-01-18 13:20:37 GMT 53.75075 -1.94878 5,100 78 139 -704
2018-01-18 13:20:35 GMT 53.75061 -1.94992 5,200 78 139 -768
2018-01-18 13:20:33 GMT 53.75038 -1.95203 5,200 78 139 -768
2018-01-18 13:20:31 GMT 53.75010 -1.95427 5,200 78 139 -832
2018-01-18 13:20:28 GMT 53.74963 -1.95823 5,200 79 139 -896
2018-01-18 13:20:25 GMT 53.74933 -1.96082 5,300 79 138 -1024
2018-01-18 13:20:22 GMT 53.74901 -1.96389 5,300 79 137 -960
2018-01-18 13:20:20 GMT 53.74875 -1.96599 5,400 79 136 -896
2018-01-18 13:20:17 GMT 53.74842 -1.96890 5,400 79 137 -640
2018-01-18 13:20:14 GMT 53.74814 -1.97173 5,400 80 136 -512
2018-01-18 13:20:12 GMT 53.74786 -1.97432 5,500 80 137 -448
2018-01-18 13:20:11 GMT 53.74773 -1.97581 5,500 80 138 -384
2018-01-18 13:20:10 GMT 53.74773 -1.97581 5,500 80 138 -384
2018-01-18 13:20:06 GMT 53.74713 -1.98178 5,500 80 141 -576
2018-01-18 13:20:04 GMT 53.74707 -1.98230 5,500 80 141 -640
2018-01-18 13:20:01 GMT 53.74661 -1.98715 5,600 81 141 -704
2018-01-18 13:20:01 GMT 53.74670 -1.98651 5,600 81 141 -704
2018-01-18 13:20:00 GMT 53.74661 -1.98715 5,600 81 141 -704
2018-01-18 13:19:56 GMT 53.74609 -1.99281 5,600 80 140 -896
2018-01-18 13:19:54 GMT 53.74585 -1.99504 5,700 80 139 -704
2018-01-18 13:19:52 GMT 53.74563 -1.99733 5,700 80 139 -704
2018-01-18 13:19:50 GMT 53.74549 -1.99838 5,700 80 139 -640
2018-01-18 13:19:46 GMT 53.74507 -2.00257 5,800 81 138 -768
2018-01-18 13:19:44 GMT 53.74489 -2.00469 5,800 81 138 -832
2018-01-18 13:19:41 GMT 53.74451 -2.00888 5,800 81 137 -576
2018-01-18 13:19:39 GMT 53.74448 -2.00940 5,800 80 137 -576
2018-01-18 13:19:35 GMT 53.74397 -2.01474 5,900 80 137 -640
2018-01-18 13:19:33 GMT 53.74379 -2.01638 5,900 81 137 -768
2018-01-18 13:19:31 GMT 53.74361 -2.01842 5,900 81 137 -768
2018-01-18 13:19:29 GMT 53.74344 -2.02052 5,900 82 137 -384
2018-01-18 13:19:26 GMT 53.74310 -2.02431 6,000 82 139 -320
2018-01-18 13:19:24 GMT 53.74302 -2.02569 6,000 83 140 -384
2018-01-18 13:19:22 GMT 53.74274 -2.02949 6,000 83 140 -512
2018-01-18 13:19:20 GMT 53.74265 -2.03098 6,000 85 141 -448
2018-01-18 13:19:18 GMT 53.74260 -2.03208 6,000 85 142 -384
2018-01-18 13:19:13 GMT 53.74237 -2.03780 6,000 87 144 -512
2018-01-18 13:19:10 GMT 53.74223 -2.04197 6,100 88 146 -768
2018-01-18 13:19:08 GMT 53.74223 -2.04322 6,100 88 146 -832
2018-01-18 13:19:05 GMT 53.74219 -2.04722 6,200 90 147 -960
2018-01-18 13:19:03 GMT 53.74219 -2.04950 6,200 91 147 -1024
2018-01-18 13:19:01 GMT 53.74223 -2.05186 6,200 91 147 -1024
2018-01-18 13:18:59 GMT 53.74228 -2.05509 6,300 90 148 -960
2018-01-18 13:18:57 GMT 53.74228 -2.05640 6,300 88 149 -960
2018-01-18 13:18:53 GMT 53.74218 -2.06163 6,400 86 150 -1088
2018-01-18 13:18:51 GMT 53.74210 -2.06386 6,400 86 150 -1152
2018-01-18 13:18:49 GMT 53.74205 -2.06567 6,500 85 149 -1216
2018-01-18 13:18:47 GMT 53.74191 -2.06818 6,500 85 149 -1280
2018-01-18 13:18:45 GMT 53.74177 -2.07141 6,600 86 148 -1280
2018-01-18 13:18:42 GMT 53.74168 -2.07312 6,600 86 148 -1216
2018-01-18 13:18:40 GMT 53.74158 -2.07666 6,700 87 148 -1152
2018-01-18 13:18:38 GMT 53.74153 -2.07779 6,700 88 148 -1152
2018-01-18 13:18:36 GMT 53.74150 -2.08026 6,700 88 147 -1152
2018-01-18 13:18:33 GMT 53.74149 -2.08361 6,800 89 148 -1024
2018-01-18 13:18:31 GMT 53.74146 -2.08670 6,800 89 148 -768
2018-01-18 13:18:29 GMT 53.74144 -2.09007 6,900 89 153 -512
2018-01-18 13:18:27 GMT 53.74139 -2.09193 6,900 89 153 -512
2018-01-18 13:18:26 GMT 53.74139 -2.09193 6,900 89 153 -512
2018-01-18 13:18:23 GMT 53.74141 -2.09611 6,900 92 156 -512
2018-01-18 13:18:20 GMT 53.74159 -2.09980 6,900 96 160 -1344
2018-01-18 13:18:18 GMT 53.74167 -2.10122 7,000 96 160 -1344
2018-01-18 13:18:16 GMT 53.74191 -2.10474 7,000 94 160 -1408
2018-01-18 13:18:14 GMT 53.74195 -2.10687 7,100 92 160 -1408
2018-01-18 13:18:12 GMT 53.74205 -2.10961 7,100 91 160 -1536
2018-01-18 13:18:10 GMT 53.74210 -2.11299 7,200 89 158 -1536
2018-01-18 13:18:08 GMT 53.74209 -2.11487 7,300 86 156 -1408
2018-01-18 13:18:05 GMT 53.74200 -2.11863 7,300 87 156 -1472
2018-01-18 13:18:03 GMT 53.74196 -2.11989 7,400 86 156 -1408
2018-01-18 13:18:01 GMT 53.74187 -2.12279 7,400 85 155 -1216
2018-01-18 13:17:59 GMT 53.74172 -2.12577 7,500 84 154 -1088
2018-01-18 13:17:57 GMT 53.74144 -2.13014 7,500 83 154 -1088
2018-01-18 13:17:54 GMT 53.74135 -2.13135 7,600 82 155 -1152
2018-01-18 13:17:52 GMT 53.74121 -2.13296 7,600 82 155 -1152
2018-01-18 13:17:50 GMT 53.74095 -2.13668 7,600 83 154 -1216
2018-01-18 13:17:48 GMT 53.74081 -2.13865 7,700 83 154 -1216
2018-01-18 13:17:46 GMT 53.74065 -2.14112 7,700 84 154 -1152
2018-01-18 13:17:44 GMT 53.74045 -2.14437 7,800 85 154 -1024
2018-01-18 13:17:42 GMT 53.74041 -2.14500 7,800 85 154 -1024
2018-01-18 13:17:40 GMT 53.74023 -2.14880 7,800 84 155 -960
2018-01-18 13:17:38 GMT 53.74013 -2.15065 7,900 84 156 -960
2018-01-18 13:17:36 GMT 53.73995 -2.15316 7,900 84 158 -960
2018-01-18 13:17:34 GMT 53.73981 -2.15566 7,900 84 158 -960
2018-01-18 13:17:32 GMT 53.73972 -2.15748 8,000 84 159 -1024
2018-01-18 13:17:30 GMT 53.73953 -2.16046 8,000 84 160 -1344
2018-01-18 13:17:28 GMT 53.73939 -2.16310 8,000 86 159 -1792
2018-01-18 13:17:26 GMT 53.73930 -2.16616 8,100 88 158 -1792
2018-01-18 13:17:24 GMT 53.73925 -2.16875 8,200 89 157 -1664
2018-01-18 13:17:22 GMT 53.73925 -2.16996 8,200 92 156 -1280
2018-01-18 13:17:19 GMT 53.73939 -2.17513 8,300 96 157 -832
2018-01-18 13:17:17 GMT 53.73953 -2.17707 8,300 97 159 -832
2018-01-18 13:17:14 GMT 53.73986 -2.18127 8,400 98 160 -960
2018-01-18 13:17:12 GMT 53.73994 -2.18259 8,400 98 160 -960
2018-01-18 13:17:10 GMT 53.74027 -2.18581 8,400 98 161 -1024
2018-01-18 13:17:08 GMT 53.74049 -2.18832 8,500 98 162 -1088
2018-01-18 13:17:06 GMT 53.74063 -2.19005 8,500 98 162 -1088
2018-01-18 13:17:04 GMT 53.74095 -2.19413 8,600 97 163 -1344
2018-01-18 13:17:02 GMT 53.74113 -2.19609 8,600 97 162 -1536
2018-01-18 13:16:59 GMT 53.74130 -2.19848 8,600 97 162 -1600
2018-01-18 13:16:57 GMT 53.74149 -2.20098 8,700 96 160 -1728
2018-01-18 13:16:55 GMT 53.74178 -2.20511 8,800 96 158 -1792
2018-01-18 13:16:52 GMT 53.74196 -2.20778 8,900 97 155 -1728
2018-01-18 13:16:50 GMT 53.74214 -2.21027 8,900 97 154 -1472
2018-01-18 13:16:48 GMT 53.74228 -2.21210 9,000 97 153 -1024
2018-01-18 13:16:46 GMT 53.74251 -2.21508 9,000 96 160 -256
2018-01-18 13:16:44 GMT 53.74265 -2.21698 9,000 96 156 -128
2018-01-18 13:16:41 GMT 53.74288 -2.22013 9,000 96 160 -256
2018-01-18 13:16:39 GMT 53.74312 -2.22352 9,000 96 160 -1216
2018-01-18 13:16:37 GMT 53.74325 -2.22602 9,100 96 161 -1344
2018-01-18 13:16:35 GMT 53.74335 -2.22740 9,100 96 159 -1408
2018-01-18 13:16:32 GMT 53.74377 -2.23305 9,200 96 159 -1472
2018-01-18 13:16:31 GMT 53.74377 -2.23305 9,200 96 158 -1472
2018-01-18 13:16:29 GMT 53.74391 -2.23548 9,300 96 158 -1472
2018-01-18 13:16:27 GMT 53.74409 -2.23798 9,300 95 156 -1344
2018-01-18 13:16:25 GMT 53.74425 -2.24027 9,400 95 156 -1152
2018-01-18 13:16:22 GMT 53.74443 -2.24380 9,400 95 157 -448
2018-01-18 13:16:20 GMT 53.74457 -2.24639 9,400 95 160 -256
2018-01-18 13:16:18 GMT 53.74465 -2.24824 9,400 95 162 -128
2018-01-18 13:16:16 GMT 53.74479 -2.25090 9,400 96 165 -128
2018-01-18 13:16:14 GMT 53.74503 -2.25361 9,400 99 170 -320
2018-01-18 13:16:11 GMT 53.74567 -2.25926 9,500 103 174 -1216
2018-01-18 13:16:09 GMT 53.74594 -2.26138 9,500 105 174 -1856
2018-01-18 13:16:07 GMT 53.74645 -2.26420 9,600 108 173 -1920
2018-01-18 13:16:05 GMT 53.74679 -2.26601 9,600 111 171 -1920
2018-01-18 13:16:02 GMT 53.74772 -2.26981 9,700 115 170 -1856
2018-01-18 13:16:00 GMT 53.74865 -2.27288 9,800 118 169 -1792
2018-01-18 13:15:58 GMT 53.74903 -2.27409 9,900 118 168 -1728
2018-01-18 13:15:56 GMT 53.75015 -2.27739 10,000 119 167 -1536
2018-01-18 13:15:52 GMT 53.75153 -2.28147 10,000 119 167 -1472
2018-01-18 13:15:50 GMT 53.75219 -2.28354 10,100 119 168 -1408
2018-01-18 13:15:48 GMT 53.75289 -2.28564 10,100 118 168 -1408
2018-01-18 13:15:46 GMT 53.75386 -2.28861 10,200 117 169 -1408
2018-01-18 13:15:44 GMT 53.75423 -2.28979 10,200 117 169 -1408
2018-01-18 13:15:41 GMT 53.75568 -2.29461 10,300 116 171 -1216
2018-01-18 13:15:39 GMT 53.75633 -2.29693 10,300 115 173 -1280
2018-01-18 13:15:37 GMT 53.75690 -2.29881 10,400 115 173 -1344
2018-01-18 13:15:35 GMT 53.75755 -2.30115 10,400 115 173 -1344
2018-01-18 13:15:33 GMT 53.75858 -2.30485 10,500 114 174 -1536
2018-01-18 13:15:30 GMT 53.75936 -2.30786 10,600 113 174 -1472
2018-01-18 13:15:28 GMT 53.75981 -2.30956 10,600 112 174 -1472
2018-01-18 13:15:25 GMT 53.76090 -2.31399 10,700 113 175 -1472
2018-01-18 13:15:23 GMT 53.76169 -2.31698 10,800 113 175 -1664
2018-01-18 13:15:21 GMT 53.76242 -2.31961 10,800 115 173 -1856
2018-01-18 13:15:19 GMT 53.76295 -2.32143 10,900 116 172 -1984
2018-01-18 13:15:17 GMT 53.76383 -2.32434 10,900 119 169 -1728
2018-01-18 13:15:15 GMT 53.76462 -2.32667 11,000 121 168 -1664
2018-01-18 13:15:13 GMT 53.76485 -2.32732 11,000 122 168 -1664
2018-01-18 13:15:10 GMT 53.76658 -2.33152 11,100 128 163 -1536
2018-01-18 13:15:08 GMT 53.76732 -2.33310 11,200 130 163 -1408
2018-01-18 13:15:06 GMT 53.76895 -2.33629 11,300 135 160 -1216
2018-01-18 13:15:04 GMT 53.76952 -2.33718 11,300 135 160 -1216
2018-01-18 13:15:02 GMT 53.77072 -2.33912 11,300 137 159 -1152
2018-01-18 13:15:00 GMT 53.77188 -2.34098 11,400 137 158 -1088
2018-01-18 13:14:58 GMT 53.77272 -2.34227 11,400 137 158 -1088
2018-01-18 13:14:56 GMT 53.77400 -2.34425 11,400 136 158 -1024
2018-01-18 13:14:54 GMT 53.77463 -2.34526 11,500 136 157 -1024
2018-01-18 13:14:52 GMT 53.77597 -2.34739 11,500 136 158 -1024
2018-01-18 13:14:50 GMT 53.77724 -2.34938 11,500 136 159 -960
2018-01-18 13:14:48 GMT 53.77835 -2.35124 11,600 136 159 -896
2018-01-18 13:14:46 GMT 53.77945 -2.35296 11,600 135 159 -1280
2018-01-18 13:14:44 GMT 53.78027 -2.35429 11,600 135 159 -1280
2018-01-18 13:14:42 GMT 53.78155 -2.35641 11,700 135 157 -1280
2018-01-18 13:14:41 GMT 53.78180 -2.35681 11,700 135 157 -1344
2018-01-18 13:14:39 GMT 53.78296 -2.35875 11,700 135 156 -1600
2018-01-18 13:14:37 GMT 53.78371 -2.36002 11,800 136 155 -1600
2018-01-18 13:14:34 GMT 53.78506 -2.36222 11,900 136 153 -1280
2018-01-18 13:14:32 GMT 53.78604 -2.36376 11,900 136 152 -896
2018-01-18 13:14:30 GMT 53.78728 -2.36575 11,900 136 152 -832
2018-01-18 13:14:28 GMT 53.78878 -2.36820 12,000 136 152 -896
2018-01-18 13:14:26 GMT 53.78925 -2.36893 12,000 136 152 -832
2018-01-18 13:14:24 GMT 53.79039 -2.37077 12,000 136 152 -960
2018-01-18 13:14:22 GMT 53.79134 -2.37232 12,000 136 151 -1088
2018-01-18 13:14:19 GMT 53.79325 -2.37547 12,100 136 150 -1152
2018-01-18 13:14:17 GMT 53.79460 -2.37760 12,200 136 149 -896
2018-01-18 13:14:14 GMT 53.79538 -2.37885 12,200 136 149 -896
2018-01-18 13:14:13 GMT 53.79593 -2.37972 12,200 136 149 -960
2018-01-18 13:14:12 GMT 53.79616 -2.38011 12,200 136 149 -960
2018-01-18 13:14:12 GMT 53.79616 -2.38011 12,200 136 146 -1216
2018-01-18 13:14:09 GMT 53.79833 -2.38363 12,300 137 145 -1216
2018-01-18 13:14:07 GMT 53.79890 -2.38450 12,300 138 145 -1216
2018-01-18 13:14:04 GMT 53.80033 -2.38670 12,400 139 142 -1024
2018-01-18 13:14:02 GMT 53.80154 -2.38840 12,400 141 141 -960
2018-01-18 13:14:00 GMT 53.80275 -2.39009 12,500 142 139 -896
2018-01-18 13:13:58 GMT 53.80321 -2.39070 12,500 143 138 -768
2018-01-18 13:13:56 GMT 53.80475 -2.39260 12,500 145 137 -576
2018-01-18 13:13:54 GMT 53.80577 -2.39373 12,500 146 137 -576
2018-01-18 13:13:51 GMT 53.80687 -2.39494 12,500 148 136 -512
2018-01-18 13:13:49 GMT 53.80801 -2.39615 12,600 150 136 -512
2018-01-18 13:13:47 GMT 53.80945 -2.39744 12,600 153 135 -704
2018-01-18 13:13:45 GMT 53.81049 -2.39832 12,600 156 132 -832
2018-01-18 13:13:43 GMT 53.81127 -2.39890 12,700 158 131 -896
2018-01-18 13:13:41 GMT 53.81278 -2.39981 12,700 161 128 -896
2018-01-18 13:13:39 GMT 53.81336 -2.40019 12,700 162 127 -832
2018-01-18 13:13:37 GMT 53.81527 -2.40116 12,800 162 127 -640
2018-01-18 13:13:37 GMT 53.81509 -2.40108 12,800 162 128 -704
2018-01-18 13:13:37 GMT 53.81527 -2.40116 12,800 162 127 -704
2018-01-18 13:13:34 GMT 53.81694 -2.40200 12,800 161 129 -576
2018-01-18 13:13:32 GMT 53.81809 -2.40263 12,800 161 129 -832
2018-01-18 13:13:29 GMT 53.81978 -2.40365 12,800 160 130 -832
2018-01-18 13:13:27 GMT 53.82086 -2.40431 12,900 160 130 -896
2018-01-18 13:13:25 GMT 53.82165 -2.40475 12,900 159 131 -896
2018-01-18 13:13:23 GMT 53.82286 -2.40552 12,900 158 132 -768
2018-01-18 13:13:21 GMT 53.82468 -2.40679 12,900 157 134 -384
2018-01-18 13:13:19 GMT 53.82500 -2.40703 12,900 157 135 -512
2018-01-18 13:13:17 GMT 53.82612 -2.40778 13,000 157 135 -384
2018-01-18 13:13:15 GMT 53.82784 -2.40891 13,000 158 136 -448
2018-01-18 13:13:13 GMT 53.82870 -2.40954 13,000 158 137 -256
2018-01-18 13:13:11 GMT 53.82961 -2.41013 13,000 158 138 -192
2018-01-18 13:13:09 GMT 53.83101 -2.41110 13,000 158 140 -128
2018-01-18 13:13:07 GMT 53.83287 -2.41231 13,000 159 143 0
2018-01-18 13:13:05 GMT 53.83315 -2.41252 13,000 159 143 0
2018-01-18 13:13:03 GMT 53.83473 -2.41352 13,000 159 146 -64
2018-01-18 13:13:01 GMT 53.83566 -2.41409 13,000 159 146 0
2018-01-18 13:12:59 GMT 53.83731 -2.41511 13,000 159 149 -64
2018-01-18 13:12:57 GMT 53.83855 -2.41586 13,000 160 149 -128
2018-01-18 13:12:55 GMT 53.83978 -2.41668 13,000 160 153 -64
2018-01-18 13:12:53 GMT 53.84152 -2.41770 13,000 160 157 0
2018-01-18 13:12:51 GMT 53.84250 -2.41828 13,000 160 159 64
2018-01-18 13:12:49 GMT 53.84404 -2.41919 13,000 160 161 128
2018-01-18 13:12:47 GMT 53.84576 -2.42022 13,000 160 162 128
2018-01-18 13:12:47 GMT 53.84576 -2.42022 13,000 159 164 64
2018-01-18 13:12:45 GMT 53.84646 -2.42071 13,000 160 162 128
2018-01-18 13:12:44 GMT 53.84770 -2.42139 13,000 160 163 128
2018-01-18 13:12:43 GMT 53.84880 -2.42209 13,000 159 164 64
2018-01-18 13:12:41 GMT 53.84994 -2.42280 13,000 159 164 64
2018-01-18 13:12:39 GMT 53.85109 -2.42358 13,000 158 165 128
2018-01-18 13:12:37 GMT 53.85251 -2.42453 13,000 157 166 128
2018-01-18 13:12:35 GMT 53.85379 -2.42539 13,000 156 167 0
2018-01-18 13:12:33 GMT 53.85517 -2.42636 13,000 154 169 -128
2018-01-18 13:12:31 GMT 53.85635 -2.42735 13,000 153 169 -128
2018-01-18 13:12:29 GMT 53.85809 -2.42892 13,000 149 171 -320
2018-01-18 13:12:27 GMT 53.86001 -2.43089 13,000 146 172 0
2018-01-18 13:12:25 GMT 53.86131 -2.43242 13,100 145 172 0
2018-01-18 13:12:25 GMT 53.86066 -2.43161 13,100 145 172 0
2018-01-18 13:12:25 GMT 53.86034 -2.43127 13,100 145 172 0
2018-01-18 13:12:23 GMT 53.86226 -2.43347 13,000 145 172 0
2018-01-18 13:12:21 GMT 53.86299 -2.43426 13,000 146 172 0
2018-01-18 13:12:19 GMT 53.86455 -2.43606 13,100 146 172 0
2018-01-18 13:12:17 GMT 53.86620 -2.43799 13,100 146 172 0
2018-01-18 13:12:15 GMT 53.86755 -2.43945 13,100 146 172 -64
2018-01-18 13:12:13 GMT 53.86923 -2.44139 13,000 146 172 -64
2018-01-18 13:12:11 GMT 53.87030 -2.44260 13,100 146 171 0
2018-01-18 13:12:08 GMT 53.87215 -2.44469 13,000 146 171 0
2018-01-18 13:12:05 GMT 53.87407 -2.44688 13,000 146 172 0
2018-01-18 13:12:03 GMT 53.87553 -2.44846 13,000 146 172 0
2018-01-18 13:12:01 GMT 53.87653 -2.44963 13,000 146 172 0
2018-01-18 13:11:58 GMT 53.87895 -2.45229 13,100 146 172 -64
2018-01-18 13:11:55 GMT 53.88054 -2.45407 13,000 146 171 -64
2018-01-18 13:11:55 GMT 53.88054 -2.45407 13,000 146 171 -64
2018-01-18 13:11:53 GMT 53.88161 -2.45520 13,100 146 171 -64
2018-01-18 13:11:51 GMT 53.88322 -2.45709 13,100 146 171 -64
2018-01-18 13:11:48 GMT 53.88529 -2.45932 13,100 146 171 -64
2018-01-18 13:11:46 GMT 53.88654 -2.46078 13,100 146 171 0
2018-01-18 13:11:44 GMT 53.88799 -2.46235 13,000 146 170 0
2018-01-18 13:11:41 GMT 53.88968 -2.46431 13,100 146 170 0
2018-01-18 13:11:39 GMT 53.89073 -2.46546 13,100 146 170 0
2018-01-18 13:11:37 GMT 53.89245 -2.46740 13,100 146 169 0
2018-01-18 13:11:34 GMT 53.89488 -2.47015 13,100 146 169 64
2018-01-18 13:11:32 GMT 53.89632 -2.47176 13,000 146 169 64
2018-01-18 13:11:32 GMT 53.89595 -2.47138 13,100 146 169 64
2018-01-18 13:11:30 GMT 53.89688 -2.47241 13,100 146 169 128
2018-01-18 13:11:28 GMT 53.89851 -2.47419 13,100 146 169 64
2018-01-18 13:11:26 GMT 53.89934 -2.47514 13,000 146 169 64
2018-01-18 13:11:24 GMT 53.90108 -2.47710 13,000 146 169 64
2018-01-18 13:11:22 GMT 53.90204 -2.47820 13,000 146 169 0
2018-01-18 13:11:20 GMT 53.90410 -2.48056 13,000 146 168 64
2018-01-18 13:11:18 GMT 53.90529 -2.48181 13,100 146 169 64
2018-01-18 13:11:16 GMT 53.90586 -2.48251 13,000 146 169 0
2018-01-18 13:11:16 GMT 53.90586 -2.48251 13,000 146 169 0
2018-01-18 13:11:14 GMT 53.90731 -2.48412 13,000 146 169 -64
2018-01-18 13:11:12 GMT 53.90861 -2.48558 13,000 146 169 -64
2018-01-18 13:11:10 GMT 53.91014 -2.48719 13,000 146 169 -128
2018-01-18 13:11:08 GMT 53.91103 -2.48824 13,000 146 168 -128
2018-01-18 13:11:06 GMT 53.91270 -2.49005 13,000 146 168 -64
2018-01-18 13:11:04 GMT 53.91392 -2.49139 13,000 146 168 -64
2018-01-18 13:11:04 GMT 53.91392 -2.49139 13,000 146 168 -64
2018-01-18 13:11:02 GMT 53.91499 -2.49260 13,000 146 168 0
2018-01-18 13:11:00 GMT 53.91660 -2.49437 13,000 146 168 0
2018-01-18 13:10:58 GMT 53.91797 -2.49592 13,000 146 168 0
2018-01-18 13:10:56 GMT 53.91945 -2.49753 13,100 146 168 0
2018-01-18 13:10:54 GMT 53.92081 -2.49907 13,000 146 168 0
2018-01-18 13:10:51 GMT 53.92259 -2.50104 13,000 146 167 0
2018-01-18 13:10:49 GMT 53.92419 -2.50276 13,000 146 167 0
2018-01-18 13:10:46 GMT 53.92566 -2.50449 13,000 146 167 0
2018-01-18 13:10:44 GMT 53.92704 -2.50593 13,100 146 167 0
2018-01-18 13:10:42 GMT 53.92835 -2.50739 13,100 146 167 0
2018-01-18 13:10:40 GMT 53.93026 -2.50957 13,100 146 167 0
2018-01-18 13:10:38 GMT 53.93097 -2.51038 13,100 146 167 0
2018-01-18 13:10:36 GMT 53.93212 -2.51167 13,000 146 167 0
2018-01-18 13:10:34 GMT 53.93353 -2.51320 13,000 146 166 64
2018-01-18 13:10:34 GMT 53.93353 -2.51320 13,000 146 166 64
2018-01-18 13:10:32 GMT 53.93528 -2.51514 13,000 146 166 192
2018-01-18 13:10:30 GMT 53.93646 -2.51650 13,000 146 167 64
2018-01-18 13:10:28 GMT 53.93742 -2.51760 13,000 146 166 0
2018-01-18 13:10:26 GMT 53.93866 -2.51893 13,000 146 166 -128
2018-01-18 13:10:24 GMT 53.93998 -2.52047 13,000 146 166 -64
2018-01-18 13:10:22 GMT 53.94115 -2.52177 13,000 146 166 -64
2018-01-18 13:10:20 GMT 53.94250 -2.52330 13,000 146 166 -64
2018-01-18 13:10:18 GMT 53.94436 -2.52540 13,100 146 166 -64
2018-01-18 13:10:16 GMT 53.94507 -2.52615 13,000 146 166 -64
2018-01-18 13:10:14 GMT 53.94658 -2.52788 13,100 146 165 0
2018-01-18 13:10:12 GMT 53.94832 -2.52984 13,100 146 165 0
2018-01-18 13:10:10 GMT 53.94919 -2.53086 13,100 146 165 0
2018-01-18 13:10:08 GMT 53.95009 -2.53186 13,100 146 165 64
2018-01-18 13:10:06 GMT 53.95134 -2.53332 13,100 145 164 64
2018-01-18 13:10:04 GMT 53.95285 -2.53502 13,100 145 164 64
2018-01-18 13:10:01 GMT 53.95404 -2.53639 13,000 145 164 64
2018-01-18 13:09:59 GMT 53.95532 -2.53784 13,100 145 164 64
2018-01-18 13:09:57 GMT 53.95749 -2.54035 13,000 145 164 64
2018-01-18 13:09:54 GMT 53.95972 -2.54286 13,000 145 164 64
2018-01-18 13:09:52 GMT 53.96047 -2.54374 13,000 145 164 64
2018-01-18 13:09:50 GMT 53.96140 -2.54487 13,000 145 164 0
2018-01-18 13:09:48 GMT 53.96317 -2.54689 13,000 145 164 0
2018-01-18 13:09:46 GMT 53.96424 -2.54810 13,000 145 164 -64
2018-01-18 13:09:43 GMT 53.96617 -2.55032 13,000 145 164 -128
2018-01-18 13:09:41 GMT 53.96713 -2.55142 13,000 145 164 -64
2018-01-18 13:09:39 GMT 53.96908 -2.55359 13,000 145 164 -64
2018-01-18 13:09:37 GMT 53.97010 -2.55481 13,000 145 164 0
2018-01-18 13:09:35 GMT 53.97076 -2.55553 13,000 145 164 0
2018-01-18 13:09:35 GMT 53.97076 -2.55553 13,000 145 164 0
2018-01-18 13:09:32 GMT 53.97234 -2.55739 13,100 145 164 0
2018-01-18 13:09:30 GMT 53.97397 -2.55925 13,000 145 163 0
2018-01-18 13:09:30 GMT 53.97397 -2.55925 13,000 145 164 0
2018-01-18 13:09:27 GMT 53.97560 -2.56111 13,100 145 163 0
2018-01-18 13:09:25 GMT 53.97709 -2.56280 13,000 145 163 0
2018-01-18 13:09:23 GMT 53.97848 -2.56442 13,000 145 163 64
2018-01-18 13:09:21 GMT 53.97918 -2.56523 13,100 145 163 64
2018-01-18 13:09:19 GMT 53.98100 -2.56733 13,000 145 163 0
2018-01-18 13:09:17 GMT 53.98193 -2.56838 13,000 145 163 0
2018-01-18 13:09:15 GMT 53.98366 -2.57041 13,000 145 163 0
2018-01-18 13:09:13 GMT 53.98489 -2.57182 13,000 145 163 0
2018-01-18 13:09:12 GMT 53.98489 -2.57182 13,000 145 163 0
2018-01-18 13:09:10 GMT 53.98649 -2.57363 13,000 145 163 64
2018-01-18 13:09:08 GMT 53.98805 -2.57543 13,000 145 164 128
2018-01-18 13:09:06 GMT 53.98859 -2.57613 13,100 145 164 128
2018-01-18 13:09:04 GMT 53.99049 -2.57831 13,000 145 164 64
2018-01-18 13:09:04 GMT 53.99049 -2.57831 13,000 145 164 64
2018-01-18 13:09:02 GMT 53.99119 -2.57904 13,000 146 165 64
2018-01-18 13:09:00 GMT 53.99277 -2.58092 13,000 145 165 64
2018-01-18 13:08:58 GMT 53.99366 -2.58187 13,000 145 165 64
2018-01-18 13:08:56 GMT 53.99524 -2.58375 13,000 146 166 0
2018-01-18 13:08:54 GMT 53.99668 -2.58542 13,000 146 166 0
2018-01-18 13:08:52 GMT 53.99766 -2.58650 13,000 146 166 0
2018-01-18 13:08:50 GMT 53.99954 -2.58869 13,000 146 166 0
2018-01-18 13:08:50 GMT 53.99954 -2.58869 13,000 146 166 0
2018-01-18 13:08:48 GMT 54.00069 -2.58995 13,000 146 166 -64
2018-01-18 13:08:46 GMT 54.00142 -2.59081 13,000 146 166 -64
2018-01-18 13:08:44 GMT 54.00252 -2.59199 13,000 146 166 -64
2018-01-18 13:08:42 GMT 54.00421 -2.59403 13,000 146 167 -64
2018-01-18 13:08:40 GMT 54.00581 -2.59583 13,000 146 167 -64
2018-01-18 13:08:37 GMT 54.00751 -2.59772 13,000 146 167 -64
2018-01-18 13:08:35 GMT 54.00879 -2.59921 13,000 146 167 -128
2018-01-18 13:08:33 GMT 54.00984 -2.60039 13,100 146 166 -128
2018-01-18 13:08:31 GMT 54.01121 -2.60195 13,000 146 166 -64
2018-01-18 13:08:29 GMT 54.01318 -2.60423 13,100 146 166 0
2018-01-18 13:08:27 GMT 54.01419 -2.60541 13,100 146 166 0
2018-01-18 13:08:25 GMT 54.01515 -2.60651 13,000 146 166 0
2018-01-18 13:08:23 GMT 54.01643 -2.60792 13,000 146 166 0
2018-01-18 13:08:21 GMT 54.01740 -2.60901 13,100 146 166 0
2018-01-18 13:08:19 GMT 54.01932 -2.61122 13,000 145 166 64
2018-01-18 13:08:17 GMT 54.01996 -2.61200 13,000 146 166 64
2018-01-18 13:08:15 GMT 54.02216 -2.61451 13,000 145 166 0
2018-01-18 13:08:12 GMT 54.02358 -2.61616 13,000 145 166 64
2018-01-18 13:08:10 GMT 54.02426 -2.61694 13,000 145 166 64
2018-01-18 13:08:08 GMT 54.02629 -2.61935 13,000 145 166 64
2018-01-18 13:08:04 GMT 54.02866 -2.62204 13,000 145 167 64
2018-01-18 13:08:02 GMT 54.02969 -2.62323 13,000 146 170 -64
2018-01-18 13:08:00 GMT 54.03160 -2.62549 13,000 145 167 128
2018-01-18 13:07:58 GMT 54.03227 -2.62620 13,000 145 168 128
2018-01-18 13:07:56 GMT 54.03453 -2.62880 13,000 145 168 128
2018-01-18 13:07:54 GMT 54.03525 -2.62966 13,000 145 169 64
2018-01-18 13:07:52 GMT 54.03653 -2.63115 13,000 146 170 64
2018-01-18 13:07:50 GMT 54.03751 -2.63219 13,000 146 170 0
2018-01-18 13:07:47 GMT 54.03950 -2.63452 13,000 146 170 -64
2018-01-18 13:07:45 GMT 54.04086 -2.63615 13,000 145 170 -128
2018-01-18 13:07:43 GMT 54.04166 -2.63703 13,000 146 170 -128
2018-01-18 13:07:41 GMT 54.04390 -2.63954 13,000 145 170 -64
2018-01-18 13:07:39 GMT 54.04454 -2.64035 13,000 145 170 -64
2018-01-18 13:07:37 GMT 54.04650 -2.64262 13,000 145 170 -64
2018-01-18 13:07:34 GMT 54.04793 -2.64425 13,000 145 169 -64
2018-01-18 13:07:32 GMT 54.04971 -2.64633 13,000 145 169 -64
2018-01-18 13:07:30 GMT 54.05115 -2.64795 13,100 145 169 -64
2018-01-18 13:07:30 GMT 54.05115 -2.64795 13,100 145 169 -64
2018-01-18 13:07:28 GMT 54.05150 -2.64833 13,100 145 169 -64
2018-01-18 13:07:26 GMT 54.05310 -2.65022 13,100 145 169 -64
2018-01-18 13:07:23 GMT 54.05501 -2.65247 13,000 145 169 -64
2018-01-18 13:07:21 GMT 54.05627 -2.65384 13,100 145 169 0
2018-01-18 13:07:19 GMT 54.05818 -2.65611 13,100 145 169 0
2018-01-18 13:07:15 GMT 54.06060 -2.65885 13,100 146 168 0
2018-01-18 13:07:13 GMT 54.06152 -2.65995 13,100 146 168 64
2018-01-18 13:07:11 GMT 54.06330 -2.66200 13,000 146 168 64
2018-01-18 13:07:09 GMT 54.06367 -2.66241 13,000 146 168 64
2018-01-18 13:07:07 GMT 54.06592 -2.66505 13,000 146 168 64
2018-01-18 13:07:05 GMT 54.06651 -2.66564 13,000 146 168 0
2018-01-18 13:07:03 GMT 54.06754 -2.66685 13,100 146 168 0
2018-01-18 13:07:01 GMT 54.06917 -2.66874 13,100 146 168 0
2018-01-18 13:06:59 GMT 54.07045 -2.67023 13,000 146 168 -64
2018-01-18 13:06:58 GMT 54.07182 -2.67178 13,000 146 168 -64
2018-01-18 13:06:57 GMT 54.07182 -2.67178 13,000 146 168 -64
2018-01-18 13:06:55 GMT 54.07392 -2.67412 13,100 146 168 -64
2018-01-18 13:06:53 GMT 54.07448 -2.67478 13,100 146 168 -64
2018-01-18 13:06:51 GMT 54.07587 -2.67638 13,100 146 169 0
2018-01-18 13:06:49 GMT 54.07709 -2.67776 13,000 146 168 0
2018-01-18 13:06:49 GMT 54.07709 -2.67776 13,000 146 168 0
2018-01-18 13:06:47 GMT 54.07851 -2.67941 13,100 146 168 0
2018-01-18 13:06:45 GMT 54.07950 -2.68050 13,000 146 168 0
2018-01-18 13:06:43 GMT 54.08155 -2.68284 13,100 145 169 64
2018-01-18 13:06:41 GMT 54.08257 -2.68406 13,100 146 170 128
2018-01-18 13:06:39 GMT 54.08359 -2.68514 13,000 146 170 64
2018-01-18 13:06:37 GMT 54.08514 -2.68694 13,000 146 170 64
2018-01-18 13:06:35 GMT 54.08615 -2.68812 13,000 146 170 128
2018-01-18 13:06:32 GMT 54.08821 -2.69044 13,100 146 170 64
2018-01-18 13:06:30 GMT 54.08981 -2.69228 13,000 146 170 64
2018-01-18 13:06:27 GMT 54.09114 -2.69377 13,000 146 170 64
2018-01-18 13:06:25 GMT 54.09233 -2.69510 13,000 146 170 0
2018-01-18 13:06:23 GMT 54.09389 -2.69690 13,000 146 171 0
2018-01-18 13:06:20 GMT 54.09659 -2.69997 13,000 146 171 -64
2018-01-18 13:06:18 GMT 54.09714 -2.70054 13,000 146 171 -64
2018-01-18 13:06:16 GMT 54.09924 -2.70296 13,000 146 170 -128
2018-01-18 13:06:14 GMT 54.10031 -2.70417 13,000 146 170 -128
2018-01-18 13:06:12 GMT 54.10089 -2.70483 13,000 146 170 -192
2018-01-18 13:06:10 GMT 54.10278 -2.70700 13,100 146 170 -128
2018-01-18 13:06:07 GMT 54.10506 -2.70962 13,000 146 170 -128
2018-01-18 13:06:05 GMT 54.10604 -2.71072 13,100 145 169 -128
2018-01-18 13:06:02 GMT 54.10812 -2.71307 13,100 145 168 -64
2018-01-18 13:06:00 GMT 54.10925 -2.71443 13,100 145 167 -64
2018-01-18 13:05:57 GMT 54.11093 -2.71637 13,100 145 167 0
2018-01-18 13:05:54 GMT 54.11252 -2.71825 13,100 145 166 64
2018-01-18 13:05:51 GMT 54.11469 -2.72081 13,100 145 165 64
2018-01-18 13:05:49 GMT 54.11568 -2.72194 13,100 145 165 128
2018-01-18 13:05:47 GMT 54.11705 -2.72359 13,100 145 165 128
2018-01-18 13:05:45 GMT 54.11884 -2.72574 13,000 145 165 128
2018-01-18 13:05:43 GMT 54.12056 -2.72776 13,000 145 165 64
2018-01-18 13:05:41 GMT 54.12112 -2.72845 13,000 145 165 64
2018-01-18 13:05:39 GMT 54.12205 -2.72954 13,000 145 165 64
2018-01-18 13:05:37 GMT 54.12305 -2.73073 13,000 145 165 64
2018-01-18 13:05:37 GMT 54.12369 -2.73151 13,000 145 165 64
2018-01-18 13:05:35 GMT 54.12520 -2.73324 13,000 145 165 0
2018-01-18 13:05:33 GMT 54.12579 -2.73403 13,000 145 165 0
2018-01-18 13:05:29 GMT 54.12838 -2.73705 13,000 145 166 64
2018-01-18 13:05:27 GMT 54.12964 -2.73859 13,000 145 166 64
2018-01-18 13:05:25 GMT 54.13174 -2.74101 13,000 145 166 0
2018-01-18 13:05:23 GMT 54.13229 -2.74173 13,000 145 166 0
2018-01-18 13:05:21 GMT 54.13362 -2.74329 13,000 145 166 0
2018-01-18 13:05:19 GMT 54.13490 -2.74478 13,000 145 166 -64
2018-01-18 13:05:17 GMT 54.13623 -2.74635 13,000 145 166 0
2018-01-18 13:05:15 GMT 54.13719 -2.74744 13,000 145 166 0
2018-01-18 13:05:13 GMT 54.13876 -2.74933 13,000 144 167 0
2018-01-18 13:05:11 GMT 54.14035 -2.75121 13,000 145 167 -64
2018-01-18 13:05:09 GMT 54.14113 -2.75215 13,000 145 168 -64
2018-01-18 13:05:05 GMT 54.14374 -2.75523 13,000 145 168 -64
2018-01-18 13:05:03 GMT 54.14523 -2.75700 13,000 145 168 0
2018-01-18 13:04:59 GMT 54.14749 -2.75969 13,000 145 168 -64
2018-01-18 13:04:56 GMT 54.14933 -2.76185 13,100 145 168 -64
2018-01-18 13:04:54 GMT 54.15096 -2.76379 13,000 145 168 -64
2018-01-18 13:04:52 GMT 54.15198 -2.76500 13,100 145 168 -64
2018-01-18 13:04:49 GMT 54.15403 -2.76742 13,100 145 168 0
2018-01-18 13:04:47 GMT 54.15557 -2.76920 13,000 145 168 64
2018-01-18 13:04:45 GMT 54.15720 -2.77122 13,000 145 168 64
2018-01-18 13:04:45 GMT 54.15720 -2.77122 13,000 145 168 64
2018-01-18 13:04:42 GMT 54.15852 -2.77279 13,000 144 168 64
2018-01-18 13:04:40 GMT 54.15976 -2.77421 13,000 144 168 64
2018-01-18 13:04:39 GMT 54.16031 -2.77491 13,000 144 168 64
2018-01-18 13:04:38 GMT 54.16064 -2.77534 13,000 144 168 64
2018-01-18 13:04:37 GMT 54.16190 -2.77679 13,000 144 168 64
2018-01-18 13:04:35 GMT 54.16330 -2.77849 13,000 144 168 64
2018-01-18 13:04:33 GMT 54.16438 -2.77978 13,000 144 168 64
2018-01-18 13:04:31 GMT 54.16497 -2.78051 13,000 145 169 64
2018-01-18 13:04:29 GMT 54.16637 -2.78213 13,000 145 169 64
2018-01-18 13:04:27 GMT 54.16753 -2.78350 13,000 145 169 0
2018-01-18 13:04:25 GMT 54.16914 -2.78543 13,000 145 169 64
2018-01-18 13:04:25 GMT 54.16914 -2.78543 13,000 145 169 64
2018-01-18 13:04:23 GMT 54.17088 -2.78746 13,000 145 169 64
2018-01-18 13:04:21 GMT 54.17228 -2.78915 13,000 145 170 64
2018-01-18 13:04:19 GMT 54.17285 -2.78982 13,000 145 170 64
2018-01-18 13:04:17 GMT 54.17451 -2.79174 13,000 145 170 64
2018-01-18 13:04:15 GMT 54.17619 -2.79376 13,000 144 173 0
2018-01-18 13:04:13 GMT 54.17656 -2.79424 13,000 145 171 0
2018-01-18 13:04:11 GMT 54.17835 -2.79626 13,000 145 171 0
2018-01-18 13:04:09 GMT 54.17954 -2.79772 13,000 145 171 0
2018-01-18 13:04:07 GMT 54.18095 -2.79940 13,000 145 173 -64
2018-01-18 13:04:04 GMT 54.18279 -2.80159 13,000 145 173 -64
2018-01-18 13:04:02 GMT 54.18406 -2.80313 13,000 144 173 -64
2018-01-18 13:04:00 GMT 54.18583 -2.80531 13,000 144 173 0
2018-01-18 13:03:58 GMT 54.18654 -2.80614 13,000 144 174 0
2018-01-18 13:03:56 GMT 54.18871 -2.80878 13,000 144 174 0
2018-01-18 13:03:54 GMT 54.18928 -2.80952 13,000 144 174 -64
2018-01-18 13:03:52 GMT 54.19067 -2.81121 13,000 144 174 -64
2018-01-18 13:03:50 GMT 54.19272 -2.81368 13,000 144 174 -128
2018-01-18 13:03:48 GMT 54.19342 -2.81460 13,000 144 174 -128
2018-01-18 13:03:43 GMT 54.19672 -2.81856 13,000 144 174 -64
2018-01-18 13:03:41 GMT 54.19849 -2.82074 13,000 144 174 -64
2018-01-18 13:03:39 GMT 54.19961 -2.82211 13,100 144 174 -64
2018-01-18 13:03:37 GMT 54.20059 -2.82333 13,000 143 174 0
2018-01-18 13:03:34 GMT 54.20293 -2.82623 13,000 143 174 0
2018-01-18 13:03:32 GMT 54.20417 -2.82777 13,000 144 174 0
2018-01-18 13:03:30 GMT 54.20549 -2.82937 13,100 144 174 0
2018-01-18 13:03:27 GMT 54.20673 -2.83094 13,100 144 174 0
2018-01-18 13:03:27 GMT 54.20673 -2.83094 13,100 144 174 0
2018-01-18 13:03:23 GMT 54.20966 -2.83455 13,100 144 174 0
2018-01-18 13:03:21 GMT 54.21181 -2.83722 13,000 144 174 0
2018-01-18 13:03:18 GMT 54.21350 -2.83926 13,000 144 174 0
2018-01-18 13:03:17 GMT 54.21381 -2.83964 13,100 144 174 0
2018-01-18 13:03:13 GMT 54.21625 -2.84263 13,100 144 174 -64
2018-01-18 13:03:11 GMT 54.21762 -2.84433 13,100 144 173 -64
2018-01-18 13:03:08 GMT 54.21936 -2.84648 13,100 144 173 -64
2018-01-18 13:03:07 GMT 54.22000 -2.84726 13,100 144 172 -64
2018-01-18 13:03:06 GMT 54.22064 -2.84805 13,100 144 172 -64
2018-01-18 13:03:03 GMT 54.22284 -2.85080 13,100 143 173 -64
2018-01-18 13:03:01 GMT 54.22381 -2.85200 13,100 143 172 -64
2018-01-18 13:02:59 GMT 54.22568 -2.85433 13,100 143 172 0
2018-01-18 13:02:57 GMT 54.22632 -2.85511 13,100 143 171 64
2018-01-18 13:02:57 GMT 54.22669 -2.85566 13,100 143 171 64
2018-01-18 13:02:53 GMT 54.22907 -2.85863 13,100 143 172 128
2018-01-18 13:02:51 GMT 54.23030 -2.86013 13,100 142 172 128
2018-01-18 13:02:49 GMT 54.23131 -2.86147 13,100 142 172 128
2018-01-18 13:02:47 GMT 54.23289 -2.86355 13,100 141 173 128
2018-01-18 13:02:44 GMT 54.23541 -2.86695 13,000 139 173 -64
2018-01-18 13:02:42 GMT 54.23666 -2.86877 13,000 137 174 -128
2018-01-18 13:02:40 GMT 54.23731 -2.86977 13,000 136 174 0
2018-01-18 13:02:38 GMT 54.23848 -2.87171 13,000 136 174 0
2018-01-18 13:02:36 GMT 54.23960 -2.87349 13,000 136 174 0
2018-01-18 13:02:36 GMT 54.23936 -2.87316 13,000 136 174 0
2018-01-18 13:02:36 GMT 54.23960 -2.87349 13,000 136 174 0
2018-01-18 13:02:32 GMT 54.24178 -2.87704 13,000 136 174 64
2018-01-18 13:02:30 GMT 54.24327 -2.87947 13,000 136 174 64
2018-01-18 13:02:27 GMT 54.24513 -2.88254 13,000 136 175 64
2018-01-18 13:02:25 GMT 54.24577 -2.88360 13,000 136 175 64
2018-01-18 13:02:25 GMT 54.24577 -2.88360 13,000 136 175 64
2018-01-18 13:02:21 GMT 54.24849 -2.88803 13,000 136 176 64
2018-01-18 13:02:19 GMT 54.24912 -2.88909 13,000 136 176 128
2018-01-18 13:02:16 GMT 54.25182 -2.89341 13,000 136 177 64
2018-01-18 13:02:16 GMT 54.25182 -2.89341 13,000 136 177 64
2018-01-18 13:02:10 GMT 54.25543 -2.89929 13,000 136 178 64
2018-01-18 13:02:06 GMT 54.25708 -2.90196 13,000 136 179 0
2018-01-18 13:02:04 GMT 54.25836 -2.90395 13,000 136 179 0
2018-01-18 13:02:04 GMT 54.25836 -2.90395 13,000 136 179 0
2018-01-18 13:02:02 GMT 54.25978 -2.90636 13,000 136 181 -64
2018-01-18 13:02:00 GMT 54.26101 -2.90831 13,000 136 181 -128
2018-01-18 13:01:58 GMT 54.26225 -2.91020 13,000 136 181 -128
2018-01-18 13:01:55 GMT 54.26431 -2.91356 13,000 137 181 -64
2018-01-18 13:01:50 GMT 54.26706 -2.91797 13,000 137 181 -64
2018-01-18 13:01:48 GMT 54.26788 -2.91922 13,000 137 181 -128
2018-01-18 13:01:48 GMT 54.26843 -2.92017 13,000 137 181 -128
2018-01-18 13:01:46 GMT 54.26962 -2.92196 13,100 137 181 -64
2018-01-18 13:01:44 GMT 54.27054 -2.92346 13,000 137 181 -64
2018-01-18 13:01:39 GMT 54.27432 -2.92955 13,000 137 181 0
2018-01-18 13:01:37 GMT 54.27489 -2.93045 13,000 137 181 0
2018-01-18 13:01:35 GMT 54.27594 -2.93209 13,000 137 181 0
2018-01-18 13:01:33 GMT 54.27716 -2.93408 13,000 137 181 0
2018-01-18 13:01:33 GMT 54.27716 -2.93408 13,000 137 181 0
2018-01-18 13:01:30 GMT 54.27912 -2.93718 13,000 137 181 0
2018-01-18 13:01:28 GMT 54.28029 -2.93900 13,000 137 181 0
2018-01-18 13:01:26 GMT 54.28198 -2.94167 13,000 137 181 0
2018-01-18 13:01:24 GMT 54.28359 -2.94417 13,000 137 181 0
2018-01-18 13:01:24 GMT 54.28359 -2.94417 13,000 137 181 0
2018-01-18 13:01:20 GMT 54.28550 -2.94725 13,000 137 181 -64
2018-01-18 13:01:18 GMT 54.28689 -2.94950 13,000 137 181 -64
2018-01-18 13:01:18 GMT 54.28665 -2.94910 13,100 137 181 -64
2018-01-18 13:01:15 GMT 54.28875 -2.95241 13,100 137 181 0
2018-01-18 13:01:13 GMT 54.28978 -2.95407 13,000 137 181 0
2018-01-18 13:01:13 GMT 54.28978 -2.95407 13,000 137 181 0
2018-01-18 13:01:09 GMT 54.29196 -2.95742 13,000 137 181 0
2018-01-18 13:01:07 GMT 54.29346 -2.95990 13,100 137 181 -64
2018-01-18 13:01:05 GMT 54.29476 -2.96190 13,000 137 181 -64
2018-01-18 13:01:03 GMT 54.29636 -2.96445 13,000 137 179 -128
2018-01-18 13:01:02 GMT 54.29636 -2.96445 13,000 137 179 -128
2018-01-18 13:01:00 GMT 54.29825 -2.96739 13,100 137 179 -64
2018-01-18 13:00:57 GMT 54.29942 -2.96922 13,100 137 179 -64
2018-01-18 13:00:55 GMT 54.30061 -2.97116 13,100 137 179 -128
2018-01-18 13:00:53 GMT 54.30194 -2.97326 13,100 137 177 -64
2018-01-18 13:00:50 GMT 54.30391 -2.97641 13,100 137 177 -64
2018-01-18 13:00:48 GMT 54.30477 -2.97779 13,100 137 176 0
2018-01-18 13:00:46 GMT 54.30612 -2.97996 13,100 137 176 0
2018-01-18 13:00:44 GMT 54.30738 -2.98196 13,100 136 175 0
2018-01-18 13:00:42 GMT 54.30876 -2.98408 13,100 137 174 64
2018-01-18 13:00:41 GMT 54.30876 -2.98408 13,100 137 174 64
2018-01-18 13:00:38 GMT 54.31068 -2.98723 13,100 136 174 0
2018-01-18 13:00:36 GMT 54.31217 -2.98961 13,100 136 174 64
2018-01-18 13:00:34 GMT 54.31338 -2.99151 13,100 137 173 64
2018-01-18 13:00:31 GMT 54.31506 -2.99419 13,100 137 173 64
2018-01-18 13:00:31 GMT 54.31506 -2.99419 13,100 137 173 64
2018-01-18 13:00:28 GMT 54.31669 -2.99677 13,000 137 173 64
2018-01-18 13:00:26 GMT 54.31810 -2.99903 13,000 137 172 64
2018-01-18 13:00:24 GMT 54.31967 -3.00152 13,000 137 172 64
2018-01-18 13:00:21 GMT 54.32112 -3.00379 13,000 137 172 0
2018-01-18 13:00:20 GMT 54.32112 -3.00379 13,000 137 172 0
2018-01-18 13:00:17 GMT 54.32325 -3.00717 13,000 137 172 0
2018-01-18 13:00:15 GMT 54.32469 -3.00942 13,100 137 172 0
2018-01-18 13:00:12 GMT 54.32620 -3.01179 13,100 137 172 0
2018-01-18 13:00:08 GMT 54.32828 -3.01508 13,000 137 172 0
2018-01-18 13:00:06 GMT 54.32973 -3.01736 13,000 137 172 0
2018-01-18 13:00:04 GMT 54.33079 -3.01899 13,100 137 171 0
2018-01-18 13:00:02 GMT 54.33172 -3.02049 13,000 137 171 0
2018-01-18 13:00:00 GMT 54.33391 -3.02382 13,000 137 170 -64
2018-01-18 12:59:58 GMT 54.33453 -3.02480 13,000 137 170 -64
2018-01-18 12:59:56 GMT 54.33568 -3.02665 13,000 137 169 -64
2018-01-18 12:59:54 GMT 54.33655 -3.02803 13,100 137 169 0
2018-01-18 12:59:52 GMT 54.33754 -3.02956 13,000 137 169 -64
2018-01-18 12:59:50 GMT 54.33950 -3.03256 13,000 137 167 -64
2018-01-18 12:59:48 GMT 54.34010 -3.03356 13,100 137 167 -64
2018-01-18 12:59:45 GMT 54.34238 -3.03714 13,100 137 167 -64
2018-01-18 12:59:43 GMT 54.34257 -3.03739 13,100 137 167 0
2018-01-18 12:59:41 GMT 54.34369 -3.03922 13,100 137 165 0
2018-01-18 12:59:38 GMT 54.34621 -3.04321 13,100 137 164 -64
2018-01-18 12:59:36 GMT 54.34681 -3.04405 13,100 137 163 -64
2018-01-18 12:59:34 GMT 54.34845 -3.04669 13,100 137 163 0
2018-01-18 12:59:33 GMT 54.34820 -3.04629 13,100 137 163 -64
2018-01-18 12:59:31 GMT 54.35016 -3.04946 13,000 137 162 0
2018-01-18 12:59:29 GMT 54.35124 -3.05113 13,000 137 161 0
2018-01-18 12:59:26 GMT 54.35267 -3.05345 13,100 137 159 64
2018-01-18 12:59:24 GMT 54.35394 -3.05541 13,100 137 159 64
2018-01-18 12:59:21 GMT 54.35495 -3.05703 13,100 137 159 64
2018-01-18 12:59:19 GMT 54.35658 -3.05961 13,000 137 158 64
2018-01-18 12:59:15 GMT 54.35872 -3.06302 13,000 137 158 64
2018-01-18 12:59:13 GMT 54.35933 -3.06402 13,000 137 158 0
2018-01-18 12:59:11 GMT 54.36054 -3.06594 13,000 136 157 0
2018-01-18 12:59:08 GMT 54.36250 -3.06906 13,000 137 157 0
2018-01-18 12:59:05 GMT 54.36411 -3.07165 13,100 137 157 -64
2018-01-18 12:59:03 GMT 54.36491 -3.07293 13,000 137 157 -64
2018-01-18 12:59:01 GMT 54.36589 -3.07451 13,100 137 157 0
2018-01-18 12:58:58 GMT 54.36724 -3.07659 13,000 137 155 0
2018-01-18 12:58:56 GMT 54.36855 -3.07876 13,100 137 155 0
2018-01-18 12:58:53 GMT 54.37041 -3.08167 13,100 137 155 0
2018-01-18 12:58:50 GMT 54.37157 -3.08350 13,000 136 154 0
2018-01-18 12:58:46 GMT 54.37385 -3.08724 13,100 136 154 0
2018-01-18 12:58:46 GMT 54.37340 -3.08643 13,000 136 154 0
2018-01-18 12:58:44 GMT 54.37492 -3.08891 13,100 136 154 0
2018-01-18 12:58:42 GMT 54.37559 -3.08999 13,000 136 154 64
2018-01-18 12:58:40 GMT 54.37688 -3.09207 13,100 136 154 128
2018-01-18 12:58:39 GMT 54.37739 -3.09282 13,100 136 154 128
2018-01-18 12:58:37 GMT 54.37871 -3.09499 13,000 136 154 128
2018-01-18 12:58:36 GMT 54.37893 -3.09531 13,000 136 154 128
2018-01-18 12:58:34 GMT 54.38031 -3.09750 13,000 136 154 128
2018-01-18 12:58:32 GMT 54.38113 -3.09879 13,000 136 154 128
2018-01-18 12:58:30 GMT 54.38209 -3.10039 13,000 136 154 64
2018-01-18 12:58:25 GMT 54.38480 -3.10469 13,000 137 155 0
2018-01-18 12:58:23 GMT 54.38553 -3.10590 13,000 137 155 0
2018-01-18 12:58:21 GMT 54.38658 -3.10760 13,000 137 155 0
2018-01-18 12:58:19 GMT 54.38768 -3.10930 13,000 136 156 0
2018-01-18 12:58:15 GMT 54.39028 -3.11354 13,000 136 156 0
2018-01-18 12:58:13 GMT 54.39098 -3.11462 13,000 136 156 0
2018-01-18 12:58:11 GMT 54.39187 -3.11612 13,000 136 156 0
2018-01-18 12:58:09 GMT 54.39303 -3.11795 13,000 136 156 0
2018-01-18 12:58:05 GMT 54.39519 -3.12141 13,000 136 156 0
2018-01-18 12:58:03 GMT 54.39629 -3.12320 13,000 136 156 0
2018-01-18 12:58:01 GMT 54.39736 -3.12486 13,000 136 156 0
2018-01-18 12:57:59 GMT 54.39871 -3.12711 13,000 136 156 0
2018-01-18 12:57:54 GMT 54.40127 -3.13127 13,000 136 157 0
2018-01-18 12:57:52 GMT 54.40220 -3.13268 13,000 136 157 64
2018-01-18 12:57:50 GMT 54.40292 -3.13393 13,000 136 157 64
2018-01-18 12:57:48 GMT 54.40425 -3.13603 13,000 136 157 64
2018-01-18 12:57:45 GMT 54.40565 -3.13835 13,000 136 157 64
2018-01-18 12:57:43 GMT 54.40727 -3.14104 13,000 136 157 64
2018-01-18 12:57:40 GMT 54.40830 -3.14267 13,000 136 157 0
2018-01-18 12:57:38 GMT 54.41007 -3.14559 13,000 136 157 0
2018-01-18 12:57:35 GMT 54.41107 -3.14718 13,000 136 157 0
2018-01-18 12:57:33 GMT 54.41244 -3.14944 13,000 136 158 0
2018-01-18 12:57:31 GMT 54.41295 -3.15025 13,000 136 158 0
2018-01-18 12:57:29 GMT 54.41379 -3.15158 13,000 136 158 0
2018-01-18 12:57:27 GMT 54.41505 -3.15372 13,000 136 159 0
2018-01-18 12:57:24 GMT 54.41702 -3.15687 13,100 136 159 0
2018-01-18 12:57:22 GMT 54.41775 -3.15815 13,000 136 159 0
2018-01-18 12:57:20 GMT 54.41931 -3.16067 13,000 136 159 -64
2018-01-18 12:57:17 GMT 54.42046 -3.16261 13,000 136 159 -64
2018-01-18 12:57:14 GMT 54.42199 -3.16514 13,000 136 159 0
2018-01-18 12:57:12 GMT 54.42307 -3.16689 13,000 136 159 0
2018-01-18 12:57:10 GMT 54.42398 -3.16842 13,000 136 160 64
2018-01-18 12:57:08 GMT 54.42494 -3.16996 13,000 136 159 64
2018-01-18 12:57:05 GMT 54.42705 -3.17351 13,000 136 161 64
2018-01-18 12:57:03 GMT 54.42828 -3.17553 13,000 136 161 64
2018-01-18 12:57:01 GMT 54.42929 -3.17723 13,000 136 161 64
2018-01-18 12:56:58 GMT 54.43066 -3.17949 13,000 135 162 64
2018-01-18 12:56:56 GMT 54.43167 -3.18119 13,000 136 163 64
2018-01-18 12:56:52 GMT 54.43395 -3.18495 13,000 136 163 64
2018-01-18 12:56:52 GMT 54.43395 -3.18495 13,000 136 163 64
2018-01-18 12:56:50 GMT 54.43502 -3.18662 13,000 136 164 0
2018-01-18 12:56:48 GMT 54.43584 -3.18797 13,000 136 164 0
2018-01-18 12:56:45 GMT 54.43771 -3.19104 13,000 136 165 0
2018-01-18 12:56:42 GMT 54.43977 -3.19436 13,000 136 166 0
2018-01-18 12:56:40 GMT 54.44061 -3.19577 13,000 136 166 0
2018-01-18 12:56:38 GMT 54.44174 -3.19767 13,000 136 166 0
2018-01-18 12:56:36 GMT 54.44349 -3.20043 13,000 136 167 0
2018-01-18 12:56:33 GMT 54.44440 -3.20195 13,000 136 167 -64
2018-01-18 12:56:30 GMT 54.44586 -3.20429 13,000 136 167 -64
2018-01-18 12:56:28 GMT 54.44731 -3.20668 13,000 136 168 -64
2018-01-18 12:56:25 GMT 54.44884 -3.20914 13,000 136 169 -64
2018-01-18 12:56:22 GMT 54.45081 -3.21229 13,000 136 169 -64
2018-01-18 12:56:20 GMT 54.45163 -3.21366 13,000 136 169 -64
2018-01-18 12:56:18 GMT 54.45327 -3.21633 13,000 136 169 0
2018-01-18 12:56:15 GMT 54.45462 -3.21849 13,000 136 169 0
2018-01-18 12:56:12 GMT 54.45607 -3.22077 13,000 136 168 -64
2018-01-18 12:56:12 GMT 54.45672 -3.22191 13,000 136 167 -64
2018-01-18 12:56:10 GMT 54.45781 -3.22368 13,100 136 168 -64
2018-01-18 12:56:07 GMT 54.45927 -3.22602 13,000 136 168 -64
2018-01-18 12:56:05 GMT 54.46051 -3.22804 13,000 136 167 0
2018-01-18 12:56:01 GMT 54.46262 -3.23151 13,100 136 167 0
2018-01-18 12:56:01 GMT 54.46235 -3.23106 13,100 136 166 0
2018-01-18 12:55:59 GMT 54.46367 -3.23329 13,100 136 166 0
2018-01-18 12:55:56 GMT 54.46509 -3.23556 13,000 136 166 64
2018-01-18 12:55:54 GMT 54.46626 -3.23747 13,100 135 166 64
2018-01-18 12:55:52 GMT 54.46761 -3.23972 13,000 135 166 64
2018-01-18 12:55:50 GMT 54.46838 -3.24097 13,000 136 166 64
2018-01-18 12:55:48 GMT 54.46948 -3.24282 13,000 136 166 0
2018-01-18 12:55:46 GMT 54.47063 -3.24471 13,000 136 166 0
2018-01-18 12:55:44 GMT 54.47203 -3.24704 13,000 136 166 64
2018-01-18 12:55:40 GMT 54.47482 -3.25162 13,000 135 166 64
2018-01-18 12:55:38 GMT 54.47562 -3.25284 13,000 136 167 64
2018-01-18 12:55:35 GMT 54.47720 -3.25553 13,000 136 167 0
2018-01-18 12:55:33 GMT 54.47785 -3.25653 13,000 136 167 -64
2018-01-18 12:55:31 GMT 54.47925 -3.25886 13,000 136 167 -64
2018-01-18 12:55:28 GMT 54.48083 -3.26152 13,000 136 167 0
2018-01-18 12:55:26 GMT 54.48189 -3.26326 13,000 136 167 0
2018-01-18 12:55:24 GMT 54.48334 -3.26560 13,000 136 167 0
2018-01-18 12:55:20 GMT 54.48495 -3.26827 13,000 136 167 -64
2018-01-18 12:55:18 GMT 54.48692 -3.27150 13,000 136 167 -64
2018-01-18 12:55:14 GMT 54.48830 -3.27385 13,000 135 166 0
2018-01-18 12:55:12 GMT 54.48958 -3.27595 13,000 135 166 0
2018-01-18 12:55:10 GMT 54.49100 -3.27829 13,000 135 166 0
2018-01-18 12:55:08 GMT 54.49178 -3.27958 13,100 135 166 0
2018-01-18 12:55:06 GMT 54.49289 -3.28142 13,000 135 166 0
2018-01-18 12:55:04 GMT 54.49396 -3.28325 13,000 135 166 -64
2018-01-18 12:55:02 GMT 54.49503 -3.28499 13,000 135 166 -64
2018-01-18 12:55:00 GMT 54.49656 -3.28757 13,000 135 166 0
2018-01-18 12:54:56 GMT 54.49864 -3.29097 13,000 135 166 0
2018-01-18 12:54:53 GMT 54.50093 -3.29477 13,000 135 166 64
2018-01-18 12:54:49 GMT 54.50226 -3.29695 13,100 135 166 0
2018-01-18 12:54:47 GMT 54.50368 -3.29937 13,000 136 166 0
2018-01-18 12:54:45 GMT 54.50480 -3.30114 13,000 136 166 0
2018-01-18 12:54:42 GMT 54.50648 -3.30389 13,000 136 166 0
2018-01-18 12:54:39 GMT 54.50820 -3.30672 13,000 136 167 64
2018-01-18 12:54:37 GMT 54.50950 -3.30880 13,000 136 166 64
2018-01-18 12:54:35 GMT 54.51011 -3.30980 13,000 136 166 64
2018-01-18 12:54:32 GMT 54.51379 -3.31569 13,000 137 167 64
2018-01-18 12:54:28 GMT 54.51494 -3.31755 13,000 137 167 64
2018-01-18 12:54:24 GMT 54.51636 -3.31981 13,000 137 167 64
2018-01-18 12:54:22 GMT 54.51826 -3.32278 13,000 137 169 64
2018-01-18 12:54:18 GMT 54.52054 -3.32644 13,000 137 169 0
2018-01-18 12:54:15 GMT 54.52166 -3.32819 13,000 137 169 -64
2018-01-18 12:54:13 GMT 54.52327 -3.33072 13,000 137 169 -128
2018-01-18 12:54:11 GMT 54.52423 -3.33225 13,000 137 170 -128
2018-01-18 12:54:09 GMT 54.52515 -3.33377 13,000 137 170 -64
2018-01-18 12:54:07 GMT 54.52640 -3.33568 13,000 137 170 0
2018-01-18 12:54:04 GMT 54.52771 -3.33776 13,000 137 170 -192
2018-01-18 12:54:02 GMT 54.52924 -3.34018 13,000 137 169 -320
2018-01-18 12:53:59 GMT 54.53097 -3.34292 13,100 137 169 -448
2018-01-18 12:53:57 GMT 54.53232 -3.34509 13,100 137 169 -192
2018-01-18 12:53:53 GMT 54.53469 -3.34883 13,100 136 168 192
2018-01-18 12:53:52 GMT 54.53497 -3.34925 13,100 136 168 320
2018-01-18 12:53:51 GMT 54.53529 -3.34983 13,100 136 168 384
2018-01-18 12:53:48 GMT 54.53728 -3.35301 13,000 136 168 64
2018-01-18 12:53:46 GMT 54.53842 -3.35487 13,000 136 167 -128
2018-01-18 12:53:44 GMT 54.53979 -3.35705 13,100 136 167 0
2018-01-18 12:53:41 GMT 54.54209 -3.36082 13,000 136 169 256
2018-01-18 12:53:39 GMT 54.54209 -3.36082 13,000 136 169 256
2018-01-18 12:53:37 GMT 54.54400 -3.36398 13,000 135 168 0
2018-01-18 12:53:35 GMT 54.54433 -3.36456 13,000 135 169 0
2018-01-18 12:53:33 GMT 54.54577 -3.36698 13,000 135 169 -128
2018-01-18 12:53:29 GMT 54.54822 -3.37119 13,000 135 169 0
2018-01-18 12:53:27 GMT 54.54872 -3.37200 13,000 135 169 0
2018-01-18 12:53:25 GMT 54.54991 -3.37397 13,100 135 169 -64
2018-01-18 12:53:23 GMT 54.55154 -3.37688 13,100 134 170 0
2018-01-18 12:53:19 GMT 54.55348 -3.38031 13,000 134 171 64
2018-01-18 12:53:17 GMT 54.55438 -3.38188 13,000 133 171 64
2018-01-18 12:53:15 GMT 54.55541 -3.38371 13,000 133 171 64
2018-01-18 12:53:13 GMT 54.55678 -3.38621 13,000 133 172 64
2018-01-18 12:53:10 GMT 54.55820 -3.38880 13,000 132 172 64
2018-01-18 12:53:08 GMT 54.55962 -3.39138 13,000 132 173 64
2018-01-18 12:53:06 GMT 54.56035 -3.39284 13,000 132 174 64
2018-01-18 12:53:04 GMT 54.56160 -3.39519 13,000 131 173 64
2018-01-18 12:53:02 GMT 54.56268 -3.39728 13,000 131 174 64
2018-01-18 12:53:00 GMT 54.56378 -3.39946 13,000 131 175 64
2018-01-18 12:52:57 GMT 54.56509 -3.40210 13,000 130 175 64
2018-01-18 12:52:55 GMT 54.56616 -3.40418 13,000 130 175 0
2018-01-18 12:52:53 GMT 54.56760 -3.40718 13,000 129 175 0
2018-01-18 12:52:51 GMT 54.56867 -3.40934 13,000 129 175 0
2018-01-18 12:52:48 GMT 54.57021 -3.41259 13,000 128 175 0
2018-01-18 12:52:46 GMT 54.57147 -3.41529 13,000 128 175 0
2018-01-18 12:52:44 GMT 54.57216 -3.41683 13,000 128 175 -64
2018-01-18 12:52:41 GMT 54.57403 -3.42083 13,000 128 174 0
2018-01-18 12:52:39 GMT 54.57431 -3.42141 13,000 128 174 0
2018-01-18 12:52:37 GMT 54.57556 -3.42415 13,000 128 174 -64
2018-01-18 12:52:35 GMT 54.57654 -3.42632 13,000 128 174 -64
2018-01-18 12:52:33 GMT 54.57770 -3.42878 13,000 129 173 -64
2018-01-18 12:52:30 GMT 54.57947 -3.43256 13,000 130 172 -64
2018-01-18 12:52:28 GMT 54.58058 -3.43484 13,000 130 172 -64
2018-01-18 12:52:26 GMT 54.58143 -3.43656 13,000 130 172 -64
2018-01-18 12:52:24 GMT 54.58217 -3.43797 13,100 131 171 -64
2018-01-18 12:52:21 GMT 54.58429 -3.44219 13,000 132 170 -64
2018-01-18 12:52:19 GMT 54.58478 -3.44305 13,100 133 170 -64
2018-01-18 12:52:16 GMT 54.58644 -3.44615 13,100 134 169 -64
2018-01-18 12:52:14 GMT 54.58771 -3.44838 13,100 135 168 -64
2018-01-18 12:52:12 GMT 54.58878 -3.45029 13,100 135 168 -64
2018-01-18 12:52:09 GMT 54.59010 -3.45245 13,100 137 167 -64
2018-01-18 12:52:06 GMT 54.59212 -3.45568 13,100 138 166 128
2018-01-18 12:52:04 GMT 54.59288 -3.45678 13,100 139 167 192
2018-01-18 12:52:02 GMT 54.59442 -3.45903 13,100 143 165 0
2018-01-18 12:52:00 GMT 54.59618 -3.46111 13,100 148 164 64
2018-01-18 12:51:57 GMT 54.59814 -3.46319 13,000 151 163 64
2018-01-18 12:51:53 GMT 54.60022 -3.46506 13,100 152 163 0
2018-01-18 12:51:51 GMT 54.60113 -3.46594 13,000 152 163 0
2018-01-18 12:51:48 GMT 54.60342 -3.46796 13,000 152 163 0
2018-01-18 12:51:46 GMT 54.60507 -3.46942 13,100 152 163 0
2018-01-18 12:51:43 GMT 54.60685 -3.47101 13,000 152 162 0
2018-01-18 12:51:41 GMT 54.60806 -3.47210 13,100 152 162 0
2018-01-18 12:51:38 GMT 54.61048 -3.47418 13,000 152 162 0
2018-01-18 12:51:35 GMT 54.61198 -3.47556 13,000 152 163 64
2018-01-18 12:51:33 GMT 54.61359 -3.47701 13,000 152 163 0
2018-01-18 12:51:31 GMT 54.61462 -3.47784 13,000 152 163 0
2018-01-18 12:51:27 GMT 54.61775 -3.48065 13,100 152 163 0
2018-01-18 12:51:24 GMT 54.61977 -3.48242 13,000 152 163 0
2018-01-18 12:51:22 GMT 54.62105 -3.48355 13,000 152 163 64
2018-01-18 12:51:20 GMT 54.62197 -3.48441 13,000 152 163 64
2018-01-18 12:51:17 GMT 54.62435 -3.48658 13,000 152 162 0
2018-01-18 12:51:15 GMT 54.62563 -3.48767 13,000 152 162 0
2018-01-18 12:51:13 GMT 54.62663 -3.48858 13,000 152 162 0
2018-01-18 12:51:11 GMT 54.62828 -3.49010 13,000 152 162 -64
2018-01-18 12:51:07 GMT 54.63121 -3.49276 13,100 152 162 -64
2018-01-18 12:51:04 GMT 54.63350 -3.49486 13,100 152 162 0
2018-01-18 12:51:01 GMT 54.63515 -3.49632 13,000 152 161 0
2018-01-18 12:50:57 GMT 54.63766 -3.49865 13,100 152 161 0
2018-01-18 12:50:55 GMT 54.63897 -3.49990 13,100 152 161 64
2018-01-18 12:50:53 GMT 54.64023 -3.50100 13,000 152 161 0
2018-01-18 12:50:50 GMT 54.64199 -3.50264 13,000 152 161 64
2018-01-18 12:50:47 GMT 54.64437 -3.50481 13,000 152 161 64
2018-01-18 12:50:43 GMT 54.64710 -3.50730 13,000 152 161 64
2018-01-18 12:50:40 GMT 54.64893 -3.50900 13,100 152 161 0
2018-01-18 12:50:36 GMT 54.65126 -3.51113 13,000 152 161 0
2018-01-18 12:50:34 GMT 54.65341 -3.51312 13,000 152 161 0
2018-01-18 12:50:31 GMT 54.65474 -3.51433 13,000 152 161 0
2018-01-18 12:50:29 GMT 54.65601 -3.51546 13,000 152 161 0
2018-01-18 12:50:24 GMT 54.65954 -3.51879 13,000 151 162 -64
2018-01-18 12:50:22 GMT 54.66089 -3.51995 13,000 151 162 0
2018-01-18 12:50:19 GMT 54.66225 -3.52128 13,000 151 162 0
2018-01-18 12:50:16 GMT 54.66486 -3.52362 13,000 151 162 0
2018-01-18 12:50:13 GMT 54.66643 -3.52511 13,000 151 162 0
2018-01-18 12:50:11 GMT 54.66815 -3.52670 13,000 151 162 0
2018-01-18 12:50:09 GMT 54.66904 -3.52761 13,100 151 162 0
2018-01-18 12:50:05 GMT 54.67200 -3.53041 13,000 151 162 64
2018-01-18 12:50:03 GMT 54.67410 -3.53235 13,000 151 162 64
2018-01-18 12:50:01 GMT 54.67502 -3.53323 13,000 151 162 64
2018-01-18 12:49:59 GMT 54.67566 -3.53388 13,000 151 162 64
2018-01-18 12:49:57 GMT 54.67770 -3.53585 13,000 151 162 64
2018-01-18 12:49:55 GMT 54.67841 -3.53647 13,000 151 162 64
2018-01-18 12:49:52 GMT 54.67996 -3.53800 13,000 151 162 0
2018-01-18 12:49:49 GMT 54.68226 -3.54018 13,000 151 162 64
2018-01-18 12:49:46 GMT 54.68431 -3.54212 13,000 151 162 0
2018-01-18 12:49:44 GMT 54.68529 -3.54301 13,000 151 162 0
2018-01-18 12:49:42 GMT 54.68678 -3.54451 13,000 151 162 0
2018-01-18 12:49:40 GMT 54.68845 -3.54600 13,000 151 162 0
2018-01-18 12:49:38 GMT 54.68934 -3.54692 13,000 151 162 0
2018-01-18 12:49:36 GMT 54.69092 -3.54842 13,000 150 162 0
2018-01-18 12:49:33 GMT 54.69324 -3.55060 13,000 150 162 -64
2018-01-18 12:49:30 GMT 54.69525 -3.55258 13,000 150 162 0
2018-01-18 12:49:28 GMT 54.69585 -3.55311 13,000 150 162 0
2018-01-18 12:49:25 GMT 54.69781 -3.55497 13,000 150 162 0
2018-01-18 12:49:23 GMT 54.70023 -3.55732 13,100 150 162 0
2018-01-18 12:49:21 GMT 54.70051 -3.55757 13,000 150 162 0
2018-01-18 12:49:18 GMT 54.70260 -3.55957 13,000 150 162 64
2018-01-18 12:49:11 GMT 54.70730 -3.56415 13,000 151 163 0
2018-01-18 12:49:08 GMT 54.70917 -3.56590 13,000 150 163 0
2018-01-18 12:49:05 GMT 54.71109 -3.56781 13,000 150 163 0
2018-01-18 12:49:02 GMT 54.71333 -3.56999 13,000 150 164 0
2018-01-18 12:49:00 GMT 54.71439 -3.57096 13,000 150 164 0
2018-01-18 12:48:58 GMT 54.71599 -3.57250 13,000 150 164 0
2018-01-18 12:48:55 GMT 54.71801 -3.57455 13,000 150 164 0
2018-01-18 12:48:52 GMT 54.71970 -3.57613 13,000 150 164 0
2018-01-18 12:48:50 GMT 54.72095 -3.57738 13,000 150 165 0
2018-01-18 12:48:48 GMT 54.72267 -3.57905 13,000 150 165 0
2018-01-18 12:48:44 GMT 54.72583 -3.58213 13,000 151 167 -64
2018-01-18 12:48:42 GMT 54.72718 -3.58346 13,000 150 165 64
2018-01-18 12:48:39 GMT 54.72885 -3.58510 13,000 150 166 64
2018-01-18 12:48:37 GMT 54.73059 -3.58679 13,000 150 166 64
2018-01-18 12:48:37 GMT 54.72949 -3.58574 13,000 150 166 64
2018-01-18 12:48:34 GMT 54.73164 -3.58784 13,000 150 166 0
2018-01-18 12:48:32 GMT 54.73333 -3.58945 13,000 150 166 -64
2018-01-18 12:48:30 GMT 54.73454 -3.59062 13,000 150 166 -64
2018-01-18 12:48:27 GMT 54.73659 -3.59253 13,000 150 166 -64
2018-01-18 12:48:24 GMT 54.73846 -3.59431 13,000 150 166 -64
2018-01-18 12:48:20 GMT 54.74115 -3.59694 13,000 151 167 -128
2018-01-18 12:48:17 GMT 54.74329 -3.59894 13,100 150 166 -64
2018-01-18 12:48:15 GMT 54.74437 -3.59996 13,000 150 166 0
2018-01-18 12:48:10 GMT 54.74812 -3.60352 13,000 150 166 0
2018-01-18 12:48:07 GMT 54.75018 -3.60551 13,000 150 166 0
2018-01-18 12:48:05 GMT 54.75116 -3.60643 13,000 150 166 0
2018-01-18 12:48:03 GMT 54.75251 -3.60776 13,000 150 166 0
2018-01-18 12:48:01 GMT 54.75403 -3.60917 13,100 150 166 -64
2018-01-18 12:47:59 GMT 54.75530 -3.61042 13,100 150 166 -64
2018-01-18 12:47:57 GMT 54.75698 -3.61200 13,100 150 166 -64
2018-01-18 12:47:54 GMT 54.75926 -3.61417 13,000 150 166 64
2018-01-18 12:47:51 GMT 54.76154 -3.61642 13,100 150 166 64
2018-01-18 12:47:49 GMT 54.76186 -3.61668 13,000 150 166 64
2018-01-18 12:47:46 GMT 54.76424 -3.61903 13,100 150 166 -64
2018-01-18 12:47:44 GMT 54.76545 -3.62016 13,100 150 166 0
2018-01-18 12:47:41 GMT 54.76764 -3.62233 13,100 150 166 -64
2018-01-18 12:47:39 GMT 54.76891 -3.62355 13,000 150 166 0
2018-01-18 12:47:39 GMT 54.76891 -3.62355 13,000 150 166 0
2018-01-18 12:47:36 GMT 54.77090 -3.62549 13,100 150 166 64
2018-01-18 12:47:30 GMT 54.77453 -3.62898 13,000 150 166 64
2018-01-18 12:47:28 GMT 54.77588 -3.63032 13,000 150 166 64
2018-01-18 12:47:26 GMT 54.77719 -3.63163 13,000 150 167 64
2018-01-18 12:47:24 GMT 54.77902 -3.63341 13,100 150 167 64
2018-01-18 12:47:19 GMT 54.78278 -3.63704 13,000 150 168 64
2018-01-18 12:47:14 GMT 54.78653 -3.64059 13,000 151 169 0
2018-01-18 12:47:10 GMT 54.78836 -3.64237 13,000 151 169 0
2018-01-18 12:47:08 GMT 54.78983 -3.64374 13,000 151 169 0
2018-01-18 12:47:05 GMT 54.79156 -3.64544 13,000 151 169 0
2018-01-18 12:47:02 GMT 54.79394 -3.64763 13,000 151 169 0
2018-01-18 12:47:00 GMT 54.79529 -3.64896 13,000 151 169 0
2018-01-18 12:46:58 GMT 54.79660 -3.65021 13,000 151 169 64
2018-01-18 12:46:56 GMT 54.79825 -3.65174 13,000 151 170 0
2018-01-18 12:46:52 GMT 54.80063 -3.65392 13,000 151 170 0
2018-01-18 12:46:50 GMT 54.80302 -3.65620 13,000 151 170 0
2018-01-18 12:46:46 GMT 54.80455 -3.65770 13,000 151 170 0
2018-01-18 12:46:44 GMT 54.80594 -3.65901 13,000 151 170 -64
2018-01-18 12:46:39 GMT 54.80946 -3.66233 13,000 151 170 -64
2018-01-18 12:46:36 GMT 54.81186 -3.66461 13,000 151 170 -64
2018-01-18 12:46:34 GMT 54.81335 -3.66594 13,100 151 169 -64
2018-01-18 12:46:28 GMT 54.81706 -3.66951 13,000 151 169 -64
2018-01-18 12:46:26 GMT 54.81829 -3.67068 13,000 151 169 0
2018-01-18 12:46:24 GMT 54.81968 -3.67193 13,100 151 169 0
2018-01-18 12:46:19 GMT 54.82365 -3.67573 13,100 151 168 0
2018-01-18 12:46:16 GMT 54.82578 -3.67776 13,000 151 168 0
2018-01-18 12:46:14 GMT 54.82671 -3.67859 13,100 151 168 64
2018-01-18 12:46:09 GMT 54.83130 -3.68292 13,000 151 168 0
2018-01-18 12:46:07 GMT 54.83193 -3.68350 13,000 151 168 0
2018-01-18 12:46:05 GMT 54.83332 -3.68483 13,000 151 167 0
2018-01-18 12:46:01 GMT 54.83551 -3.68691 13,000 151 167 0
2018-01-18 12:45:58 GMT 54.83771 -3.68898 13,100 151 167 -64
2018-01-18 12:45:55 GMT 54.84000 -3.69116 13,100 151 166 -64
2018-01-18 12:45:52 GMT 54.84242 -3.69343 13,000 151 166 0
2018-01-18 12:45:48 GMT 54.84487 -3.69573 13,100 151 165 64
2018-01-18 12:45:45 GMT 54.84618 -3.69698 13,000 151 165 0
2018-01-18 12:45:43 GMT 54.84764 -3.69835 13,000 151 163 0
2018-01-18 12:45:38 GMT 54.85166 -3.70214 13,000 151 163 0
2018-01-18 12:45:35 GMT 54.85367 -3.70397 13,000 151 163 0
2018-01-18 12:45:33 GMT 54.85432 -3.70464 13,000 151 162 0
2018-01-18 12:45:27 GMT 54.85840 -3.70845 13,000 151 162 64
2018-01-18 12:45:24 GMT 54.86065 -3.71055 13,000 151 162 0
2018-01-18 12:45:22 GMT 54.86238 -3.71225 13,000 151 162 0
2018-01-18 12:45:18 GMT 54.86522 -3.71491 13,000 151 162 0
2018-01-18 12:45:17 GMT 54.86522 -3.71491 13,000 151 162 0
2018-01-18 12:45:14 GMT 54.86735 -3.71696 13,100 151 162 0
2018-01-18 12:45:11 GMT 54.86935 -3.71887 13,000 150 162 0
2018-01-18 12:45:07 GMT 54.87159 -3.72104 13,000 150 162 0
2018-01-18 12:45:03 GMT 54.87406 -3.72345 13,000 150 162 0
2018-01-18 12:45:00 GMT 54.87638 -3.72561 13,000 151 163 0
2018-01-18 12:44:57 GMT 54.87822 -3.72743 13,000 150 163 0
2018-01-18 12:44:53 GMT 54.88088 -3.72994 13,000 150 163 0
2018-01-18 12:44:51 GMT 54.88197 -3.73102 13,000 150 163 0
2018-01-18 12:44:46 GMT 54.88536 -3.73438 13,100 150 164 64
2018-01-18 12:44:43 GMT 54.88835 -3.73727 13,000 150 165 128
2018-01-18 12:44:36 GMT 54.89209 -3.74101 13,000 149 168 128
2018-01-18 12:44:34 GMT 54.89342 -3.74238 13,000 149 168 64
2018-01-18 12:44:32 GMT 54.89477 -3.74376 13,000 148 169 0
2018-01-18 12:44:29 GMT 54.89780 -3.74709 13,000 144 171 -192
2018-01-18 12:44:26 GMT 54.89882 -3.74833 13,000 143 171 -256
2018-01-18 12:44:22 GMT 54.90152 -3.75199 13,000 139 172 -64
2018-01-18 12:44:20 GMT 54.90303 -3.75426 13,000 139 172 -64
2018-01-18 12:44:16 GMT 54.90506 -3.75732 13,000 139 172 -64
2018-01-18 12:44:12 GMT 54.90752 -3.76104 13,000 139 172 0
2018-01-18 12:44:09 GMT 54.90903 -3.76330 13,000 139 172 0
2018-01-18 12:44:05 GMT 54.91127 -3.76661 13,000 139 172 -64
2018-01-18 12:44:01 GMT 54.91418 -3.77106 13,000 139 172 0
2018-01-18 12:43:59 GMT 54.91507 -3.77243 13,000 139 172 64
2018-01-18 12:43:55 GMT 54.91716 -3.77563 13,000 139 172 64
2018-01-18 12:43:51 GMT 54.92005 -3.77996 13,000 139 172 64
2018-01-18 12:43:49 GMT 54.92131 -3.78188 13,000 139 172 64
2018-01-18 12:43:47 GMT 54.92256 -3.78379 13,000 138 173 64
2018-01-18 12:43:45 GMT 54.92326 -3.78479 13,000 138 173 64
2018-01-18 12:43:41 GMT 54.92578 -3.78859 13,000 138 173 0
2018-01-18 12:43:38 GMT 54.92764 -3.79145 13,000 139 174 0
2018-01-18 12:43:35 GMT 54.92959 -3.79436 13,000 139 174 -64
2018-01-18 12:43:31 GMT 54.93234 -3.79852 13,000 139 174 0
2018-01-18 12:43:25 GMT 54.93583 -3.80368 13,000 139 175 64
2018-01-18 12:43:20 GMT 54.93851 -3.80773 13,000 139 175 0
2018-01-18 12:43:16 GMT 54.94137 -3.81201 13,000 139 176 0
2018-01-18 12:43:14 GMT 54.94235 -3.81342 13,000 139 176 0
2018-01-18 12:43:10 GMT 54.94509 -3.81750 13,000 139 177 -64
2018-01-18 12:43:08 GMT 54.94631 -3.81933 13,000 139 177 0
2018-01-18 12:43:05 GMT 54.94826 -3.82227 13,000 139 177 -64
2018-01-18 12:43:00 GMT 54.95105 -3.82640 13,000 139 178 64
2018-01-18 12:42:58 GMT 54.95279 -3.82890 13,000 139 178 64
2018-01-18 12:42:56 GMT 54.95408 -3.83090 13,000 139 178 0
2018-01-18 12:42:54 GMT 54.95503 -3.83229 13,000 139 179 0
2018-01-18 12:42:49 GMT 54.95792 -3.83657 13,000 139 179 64
2018-01-18 12:42:47 GMT 54.95920 -3.83839 13,000 139 180 -64
2018-01-18 12:42:43 GMT 54.96172 -3.84214 13,000 139 180 -64
2018-01-18 12:42:39 GMT 54.96437 -3.84605 13,000 139 180 -64
2018-01-18 12:42:36 GMT 54.96628 -3.84888 13,000 139 180 -64
2018-01-18 12:42:34 GMT 54.96799 -3.85135 13,000 139 181 64
2018-01-18 12:42:33 GMT 54.96799 -3.85135 13,000 139 181 0
2018-01-18 12:42:28 GMT 54.97110 -3.85604 13,000 139 181 0
2018-01-18 12:42:26 GMT 54.97270 -3.85837 13,000 139 182 64
2018-01-18 12:42:23 GMT 54.97480 -3.86153 13,000 139 182 0
2018-01-18 12:42:18 GMT 54.97769 -3.86581 13,000 139 182 0
2018-01-18 12:42:16 GMT 54.97934 -3.86832 13,000 139 182 0
2018-01-18 12:42:14 GMT 54.98090 -3.87058 13,000 139 182 -64
2018-01-18 12:42:08 GMT 54.98401 -3.87534 13,000 138 182 -64
2018-01-18 12:42:05 GMT 54.98694 -3.87979 13,100 138 182 0
2018-01-18 12:42:03 GMT 54.98732 -3.88034 13,100 138 182 0
2018-01-18 12:41:59 GMT 54.99042 -3.88512 13,000 138 182 0
2018-01-18 12:41:57 GMT 54.99161 -3.88698 13,000 138 182 64
2018-01-18 12:41:53 GMT 54.99379 -3.89041 13,000 137 182 64
2018-01-18 12:41:52 GMT 54.99411 -3.89091 13,000 137 182 0
2018-01-18 12:41:48 GMT 54.99705 -3.89549 13,000 137 183 0
2018-01-18 12:41:42 GMT 55.00021 -3.90065 13,000 136 183 64
2018-01-18 12:41:42 GMT 55.00049 -3.90115 13,000 136 183 64
2018-01-18 12:41:38 GMT 55.00333 -3.90572 13,000 136 183 64
2018-01-18 12:41:36 GMT 55.00433 -3.90734 13,000 136 183 64
2018-01-18 12:41:31 GMT 55.00708 -3.91194 13,100 135 183 0
2018-01-18 12:41:27 GMT 55.00987 -3.91655 13,000 135 183 0
2018-01-18 12:41:25 GMT 55.01115 -3.91873 13,000 135 183 -64
2018-01-18 12:41:22 GMT 55.01266 -3.92131 13,000 135 183 -64
2018-01-18 12:41:17 GMT 55.01599 -3.92695 13,000 135 183 -64
2018-01-18 12:41:14 GMT 55.01752 -3.92955 13,100 136 183 -64
2018-01-18 12:41:12 GMT 55.01880 -3.93165 13,000 136 183 -64
2018-01-18 12:41:11 GMT 55.01917 -3.93230 13,100 136 182 -64
2018-01-18 12:41:06 GMT 55.02329 -3.93916 13,100 136 180 -128
2018-01-18 12:41:03 GMT 55.02420 -3.94062 13,100 136 179 -128
2018-01-18 12:41:01 GMT 55.02553 -3.94280 13,100 137 179 -128
2018-01-18 12:40:56 GMT 55.02852 -3.94759 13,100 137 176 -64
2018-01-18 12:40:54 GMT 55.02997 -3.94983 13,100 138 176 -64
2018-01-18 12:40:52 GMT 55.03131 -3.95192 13,100 139 174 192
2018-01-18 12:40:51 GMT 55.03131 -3.95192 13,100 138 175 64
2018-01-18 12:40:45 GMT 55.03542 -3.95799 13,100 140 174 192
2018-01-18 12:40:41 GMT 55.03757 -3.96122 13,000 138 174 64
2018-01-18 12:40:36 GMT 55.04095 -3.96681 13,000 134 175 128
2018-01-18 12:40:34 GMT 55.04178 -3.96840 13,100 133 175 128
2018-01-18 12:40:30 GMT 55.04379 -3.97204 13,000 131 175 0
2018-01-18 12:40:24 GMT 55.04728 -3.97946 13,000 127 174 0
2018-01-18 12:40:21 GMT 55.04872 -3.98279 13,000 127 174 -192
2018-01-18 12:40:21 GMT 55.04872 -3.98279 13,000 127 170 -64
2018-01-18 12:40:15 GMT 55.05190 -3.99030 13,100 126 170 -64
2018-01-18 12:40:10 GMT 55.05361 -3.99428 13,100 127 169 -64
2018-01-18 12:40:10 GMT 55.05361 -3.99428 13,100 127 169 -64
2018-01-18 12:40:06 GMT 55.05615 -3.99975 13,100 129 166 64
2018-01-18 12:40:04 GMT 55.05668 -4.00094 13,100 129 166 64
2018-01-18 12:40:00 GMT 55.05913 -4.00589 13,100 131 165 64
2018-01-18 12:40:00 GMT 55.05868 -4.00502 13,100 131 165 64
2018-01-18 12:39:54 GMT 55.06201 -4.01154 13,100 133 164 64
2018-01-18 12:39:50 GMT 55.06393 -4.01502 13,000 134 163 0
2018-01-18 12:39:48 GMT 55.06478 -4.01658 13,000 134 163 0
2018-01-18 12:39:44 GMT 55.06718 -4.02067 13,100 135 161 0
2018-01-18 12:39:40 GMT 55.06920 -4.02415 13,100 136 159 0
2018-01-18 12:39:38 GMT 55.07013 -4.02574 13,100 136 159 0
2018-01-18 12:39:33 GMT 55.07309 -4.03045 13,000 137 157 0
2018-01-18 12:39:28 GMT 55.07553 -4.03431 13,000 138 155 0
2018-01-18 12:39:25 GMT 55.07753 -4.03740 13,000 139 154 64
2018-01-18 12:39:23 GMT 55.07805 -4.03814 13,000 139 154 128
2018-01-18 12:39:19 GMT 55.08032 -4.04160 13,000 140 154 128
2018-01-18 12:39:12 GMT 55.08429 -4.04730 13,000 140 152 64
2018-01-18 12:39:08 GMT 55.08661 -4.05063 13,000 140 152 -128
2018-01-18 12:39:02 GMT 55.08948 -4.05476 13,100 140 148 -320
2018-01-18 12:38:59 GMT 55.09141 -4.05745 13,100 140 145 -128
2018-01-18 12:38:53 GMT 55.09453 -4.06186 13,100 141 143 64
2018-01-18 12:38:49 GMT 55.09630 -4.06436 13,100 141 143 128
2018-01-18 12:38:47 GMT 55.09746 -4.06602 13,100 141 142 256
2018-01-18 12:38:42 GMT 55.09979 -4.06919 13,000 141 143 448
2018-01-18 12:38:39 GMT 55.10156 -4.07168 13,000 141 143 256
2018-01-18 12:38:38 GMT 55.10211 -4.07243 13,000 141 143 64
2018-01-18 12:38:34 GMT 55.10412 -4.07526 13,000 140 136 256
2018-01-18 12:38:32 GMT 55.10514 -4.07668 13,000 140 139 -256
2018-01-18 12:38:28 GMT 55.10691 -4.07926 13,000 140 136 192
2018-01-18 12:38:28 GMT 55.10742 -4.08001 13,000 140 136 256
2018-01-18 12:38:25 GMT 55.10863 -4.08175 13,000 140 134 64
2018-01-18 12:38:21 GMT 55.11040 -4.08425 13,000 140 133 64
2018-01-18 12:38:19 GMT 55.11182 -4.08627 13,000 140 131 128
2018-01-18 12:38:13 GMT 55.11475 -4.09047 13,000 140 125 -192
2018-01-18 12:38:11 GMT 55.11543 -4.09141 13,000 140 126 -192
2018-01-18 12:38:09 GMT 55.11635 -4.09273 13,000 140 122 192
2018-01-18 12:38:07 GMT 55.11682 -4.09349 13,000 140 122 128
2018-01-18 12:38:02 GMT 55.11932 -4.09693 13,000 141 121 384
2018-01-18 12:37:58 GMT 55.12101 -4.09931 13,000 142 120 320
2018-01-18 12:37:51 GMT 55.12385 -4.10331 12,900 138 121 448
2018-01-18 12:37:48 GMT 55.12530 -4.10547 12,900 138 121 448
2018-01-18 12:37:48 GMT 55.12530 -4.10547 12,900 138 121 448
2018-01-18 12:37:41 GMT 55.12816 -4.11002 12,800 138 121 384
2018-01-18 12:37:38 GMT 55.12949 -4.11197 12,800 139 121 384
2018-01-18 12:37:37 GMT 55.12991 -4.11263 12,800 139 121 384
2018-01-18 12:37:33 GMT 55.13173 -4.11535 12,800 139 122 448
2018-01-18 12:37:31 GMT 55.13242 -4.11640 12,800 139 121 448
2018-01-18 12:37:28 GMT 55.13411 -4.11898 12,700 138 121 512
2018-01-18 12:37:24 GMT 55.13548 -4.12100 12,700 139 122 448
2018-01-18 12:37:21 GMT 55.13694 -4.12320 12,700 139 122 512
2018-01-18 12:37:15 GMT 55.13892 -4.12609 12,600 139 122 448
2018-01-18 12:37:14 GMT 55.13954 -4.12703 12,600 139 121 448
2018-01-18 12:37:10 GMT 55.14120 -4.12957 12,600 138 121 448
2018-01-18 12:37:06 GMT 55.14276 -4.13194 12,600 139 120 448
2018-01-18 12:37:02 GMT 55.14476 -4.13502 12,500 139 119 448
2018-01-18 12:37:00 GMT 55.14560 -4.13627 12,500 139 119 512
2018-01-18 12:36:57 GMT 55.14685 -4.13810 12,500 139 119 576
2018-01-18 12:36:56 GMT 55.14706 -4.13845 12,500 139 119 512
2018-01-18 12:36:50 GMT 55.15006 -4.14293 12,400 139 120 448
2018-01-18 12:36:46 GMT 55.15113 -4.14459 12,400 139 119 448
2018-01-18 12:36:39 GMT 55.15435 -4.14934 12,300 139 119 448
2018-01-18 12:36:35 GMT 55.15572 -4.15146 12,300 139 119 448
2018-01-18 12:36:33 GMT 55.15682 -4.15307 12,300 139 119 448
2018-01-18 12:36:30 GMT 55.15805 -4.15493 12,200 139 119 448
2018-01-18 12:36:28 GMT 55.15877 -4.15599 12,200 139 118 512
2018-01-18 12:36:26 GMT 55.15965 -4.15728 12,200 139 119 512
2018-01-18 12:36:18 GMT 55.16309 -4.16244 12,200 139 120 384
2018-01-18 12:36:16 GMT 55.16408 -4.16390 12,100 140 119 320
2018-01-18 12:36:14 GMT 55.16455 -4.16455 12,100 140 119 320
2018-01-18 12:36:11 GMT 55.16603 -4.16673 12,100 139 119 384
2018-01-18 12:36:09 GMT 55.16684 -4.16794 12,100 140 119 256
2018-01-18 12:36:09 GMT 55.16684 -4.16794 12,100 140 119 256
2018-01-18 12:36:07 GMT 55.16757 -4.16898 12,100 140 119 256
2018-01-18 12:36:05 GMT 55.16840 -4.17012 12,100 139 119 384
2018-01-18 12:36:04 GMT 55.16943 -4.17173 12,100 139 120 576
2018-01-18 12:36:02 GMT 55.16985 -4.17239 12,100 137 123 512
2018-01-18 12:35:59 GMT 55.17114 -4.17432 12,000 138 122 576
2018-01-18 12:35:59 GMT 55.17114 -4.17432 12,000 138 123 576
2018-01-18 12:35:56 GMT 55.17292 -4.17705 12,000 136 125 320
2018-01-18 12:35:55 GMT 55.17264 -4.17664 12,000 137 124 384
2018-01-18 12:35:49 GMT 55.17534 -4.18113 12,000 134 127 384
2018-01-18 12:35:47 GMT 55.17599 -4.18229 12,000 134 127 384
2018-01-18 12:35:45 GMT 55.17697 -4.18404 12,000 134 128 384
2018-01-18 12:35:39 GMT 55.17967 -4.18879 11,900 134 129 192
2018-01-18 12:35:36 GMT 55.18062 -4.19056 11,900 135 128 128
2018-01-18 12:35:34 GMT 55.18149 -4.19212 11,900 135 128 64
2018-01-18 12:35:29 GMT 55.18381 -4.19620 11,900 133 127 192
2018-01-18 12:35:25 GMT 55.18538 -4.19904 11,900 133 127 320
2018-01-18 12:35:21 GMT 55.18739 -4.20284 11,900 133 127 384
2018-01-18 12:35:18 GMT 55.18796 -4.20385 11,800 133 127 384
2018-01-18 12:35:16 GMT 55.18889 -4.20560 11,800 132 128 320
2018-01-18 12:35:09 GMT 55.19205 -4.21176 11,800 131 127 320
2018-01-18 12:35:05 GMT 55.19378 -4.21517 11,800 130 126 384
2018-01-18 12:35:00 GMT 55.19504 -4.21770 11,700 132 126 384
2018-01-18 12:34:58 GMT 55.19591 -4.21940 11,700 132 125 384
2018-01-18 12:34:54 GMT 55.19773 -4.22291 11,700 133 125 384
2018-01-18 12:34:48 GMT 55.20001 -4.22724 11,600 132 125 448
2018-01-18 12:34:45 GMT 55.20099 -4.22899 11,600 132 125 512
2018-01-18 12:34:43 GMT 55.20195 -4.23087 11,600 132 125 576
2018-01-18 12:34:38 GMT 55.20392 -4.23466 11,600 132 126 640
2018-01-18 12:34:35 GMT 55.20504 -4.23681 11,500 132 127 512
2018-01-18 12:34:33 GMT 55.20583 -4.23839 11,500 132 126 448
2018-01-18 12:34:31 GMT 55.20681 -4.24014 11,500 133 125 256
2018-01-18 12:34:27 GMT 55.20804 -4.24242 11,500 133 124 192
2018-01-18 12:34:24 GMT 55.20928 -4.24472 11,500 134 123 256
2018-01-18 12:34:22 GMT 55.21016 -4.24622 11,400 134 122 384
2018-01-18 12:34:17 GMT 55.21226 -4.25004 11,400 134 123 896
2018-01-18 12:34:14 GMT 55.21381 -4.25268 11,300 135 125 768
2018-01-18 12:34:07 GMT 55.21626 -4.25695 11,300 136 124 64
2018-01-18 12:34:04 GMT 55.21774 -4.25938 11,300 136 123 128
2018-01-18 12:34:02 GMT 55.21838 -4.26043 11,300 136 122 192
2018-01-18 12:33:58 GMT 55.22050 -4.26394 11,200 136 120 448
2018-01-18 12:33:56 GMT 55.22086 -4.26455 11,200 136 120 576
2018-01-18 12:33:52 GMT 55.22250 -4.26730 11,200 136 121 832
2018-01-18 12:33:47 GMT 55.22470 -4.27093 11,100 136 125 832
2018-01-18 12:33:43 GMT 55.22617 -4.27328 11,100 137 127 640
2018-01-18 12:33:40 GMT 55.22809 -4.27635 11,000 137 128 320
2018-01-18 12:33:36 GMT 55.22916 -4.27801 11,000 138 127 256
2018-01-18 12:33:34 GMT 55.23060 -4.28026 11,000 138 126 320
2018-01-18 12:33:31 GMT 55.23212 -4.28265 11,000 138 126 448
2018-01-18 12:33:26 GMT 55.23376 -4.28508 10,900 141 125 576
2018-01-18 12:33:21 GMT 55.23581 -4.28783 10,900 144 126 576
2018-01-18 12:33:16 GMT 55.23857 -4.29089 10,900 146 125 256
2018-01-18 12:33:13 GMT 55.24019 -4.29241 10,800 150 125 256
2018-01-18 12:33:11 GMT 55.24093 -4.29316 10,800 149 125 256
2018-01-18 12:33:09 GMT 55.24214 -4.29452 10,800 146 125 256
2018-01-18 12:33:06 GMT 55.24359 -4.29624 10,800 144 125 320
2018-01-18 12:33:02 GMT 55.24545 -4.29857 10,800 143 125 384
2018-01-18 12:32:58 GMT 55.24722 -4.30082 10,700 143 125 448
2018-01-18 12:32:55 GMT 55.24841 -4.30236 10,700 143 126 512
2018-01-18 12:32:53 GMT 55.25001 -4.30439 10,700 143 128 448
2018-01-18 12:32:48 GMT 55.25192 -4.30681 10,700 142 127 384
2018-01-18 12:32:45 GMT 55.25326 -4.30866 10,700 141 128 192
2018-01-18 12:32:41 GMT 55.25555 -4.31197 10,600 140 128 256
2018-01-18 12:32:38 GMT 55.25653 -4.31330 10,600 141 128 256
2018-01-18 12:32:36 GMT 55.25774 -4.31505 10,600 141 128 256
2018-01-18 12:32:34 GMT 55.25844 -4.31601 10,600 141 127 256
2018-01-18 12:32:31 GMT 55.26025 -4.31846 10,600 141 127 256
2018-01-18 12:32:25 GMT 55.26235 -4.32146 10,600 141 127 384
2018-01-18 12:32:21 GMT 55.26440 -4.32420 10,500 141 127 448
2018-01-18 12:32:18 GMT 55.26593 -4.32637 10,500 141 127 448
2018-01-18 12:32:14 GMT 55.26742 -4.32845 10,500 141 127 448
2018-01-18 12:32:11 GMT 55.26928 -4.33103 10,400 140 127 512
2018-01-18 12:32:08 GMT 55.27063 -4.33302 10,400 140 127 512
2018-01-18 12:32:04 GMT 55.27231 -4.33535 10,400 140 128 512
2018-01-18 12:32:01 GMT 55.27359 -4.33718 10,400 140 127 512
2018-01-18 12:31:57 GMT 55.27542 -4.33984 10,300 140 128 512
2018-01-18 12:31:54 GMT 55.27679 -4.34178 10,300 140 127 512
2018-01-18 12:31:51 GMT 55.27862 -4.34453 10,300 137 128 640
2018-01-18 12:31:47 GMT 55.27991 -4.34655 10,200 137 128 704
2018-01-18 12:31:44 GMT 55.28120 -4.34867 10,200 135 130 704
2018-01-18 12:31:41 GMT 55.28292 -4.35158 10,200 135 130 704
2018-01-18 12:31:36 GMT 55.28441 -4.35417 10,100 135 130 640
2018-01-18 12:31:34 GMT 55.28553 -4.35616 10,100 135 130 576
2018-01-18 12:31:29 GMT 55.28751 -4.35955 10,000 135 130 512
2018-01-18 12:31:26 GMT 55.28879 -4.36173 10,000 134 129 448
2018-01-18 12:31:23 GMT 55.29007 -4.36400 10,000 134 128 512
2018-01-18 12:31:20 GMT 55.29172 -4.36698 10,000 134 127 640
2018-01-18 12:31:20 GMT 55.29153 -4.36658 10,000 134 127 576
2018-01-18 12:31:16 GMT 55.29318 -4.36949 9,900 134 127 704
2018-01-18 12:31:13 GMT 55.29484 -4.37239 9,900 134 127 768
2018-01-18 12:31:09 GMT 55.29610 -4.37456 9,800 135 128 768
2018-01-18 12:31:06 GMT 55.29745 -4.37705 9,800 133 129 768
2018-01-18 12:31:03 GMT 55.29849 -4.37894 9,800 134 129 704
2018-01-18 12:31:00 GMT 55.30005 -4.38185 9,700 135 128 640
2018-01-18 12:30:55 GMT 55.30173 -4.38463 9,700 136 127 640
2018-01-18 12:30:53 GMT 55.30257 -4.38605 9,600 136 125 704
2018-01-18 12:30:49 GMT 55.30458 -4.38944 9,600 136 125 704
2018-01-18 12:30:46 GMT 55.30601 -4.39187 9,500 136 125 704
2018-01-18 12:30:42 GMT 55.30727 -4.39386 9,500 136 125 704
2018-01-18 12:30:38 GMT 55.30895 -4.39670 9,400 135 126 704
2018-01-18 12:30:35 GMT 55.31044 -4.39922 9,400 136 127 640
2018-01-18 12:30:33 GMT 55.31141 -4.40086 9,400 136 127 704
2018-01-18 12:30:29 GMT 55.31323 -4.40394 9,300 135 127 704
2018-01-18 12:30:25 GMT 55.31470 -4.40641 9,300 135 127 704
2018-01-18 12:30:23 GMT 55.31598 -4.40867 9,300 136 126 704
2018-01-18 12:30:18 GMT 55.31758 -4.41125 9,200 136 127 640
2018-01-18 12:30:14 GMT 55.31956 -4.41451 9,100 138 126 640
2018-01-18 12:30:12 GMT 55.32024 -4.41554 9,100 138 126 640
2018-01-18 12:30:07 GMT 55.32216 -4.41852 9,100 137 126 768
2018-01-18 12:30:04 GMT 55.32347 -4.42066 9,000 137 125 768
2018-01-18 12:30:00 GMT 55.32518 -4.42337 9,000 136 127 832
2018-01-18 12:29:58 GMT 55.32650 -4.42558 9,000 135 128 832
2018-01-18 12:29:55 GMT 55.32771 -4.42766 8,900 135 128 768
2018-01-18 12:29:52 GMT 55.32907 -4.42999 8,900 135 128 704
2018-01-18 12:29:46 GMT 55.33125 -4.43365 8,800 136 127 576
2018-01-18 12:29:44 GMT 55.33218 -4.43515 8,800 136 126 512
2018-01-18 12:29:41 GMT 55.33351 -4.43743 8,800 136 125 576
2018-01-18 12:29:36 GMT 55.33562 -4.44097 8,700 136 125 768
2018-01-18 12:29:33 GMT 55.33690 -4.44308 8,700 136 125 896
2018-01-18 12:29:31 GMT 55.33772 -4.44439 8,600 136 125 896
2018-01-18 12:29:26 GMT 55.33974 -4.44777 8,600 135 128 704
2018-01-18 12:29:24 GMT 55.34069 -4.44930 8,500 135 127 640
2018-01-18 12:29:21 GMT 55.34198 -4.45156 8,500 135 127 512
2018-01-18 12:29:18 GMT 55.34326 -4.45383 8,500 135 125 512
2018-01-18 12:29:15 GMT 55.34437 -4.45579 8,500 135 125 512
2018-01-18 12:29:13 GMT 55.34544 -4.45762 8,400 136 124 704
2018-01-18 12:29:10 GMT 55.34633 -4.45908 8,400 136 124 768
2018-01-18 12:29:07 GMT 55.34775 -4.46142 8,400 136 125 960
2018-01-18 12:29:04 GMT 55.34931 -4.46403 8,300 137 125 1024
2018-01-18 12:29:01 GMT 55.35056 -4.46611 8,200 137 126 896
2018-01-18 12:28:54 GMT 55.35303 -4.46994 8,200 138 127 448
2018-01-18 12:28:52 GMT 55.35434 -4.47192 8,200 137 126 256
2018-01-18 12:28:50 GMT 55.35513 -4.47327 8,200 137 125 256
2018-01-18 12:28:42 GMT 55.35855 -4.47879 8,100 137 123 704
2018-01-18 12:28:40 GMT 55.35938 -4.48008 8,100 137 123 768
2018-01-18 12:28:34 GMT 55.36171 -4.48388 8,000 136 126 704
2018-01-18 12:28:32 GMT 55.36239 -4.48500 8,000 136 127 640
2018-01-18 12:28:29 GMT 55.36372 -4.48719 7,900 137 126 576
2018-01-18 12:28:23 GMT 55.36661 -4.49179 7,900 138 124 512
2018-01-18 12:28:21 GMT 55.36714 -4.49266 7,900 139 124 512
2018-01-18 12:28:19 GMT 55.36821 -4.49432 7,800 139 124 576
2018-01-18 12:28:17 GMT 55.36933 -4.49590 7,800 139 126 640
2018-01-18 12:28:11 GMT 55.37165 -4.49940 7,800 139 125 640
2018-01-18 12:28:09 GMT 55.37256 -4.50076 7,700 139 126 576
2018-01-18 12:28:04 GMT 55.37466 -4.50391 7,700 139 126 576
2018-01-18 12:28:02 GMT 55.37581 -4.50561 7,700 139 126 576
2018-01-18 12:27:59 GMT 55.37718 -4.50763 7,600 140 126 640
2018-01-18 12:27:54 GMT 55.37920 -4.51061 7,600 140 127 576
2018-01-18 12:27:52 GMT 55.38031 -4.51222 7,600 139 127 512
2018-01-18 12:27:49 GMT 55.38167 -4.51425 7,500 139 126 320
2018-01-18 12:27:41 GMT 55.38519 -4.51982 7,500 136 125 384
2018-01-18 12:27:38 GMT 55.38618 -4.52146 7,500 136 124 448
2018-01-18 12:27:30 GMT 55.38959 -4.52685 7,400 138 122 704
2018-01-18 12:27:28 GMT 55.39046 -4.52828 7,400 138 123 768
2018-01-18 12:27:25 GMT 55.39252 -4.53130 7,300 140 124 704
2018-01-18 12:27:22 GMT 55.39334 -4.53259 7,300 140 124 704
2018-01-18 12:27:20 GMT 55.39412 -4.53364 7,300 140 125 704
2018-01-18 12:27:18 GMT 55.39494 -4.53493 7,200 140 125 640
2018-01-18 12:27:10 GMT 55.39865 -4.54026 7,200 139 124 384
2018-01-18 12:27:08 GMT 55.39944 -4.54152 7,200 139 124 384
2018-01-18 12:27:00 GMT 55.40291 -4.54664 7,100 139 122 768
2018-01-18 12:26:58 GMT 55.40377 -4.54792 7,100 139 122 768
2018-01-18 12:26:50 GMT 55.40736 -4.55325 7,000 138 124 576
2018-01-18 12:26:47 GMT 55.40838 -4.55492 6,900 137 124 384
2018-01-18 12:26:41 GMT 55.41127 -4.55974 6,900 136 120 320
2018-01-18 12:26:38 GMT 55.41238 -4.56159 6,900 136 119 576
2018-01-18 12:26:30 GMT 55.41582 -4.56724 6,800 137 116 896
2018-01-18 12:26:27 GMT 55.41658 -4.56848 6,700 138 116 896
2018-01-18 12:26:20 GMT 55.41937 -4.57289 6,600 137 116 1024
2018-01-18 12:26:17 GMT 55.42053 -4.57484 6,500 137 118 960
2018-01-18 12:26:10 GMT 55.42342 -4.57955 6,400 136 118 832
2018-01-18 12:26:07 GMT 55.42461 -4.58154 6,400 136 118 704
2018-01-18 12:25:59 GMT 55.42767 -4.58679 6,300 135 118 960
2018-01-18 12:25:57 GMT 55.42896 -4.58897 6,200 136 119 960
2018-01-18 12:25:50 GMT 55.43175 -4.59366 6,100 136 120 832
2018-01-18 12:25:46 GMT 55.43289 -4.59552 6,100 135 120 704
2018-01-18 12:25:39 GMT 55.43559 -4.60012 6,000 137 118 896
2018-01-18 12:25:36 GMT 55.43706 -4.60244 5,900 139 119 960
2018-01-18 12:25:29 GMT 55.43995 -4.60677 5,800 138 120 704
2018-01-18 12:25:25 GMT 55.44141 -4.60909 5,800 138 119 640
2018-01-18 12:25:19 GMT 55.44413 -4.61323 5,700 140 117 640
2018-01-18 12:25:15 GMT 55.44539 -4.61509 5,700 139 116 704
2018-01-18 12:25:09 GMT 55.44818 -4.61924 5,600 139 114 896
2018-01-18 12:25:06 GMT 55.44955 -4.62133 5,600 140 115 1024
2018-01-18 12:24:58 GMT 55.45251 -4.62576 5,400 138 116 768
2018-01-18 12:24:55 GMT 55.45377 -4.62766 5,400 138 116 640
2018-01-18 12:24:48 GMT 55.45656 -4.63207 5,300 138 114 832
2018-01-18 12:24:44 GMT 55.45810 -4.63443 5,200 138 114 896
2018-01-18 12:24:38 GMT 55.46050 -4.63814 5,100 138 114 960
2018-01-18 12:24:30 GMT 55.46359 -4.64284 5,000 138 114 1024
2018-01-18 12:24:27 GMT 55.46489 -4.64464 4,900 140 115 1216
2018-01-18 12:24:17 GMT 55.46895 -4.65056 4,800 140 114 576
2018-01-18 12:24:07 GMT 55.47304 -4.65670 4,700 139 114 1216
2018-01-18 12:24:02 GMT 55.47496 -4.65954 4,500 137 117 896
2018-01-18 12:23:57 GMT 55.47711 -4.66303 4,500 136 115 256
2018-01-18 12:23:47 GMT 55.48119 -4.66893 4,300 149 103 1344
2018-01-18 12:23:36 GMT 55.48549 -4.67327 4,200 146 108 704
2018-01-18 12:23:27 GMT 55.48933 -4.67893 4,000 134 112 1088
2018-01-18 12:23:16 GMT 55.49341 -4.68575 3,800 137 113 1024
2018-01-18 12:23:06 GMT 55.49734 -4.69176 3,600 151 110 1024
2018-01-18 12:22:56 GMT 55.50200 -4.69374 3,600 187 91 512
2018-01-18 12:22:46 GMT 55.50568 -4.69075 3,400 232 81 1152
2018-01-18 12:22:35 GMT 55.50731 -4.68490 3,200 258 78 640
2018-01-18 12:22:18 GMT 55.50888 -4.67393 2,900 241 85 576
2018-01-18 12:22:13 GMT 55.50966 -4.67135 2,800 241 85 576
2018-01-18 12:22:01 GMT 55.51215 -4.66438 2,600 235 84 1408
2018-01-18 12:21:55 GMT 55.51401 -4.65987 2,500 233 87 1216
2018-01-18 12:21:44 GMT 55.51625 -4.65437 2,300 236 89 1152

Making use of Plane Finder data

You are free to use the raw flight data, aircraft information and images provided in this report for your own purposes provided the data is correctly attributed to Plane Finder. We ask that you please credit Plane Finder and link to planefinder.net in close proximity to the content.

Optionally one of the following logos (no smaller then 150x24px) can be used and must link to planefinder.net

Embedding the Plane Finder map

You are welcome to embed the Plane Finder playback map on your website to offer visitors a more interactive experience. We suggest using the following HTML code:

<iframe src="//planefinder.net/data/report/GTRJB-G-TRJB-7700-squawk-2018-01-18/map" width="800" height="600" seamless="seamless"></iframe>

Where our data comes from

Plane Finder has a global network of data feeds and antenna radars that receive data broadcast directly from aircraft. The primary technologies used are ADS-B and MLAT. We also show feeds from the FAA and a FLARM glider feed.

Click here to find out more about the Plane Finder network.

How we collect our data